Darstellungsparameter: Aktuell verwendete Einstellungen:
Skalierung der Graphiken ... ?
xyx+y,   Skalierungsfaktor:      Skalierung: Modus: x, Faktor: 1
Darstellungszeitraum ... ?
Vom - - bis: - -   Zeitraum: 07.12.2010 - 06.06.2011
Min/Max/Avg-Anzeige ... ?
Zeige MMA aktuell
Zeige MMA Monat
Zeige MMA alles
Zeige --A aktuell
Zeige --A Monat
Zeige --A alles
Keine MMA-Anzeige
MMA:
Keine MMA-Graphiken
MMA-Basis: 07.12.2010 - 06.06.2011
Quicknavigation für Darstellung... ?
Tage:      1T, 2T, 3T, 5T -1T -2T -3T -5T +1T +2T +3T +5T
Wochen: 1W, 2W, 3W -1W -2W -3W +1W +2W +3W
Monate: 1M, 3M, 6M -1M -3M -6M +1M +3M +6M
Jahre:    1J, 3J, 5J, 10J -1J -3J -5J -10J +1J +3J +5J +10J
Nutze für die Darstellung ... ?
Originaldaten oder Mittelwerte auf ...
Stundenbasis Tagesbasis Wochenbasis
Monatsbasis Jahresbasis      Datenbasis: Original-Daten
Darstellen als:
Statistik (Auto) Statistik J:M      Darstellung:
Zur Graphik,    zurück zur Übersicht aller Sensoren.
 
Tabellarische Datenbersicht: ?
 
Sensor: Nr:Datum:Temp:Abs-Feuchte:Windchill:Wind:
Aussen-T/F 1 07-12-2010 00:00:03 -0.8 C 3.67 g/m*3 -0.8 C 0 km/h
2 07-12-2010 00:12:03 -0.8 C 3.67 g/m*3 -0.8 C 0 km/h
3 07-12-2010 00:24:03 -0.9 C 3.64 g/m*3 -0.9 C 0 km/h
4 07-12-2010 00:36:03 -1.4 C 3.47 g/m*3 -1.4 C 0 km/h
5 07-12-2010 00:48:03 -1.4 C 3.56 g/m*3 -1.4 C 0 km/h
6 07-12-2010 01:00:03 -1.4 C 3.6 g/m*3 -1.4 C 0 km/h
7 07-12-2010 01:12:03 -1.4 C 3.6 g/m*3 -1.4 C 0 km/h
8 07-12-2010 01:24:03 -1.4 C 3.6 g/m*3 -1.4 C 0 km/h
9 07-12-2010 01:36:03 -0.9 C 3.78 g/m*3 -0.9 C 0 km/h
10 07-12-2010 01:48:03 -0.7 C 3.83 g/m*3 -0.7 C 0 km/h
11 07-12-2010 02:00:03 -0.6 C 3.81 g/m*3 -0.6 C 0 km/h
12 07-12-2010 02:12:03 -0.5 C 3.79 g/m*3 -0.5 C 0 km/h
13 07-12-2010 02:24:03 -0.5 C 3.79 g/m*3 -0.5 C 0 km/h
14 07-12-2010 02:36:03 -0.6 C 3.72 g/m*3 -0.6 C 0 km/h
15 07-12-2010 02:48:03 -0.6 C 3.72 g/m*3 -0.6 C 0 km/h
16 07-12-2010 03:00:03 -0.5 C 3.74 g/m*3 -0.5 C 0 km/h
17 07-12-2010 03:12:03 -0.5 C 3.74 g/m*3 -0.5 C 0 km/h
18 07-12-2010 03:24:03 -0.6 C 3.72 g/m*3 -0.6 C 0 km/h
19 07-12-2010 03:36:03 -0.6 C 3.72 g/m*3 -0.6 C 0 km/h
20 07-12-2010 03:48:03 -0.6 C 3.72 g/m*3 -0.6 C 0 km/h
21 07-12-2010 04:00:04 -0.6 C 3.76 g/m*3 -0.6 C 0 km/h
22 07-12-2010 04:12:04 -0.7 C 3.69 g/m*3 -0.7 C 0 km/h
23 07-12-2010 04:24:04 -0.7 C 3.69 g/m*3 -0.7 C 0 km/h
24 07-12-2010 04:36:04 -0.9 C 3.64 g/m*3 -0.9 C 0 km/h
25 07-12-2010 04:48:04 -0.8 C 3.71 g/m*3 -0.8 C 0 km/h
Sensor: Nr:Datum:Temp:Abs-Feuchte:Windchill:Wind:
Aussen-T/F 26 07-12-2010 05:00:04 -1 C 3.66 g/m*3 -1 C 0 km/h
27 07-12-2010 05:12:04 -1 C 3.66 g/m*3 -1 C 0 km/h
28 07-12-2010 05:24:04 -0.9 C 3.69 g/m*3 -0.9 C 0 km/h
29 07-12-2010 05:36:04 -0.9 C 3.69 g/m*3 -0.9 C 0 km/h
30 07-12-2010 05:48:04 -0.9 C 3.69 g/m*3 -0.9 C 0 km/h
31 07-12-2010 06:00:04 -0.8 C 3.71 g/m*3 -0.8 C 0 km/h
32 07-12-2010 06:12:04 -0.7 C 3.69 g/m*3 -0.7 C 0 km/h
33 07-12-2010 06:24:04 -0.7 C 3.69 g/m*3 -0.7 C 0 km/h
34 07-12-2010 06:36:04 -0.8 C 3.67 g/m*3 -0.8 C 0 km/h
35 07-12-2010 06:48:04 -0.9 C 3.64 g/m*3 -0.9 C 0 km/h
36 07-12-2010 07:00:04 -1 C 3.57 g/m*3 -1 C 0 km/h
37 07-12-2010 07:12:04 -1 C 3.57 g/m*3 -1 C 0 km/h
38 07-12-2010 07:24:01 -1 C 3.57 g/m*3 -1 C 0 km/h
39 07-12-2010 07:36:02 -1 C 3.57 g/m*3 -1 C 0 km/h
40 07-12-2010 07:48:02 -1 C 3.57 g/m*3 -1 C 0 km/h
41 07-12-2010 08:00:02 -1 C 3.57 g/m*3 -1 C 0 km/h
42 07-12-2010 08:12:02 -0.9 C 3.6 g/m*3 -0.9 C 0 km/h
43 07-12-2010 08:24:02 -0.9 C 3.6 g/m*3 -0.9 C 0 km/h
44 07-12-2010 08:36:02 -0.8 C 3.62 g/m*3 -0.8 C 0 km/h
45 07-12-2010 08:48:02 -0.6 C 3.63 g/m*3 -0.6 C 0 km/h
46 07-12-2010 09:00:02 -0.6 C 3.63 g/m*3 -0.6 C 0 km/h
47 07-12-2010 09:12:02 -0.5 C 3.65 g/m*3 -0.5 C 0 km/h
48 07-12-2010 09:24:02 -0.5 C 3.56 g/m*3 -0.5 C 0 km/h
49 07-12-2010 09:36:02 -0.3 C 3.61 g/m*3 -0.3 C 0 km/h
50 07-12-2010 09:48:02 -0.1 C 3.61 g/m*3 -0.1 C 0 km/h
Sensor: Nr:Datum:Temp:Abs-Feuchte:Windchill:Wind:
Aussen-T/F 51 07-12-2010 10:00:02 0.2 C 3.64 g/m*3 0.2 C 0 km/h
52 07-12-2010 10:12:01 0.1 C 3.56 g/m*3 0.1 C 0 km/h
53 07-12-2010 10:24:02 0.1 C 3.61 g/m*3 0.1 C 0 km/h
54 07-12-2010 10:36:02 0.3 C 3.61 g/m*3 0.3 C 0 km/h
55 07-12-2010 10:48:01 0.2 C 3.59 g/m*3 0.2 C 0 km/h
56 07-12-2010 11:00:02 0.2 C 3.59 g/m*3 0.2 C 0 km/h
57 07-12-2010 11:12:01 0.5 C 3.61 g/m*3 0.5 C 0 km/h
58 07-12-2010 11:24:01 0.3 C 3.51 g/m*3 0.3 C 0 km/h
59 07-12-2010 11:36:02 0.8 C 3.69 g/m*3 0.8 C 0 km/h
60 07-12-2010 11:48:02 1 C 3.63 g/m*3 1 C 0 km/h
61 07-12-2010 12:00:02 1 C 3.63 g/m*3 1 C 0 km/h
62 07-12-2010 12:12:02 0.7 C 3.56 g/m*3 0.7 C 0 km/h
63 07-12-2010 12:24:02 1 C 3.63 g/m*3 1 C 0 km/h
64 07-12-2010 12:36:02 1.3 C 3.66 g/m*3 1.3 C 0 km/h
65 07-12-2010 12:48:02 1.6 C 3.68 g/m*3 1.6 C 0 km/h
66 07-12-2010 13:00:02 2.1 C 3.58 g/m*3 2.1 C 0 km/h
67 07-12-2010 13:12:02 1.2 C 3.58 g/m*3 1.2 C 0 km/h
68 07-12-2010 13:24:02 1.5 C 3.71 g/m*3 1.5 C 0 km/h
69 07-12-2010 13:36:02 1.2 C 3.58 g/m*3 1.2 C 0 km/h
70 07-12-2010 13:48:02 1.2 C 3.58 g/m*3 1.2 C 0 km/h
71 07-12-2010 14:00:02 1.2 C 3.58 g/m*3 1.2 C 0 km/h
72 07-12-2010 14:12:02 1.2 C 3.63 g/m*3 1.2 C 0 km/h
73 07-12-2010 14:24:02 1.3 C 3.71 g/m*3 1.3 C 0 km/h
74 07-12-2010 14:36:02 0.9 C 3.71 g/m*3 0.9 C 0 km/h
75 07-12-2010 14:48:02 0.7 C 3.71 g/m*3 0.7 C 0 km/h
Sensor: Nr:Datum:Temp:Abs-Feuchte:Windchill:Wind:
Aussen-T/F 76 07-12-2010 15:00:02 0.7 C 3.76 g/m*3 0.7 C 0 km/h
77 07-12-2010 15:12:02 0.6 C 3.74 g/m*3 0.6 C 0 km/h
78 07-12-2010 15:24:02 0.4 C 3.79 g/m*3 0.4 C 0 km/h
79 07-12-2010 15:36:02 0.2 C 3.83 g/m*3 0.2 C 0 km/h
80 07-12-2010 15:48:02 0.1 C 3.9 g/m*3 0.1 C 0 km/h
81 07-12-2010 16:00:02 0 C 3.97 g/m*3 0 C 0 km/h
82 07-12-2010 16:12:01 -0.2 C 4.01 g/m*3 -0.2 C 0 km/h
83 07-12-2010 16:24:02 -0.3 C 4.03 g/m*3 -0.3 C 0 km/h
84 07-12-2010 16:36:02 -0.3 C 4.13 g/m*3 -0.3 C 0 km/h
85 07-12-2010 16:48:02 -0.3 C 4.13 g/m*3 -0.3 C 0 km/h
86 07-12-2010 17:00:02 -0.3 C 4.18 g/m*3 -0.3 C 0 km/h
87 07-12-2010 17:12:03 -0.3 C 4.18 g/m*3 -0.3 C 0 km/h
88 07-12-2010 17:24:02 -0.3 C 4.22 g/m*3 -0.3 C 0 km/h
89 07-12-2010 17:36:02 -0.3 C 4.22 g/m*3 -0.3 C 0 km/h
90 07-12-2010 17:48:01 -0.3 C 4.22 g/m*3 -0.3 C 0 km/h
91 07-12-2010 18:00:01 -0.3 C 4.22 g/m*3 -0.3 C 0 km/h
92 07-12-2010 18:12:02 -0.3 C 4.22 g/m*3 -0.3 C 0 km/h
93 07-12-2010 18:24:01 -0.3 C 4.27 g/m*3 -0.3 C 0 km/h
94 07-12-2010 18:36:02 -0.2 C 4.3 g/m*3 -0.2 C 0 km/h
95 07-12-2010 18:48:01 -0.2 C 4.3 g/m*3 -0.2 C 0 km/h
96 07-12-2010 19:00:01 -0.2 C 4.3 g/m*3 -0.2 C 0 km/h
97 07-12-2010 19:12:02 -0.2 C 4.3 g/m*3 -0.2 C 0 km/h
98 07-12-2010 19:24:02 -0.2 C 4.3 g/m*3 -0.2 C 0 km/h
99 07-12-2010 19:36:01 -0.2 C 4.3 g/m*3 -0.2 C 0 km/h
100 07-12-2010 19:48:02 -0.2 C 4.35 g/m*3 -0.2 C 0 km/h
Sensor: Nr:Datum:Temp:Abs-Feuchte:Windchill:Wind:
Aussen-T/F 101 07-12-2010 20:00:02 -0.1 C 4.38 g/m*3 -0.1 C 0 km/h
102 07-12-2010 20:12:01 -0.2 C 4.35 g/m*3 -0.2 C 0 km/h
103 07-12-2010 20:24:02 -0.2 C 4.35 g/m*3 -0.2 C 0 km/h
104 07-12-2010 20:36:01 -0.2 C 4.35 g/m*3 -0.2 C 0 km/h
105 07-12-2010 20:48:02 -0.1 C 4.38 g/m*3 -0.1 C 0 km/h
106 07-12-2010 21:00:02 -0.2 C 4.35 g/m*3 -0.2 C 0 km/h
107 07-12-2010 21:12:01 -0.2 C 4.35 g/m*3 -0.2 C 0 km/h
108 07-12-2010 21:24:01 -0.2 C 4.35 g/m*3 -0.2 C 0 km/h
109 07-12-2010 21:36:01 -0.2 C 4.35 g/m*3 -0.2 C 0 km/h
110 07-12-2010 21:48:02 -0.2 C 4.4 g/m*3 -0.2 C 0 km/h
111 07-12-2010 22:00:03 -0.1 C 4.43 g/m*3 -0.1 C 0 km/h
112 07-12-2010 22:12:02 -0.2 C 4.4 g/m*3 -0.2 C 0 km/h
113 07-12-2010 22:25:02 -0.2 C 4.4 g/m*3 -0.2 C 0 km/h
114 07-12-2010 22:37:02 -0.2 C 4.4 g/m*3 -0.2 C 0 km/h
115 07-12-2010 22:49:02 -0.2 C 4.4 g/m*3 -0.2 C 0 km/h
116 07-12-2010 23:01:02 -0.2 C 4.4 g/m*3 -0.2 C 0 km/h
117 07-12-2010 23:13:02 -0.2 C 4.4 g/m*3 -0.2 C 0 km/h
118 07-12-2010 23:25:02 -0.2 C 4.4 g/m*3 -0.2 C 0 km/h
119 07-12-2010 23:37:02 -0.2 C 4.4 g/m*3 -0.2 C 0 km/h
120 07-12-2010 23:49:02 -0.2 C 4.4 g/m*3 -0.2 C 0 km/h
121 08-12-2010 00:01:02 -0.2 C 4.4 g/m*3 -0.2 C 0 km/h
122 08-12-2010 00:13:02 -0.2 C 4.4 g/m*3 -0.2 C 0 km/h
123 08-12-2010 00:25:02 -0.2 C 4.4 g/m*3 -0.2 C 0 km/h
124 08-12-2010 00:37:02 -0.2 C 4.4 g/m*3 -0.2 C 0 km/h
125 08-12-2010 00:49:02 -0.2 C 4.4 g/m*3 -0.2 C 0 km/h
Sensor: Nr:Datum:Temp:Abs-Feuchte:Windchill:Wind:
Aussen-T/F 126 08-12-2010 01:01:02 -0.2 C 4.4 g/m*3 -0.2 C 0 km/h
127 08-12-2010 01:13:02 -0.2 C 4.4 g/m*3 -0.2 C 0 km/h
128 08-12-2010 01:25:02 -0.2 C 4.4 g/m*3 -0.2 C 0 km/h
129 08-12-2010 01:37:03 -0.2 C 4.4 g/m*3 -0.2 C 0 km/h
130 08-12-2010 01:49:03 -0.2 C 4.4 g/m*3 -0.2 C 0 km/h
131 08-12-2010 02:01:03 -0.2 C 4.4 g/m*3 -0.2 C 0 km/h
132 08-12-2010 02:13:03 -0.1 C 4.43 g/m*3 -0.1 C 0 km/h
133 08-12-2010 02:25:03 -0.1 C 4.43 g/m*3 -0.1 C 0 km/h
134 08-12-2010 02:37:03 -0.2 C 4.4 g/m*3 -0.2 C 0 km/h
135 08-12-2010 02:49:03 -0.2 C 4.4 g/m*3 -0.2 C 0 km/h
136 08-12-2010 03:01:03 -0.2 C 4.4 g/m*3 -0.2 C 0 km/h
137 08-12-2010 03:13:03 -0.2 C 4.4 g/m*3 -0.2 C 0 km/h
138 08-12-2010 03:25:03 -0.2 C 4.4 g/m*3 -0.2 C 0 km/h
139 08-12-2010 03:37:03 -0.2 C 4.4 g/m*3 -0.2 C 0 km/h
140 08-12-2010 03:49:03 -0.1 C 4.43 g/m*3 -0.1 C 0 km/h
141 08-12-2010 04:01:03 -0.1 C 4.43 g/m*3 -0.1 C 0 km/h
142 08-12-2010 04:13:03 -0.1 C 4.43 g/m*3 -0.1 C 0 km/h
143 08-12-2010 04:25:03 -0.1 C 4.43 g/m*3 -0.1 C 0 km/h
144 08-12-2010 04:37:03 -0.1 C 4.43 g/m*3 -0.1 C 0 km/h
145 08-12-2010 04:49:03 0 C 4.46 g/m*3 0 C 0 km/h
146 08-12-2010 05:01:03 -0.1 C 4.43 g/m*3 -0.1 C 0 km/h
147 08-12-2010 05:13:03 0 C 4.46 g/m*3 0 C 0 km/h
148 08-12-2010 05:25:03 -0.1 C 4.47 g/m*3 -0.1 C 0 km/h
149 08-12-2010 05:37:03 -0.1 C 4.47 g/m*3 -0.1 C 0 km/h
150 08-12-2010 05:49:03 -0.1 C 4.47 g/m*3 -0.1 C 0 km/h
Sensor: Nr:Datum:Temp:Abs-Feuchte:Windchill:Wind:
Aussen-T/F 151 08-12-2010 06:01:04 -0.1 C 4.47 g/m*3 -0.1 C 0 km/h
152 08-12-2010 06:13:04 0 C 4.51 g/m*3 0 C 0 km/h
153 08-12-2010 06:25:04 -0.1 C 4.47 g/m*3 -0.1 C 0 km/h
154 08-12-2010 06:37:04 0 C 4.51 g/m*3 0 C 0 km/h
155 08-12-2010 06:49:04 -0.1 C 4.47 g/m*3 -0.1 C 0 km/h
156 08-12-2010 07:01:04 0 C 4.51 g/m*3 0 C 0 km/h
157 08-12-2010 07:13:04 -0.1 C 4.47 g/m*3 -0.1 C 0 km/h
158 08-12-2010 07:25:04 0 C 4.51 g/m*3 0 C 0 km/h
159 08-12-2010 07:37:04 0 C 4.51 g/m*3 0 C 0 km/h
160 08-12-2010 07:49:04 0 C 4.51 g/m*3 0 C 0 km/h
161 08-12-2010 08:01:04 0 C 4.51 g/m*3 0 C 0 km/h
162 08-12-2010 08:13:04 0 C 4.51 g/m*3 0 C 0 km/h
163 08-12-2010 08:25:04 0 C 4.51 g/m*3 0 C 0 km/h
164 08-12-2010 08:37:04 0 C 4.51 g/m*3 0 C 0 km/h
165 08-12-2010 08:49:04 0 C 4.51 g/m*3 0 C 0 km/h
166 08-12-2010 09:01:01 0.1 C 4.54 g/m*3 0.1 C 0 km/h
167 08-12-2010 09:13:01 0.1 C 4.54 g/m*3 0.1 C 0 km/h
168 08-12-2010 09:25:02 0.1 C 4.54 g/m*3 0.1 C 0 km/h
169 08-12-2010 09:37:01 0.1 C 4.54 g/m*3 0.1 C 0 km/h
170 08-12-2010 09:49:02 0 C 4.51 g/m*3 0 C 0 km/h
171 08-12-2010 10:01:02 0.1 C 4.54 g/m*3 0.1 C 0 km/h
172 08-12-2010 10:13:02 0.1 C 4.54 g/m*3 0.1 C 0 km/h
173 08-12-2010 10:25:02 0.2 C 4.57 g/m*3 0.2 C 0 km/h
174 08-12-2010 10:37:02 0.2 C 4.57 g/m*3 0.2 C 0 km/h
175 08-12-2010 10:49:02 0.3 C 4.6 g/m*3 0.3 C 0 km/h
Sensor: Nr:Datum:Temp:Abs-Feuchte:Windchill:Wind:
Aussen-T/F 176 08-12-2010 11:01:02 0.3 C 4.65 g/m*3 0.3 C 0 km/h
177 08-12-2010 11:13:02 0.3 C 4.65 g/m*3 0.3 C 0 km/h
178 08-12-2010 11:25:01 0.4 C 4.63 g/m*3 0.4 C 0 km/h
179 08-12-2010 11:37:02 0.3 C 4.6 g/m*3 0.3 C 0 km/h
180 08-12-2010 11:49:02 0.4 C 4.63 g/m*3 0.4 C 0 km/h
181 08-12-2010 12:01:02 0.5 C 4.66 g/m*3 0.5 C 0 km/h
182 08-12-2010 12:13:02 0.6 C 4.7 g/m*3 0.6 C 0 km/h
183 08-12-2010 12:25:02 0.5 C 4.66 g/m*3 0.5 C 0 km/h
184 08-12-2010 12:37:02 0.6 C 4.7 g/m*3 0.6 C 0 km/h
185 08-12-2010 12:49:02 0.6 C 4.65 g/m*3 0.6 C 0 km/h
186 08-12-2010 13:01:02 0.5 C 4.61 g/m*3 0.5 C 0 km/h
187 08-12-2010 13:13:02 0.6 C 4.6 g/m*3 0.6 C 0 km/h
188 08-12-2010 13:25:02 0.7 C 4.63 g/m*3 0.7 C 0 km/h
189 08-12-2010 13:37:02 0.7 C 4.58 g/m*3 0.7 C 0 km/h
190 08-12-2010 13:49:01 0.6 C 4.49 g/m*3 0.6 C 0 km/h
191 08-12-2010 14:01:01 0.6 C 4.49 g/m*3 0.6 C 0 km/h
192 08-12-2010 14:13:01 0.4 C 4.43 g/m*3 0.4 C 0 km/h
193 08-12-2010 14:25:01 0.4 C 4.43 g/m*3 0.4 C 0 km/h
194 08-12-2010 14:37:01 0.4 C 4.43 g/m*3 0.4 C 0 km/h
195 08-12-2010 14:49:01 0.3 C 4.4 g/m*3 0.3 C 0 km/h
196 08-12-2010 15:01:01 0.2 C 4.37 g/m*3 0.2 C 0 km/h
197 08-12-2010 15:13:01 0 C 4.31 g/m*3 0 C 0 km/h
198 08-12-2010 15:25:02 -0.1 C 4.28 g/m*3 -0.1 C 0 km/h
199 08-12-2010 15:37:01 -0.2 C 4.25 g/m*3 -0.2 C 0 km/h
200 08-12-2010 15:49:03 -0.3 C 4.22 g/m*3 -0.3 C 0 km/h
Sensor: Nr:Datum:Temp:Abs-Feuchte:Windchill:Wind:
Aussen-T/F 201 08-12-2010 16:01:02 -0.3 C 4.22 g/m*3 -0.3 C 0 km/h
202 08-12-2010 16:13:02 -0.3 C 4.27 g/m*3 -0.3 C 0 km/h
203 08-12-2010 16:25:03 -0.3 C 4.27 g/m*3 -0.3 C 0 km/h
204 08-12-2010 16:37:02 -0.3 C 4.27 g/m*3 -0.3 C 0 km/h
205 08-12-2010 16:49:02 -0.3 C 4.27 g/m*3 -0.3 C 0 km/h
206 08-12-2010 17:01:02 -0.3 C 4.27 g/m*3 -0.3 C 0 km/h
207 08-12-2010 17:13:02 -0.3 C 4.27 g/m*3 -0.3 C 0 km/h
208 08-12-2010 17:25:02 -0.3 C 4.27 g/m*3 -0.3 C 0 km/h
209 08-12-2010 17:37:02 -0.3 C 4.27 g/m*3 -0.3 C 0 km/h
210 08-12-2010 17:49:02 -0.6 C 4.14 g/m*3 -0.6 C 0 km/h
211 08-12-2010 18:01:01 -0.7 C 4.11 g/m*3 -0.7 C 0 km/h
212 08-12-2010 18:13:01 -0.7 C 4.11 g/m*3 -0.7 C 0 km/h
213 08-12-2010 18:25:01 -0.7 C 4.11 g/m*3 -0.7 C 0 km/h
214 08-12-2010 18:37:02 -0.8 C 4.08 g/m*3 -0.8 C 0 km/h
215 08-12-2010 18:49:02 -0.8 C 4.08 g/m*3 -0.8 C 0 km/h
216 08-12-2010 19:01:02 -0.8 C 4.08 g/m*3 -0.8 C 0 km/h
217 08-12-2010 19:13:02 -0.8 C 4.08 g/m*3 -0.8 C 0 km/h
218 08-12-2010 19:25:02 -1 C 4.02 g/m*3 -1 C 0 km/h
219 08-12-2010 19:37:02 -1 C 4.02 g/m*3 -1 C 0 km/h
220 08-12-2010 19:49:01 -1 C 4.07 g/m*3 -1 C 0 km/h
221 08-12-2010 20:01:01 -1 C 4.07 g/m*3 -1 C 0 km/h
222 08-12-2010 20:13:01 -1 C 4.02 g/m*3 -1 C 0 km/h
223 08-12-2010 20:25:01 -1.1 C 4 g/m*3 -1.1 C 0 km/h
224 08-12-2010 20:37:02 -1.1 C 4 g/m*3 -1.1 C 0 km/h
225 08-12-2010 20:49:02 -1.1 C 4 g/m*3 -1.1 C 0 km/h
Sensor: Nr:Datum:Temp:Abs-Feuchte:Windchill:Wind:
Aussen-T/F 226 08-12-2010 21:01:02 -1.2 C 3.97 g/m*3 -1.2 C 0 km/h
227 08-12-2010 21:13:02 -1.2 C 3.97 g/m*3 -1.2 C 0 km/h
228 08-12-2010 21:25:02 -1.2 C 3.97 g/m*3 -1.2 C 0 km/h
229 08-12-2010 21:37:02 -1.3 C 3.9 g/m*3 -1.3 C 0 km/h
230 08-12-2010 21:49:02 -1.3 C 3.9 g/m*3 -1.3 C 0 km/h
231 08-12-2010 22:01:02 -1.4 C 3.87 g/m*3 -1.4 C 0 km/h
232 08-12-2010 22:13:02 -1.4 C 3.82 g/m*3 -1.4 C 0 km/h
233 08-12-2010 22:25:02 -1.4 C 3.82 g/m*3 -1.4 C 0 km/h
234 08-12-2010 22:38:04 -1.5 C 3.8 g/m*3 -1.5 C 0 km/h
235 08-12-2010 22:50:04 -1.5 C 3.8 g/m*3 -1.5 C 0 km/h
236 08-12-2010 23:02:04 -1.3 C 3.81 g/m*3 -1.3 C 0 km/h
237 08-12-2010 23:14:04 -1.3 C 3.76 g/m*3 -1.3 C 0 km/h
238 08-12-2010 23:26:04 -1.3 C 3.72 g/m*3 -1.3 C 0 km/h
239 08-12-2010 23:38:04 -1.3 C 3.72 g/m*3 -1.3 C 0 km/h
240 08-12-2010 23:50:04 -1.3 C 3.67 g/m*3 -1.3 C 0 km/h
241 09-12-2010 00:02:04 -1.3 C 3.67 g/m*3 -1.3 C 0 km/h
242 09-12-2010 00:14:04 -1.3 C 3.67 g/m*3 -1.3 C 0 km/h
243 09-12-2010 00:26:04 -1.3 C 3.67 g/m*3 -1.3 C 0 km/h
244 09-12-2010 00:38:04 -1.3 C 3.63 g/m*3 -1.3 C 0 km/h
245 09-12-2010 00:50:05 -1.4 C 3.56 g/m*3 -1.4 C 0 km/h
246 09-12-2010 01:02:05 -1.4 C 3.56 g/m*3 -1.4 C 0 km/h
247 09-12-2010 01:14:05 -1.5 C 3.58 g/m*3 -1.5 C 0 km/h
248 09-12-2010 01:26:05 -1.5 C 3.58 g/m*3 -1.5 C 0 km/h
249 09-12-2010 01:38:05 -1.6 C 3.55 g/m*3 -1.6 C 0 km/h
250 09-12-2010 01:50:05 -1.6 C 3.51 g/m*3 -1.6 C 0 km/h
Sensor: Nr:Datum:Temp:Abs-Feuchte:Windchill:Wind:
Aussen-T/F 251 09-12-2010 02:02:05 -1.7 C 3.53 g/m*3 -1.7 C 0 km/h
252 09-12-2010 02:14:05 -1.7 C 3.49 g/m*3 -1.7 C 0 km/h
253 09-12-2010 02:26:05 -1.8 C 3.51 g/m*3 -1.8 C 0 km/h
254 09-12-2010 02:38:05 -1.7 C 3.62 g/m*3 -1.7 C 0 km/h
255 09-12-2010 02:50:05 -1.8 C 3.63 g/m*3 -1.8 C 0 km/h
256 09-12-2010 03:02:05 -1.7 C 3.7 g/m*3 -1.7 C 0 km/h
257 09-12-2010 03:14:05 -1.7 C 3.7 g/m*3 -1.7 C 0 km/h
258 09-12-2010 03:26:05 -1.7 C 3.7 g/m*3 -1.7 C 0 km/h
259 09-12-2010 03:38:05 -1.7 C 3.7 g/m*3 -1.7 C 0 km/h
260 09-12-2010 03:50:05 -1.7 C 3.66 g/m*3 -1.7 C 0 km/h
261 09-12-2010 04:02:05 -1.6 C 3.68 g/m*3 -1.6 C 0 km/h
262 09-12-2010 04:14:05 -1.4 C 3.78 g/m*3 -1.4 C 0 km/h
263 09-12-2010 04:26:05 -1.6 C 3.73 g/m*3 -1.6 C 0 km/h
264 09-12-2010 04:38:05 -1.7 C 3.7 g/m*3 -1.7 C 0 km/h
265 09-12-2010 04:50:05 -1.8 C 3.72 g/m*3 -1.8 C 0 km/h
266 09-12-2010 05:02:05 -1.9 C 3.69 g/m*3 -1.9 C 0 km/h
267 09-12-2010 05:14:05 -1.2 C 3.88 g/m*3 -1.2 C 0 km/h
268 09-12-2010 05:26:06 -0.8 C 3.9 g/m*3 -0.8 C 0 km/h
269 09-12-2010 05:38:06 -0.7 C 3.88 g/m*3 -0.7 C 0 km/h
270 09-12-2010 05:50:06 -0.6 C 3.86 g/m*3 -0.6 C 0 km/h
271 09-12-2010 06:02:06 -0.7 C 3.83 g/m*3 -0.7 C 0 km/h
272 09-12-2010 06:14:06 -0.5 C 3.88 g/m*3 -0.5 C 0 km/h
273 09-12-2010 06:26:06 -0.3 C 3.94 g/m*3 -0.3 C 0 km/h
274 09-12-2010 06:38:06 -0.3 C 3.94 g/m*3 -0.3 C 0 km/h
275 09-12-2010 06:50:06 -0.3 C 3.89 g/m*3 -0.3 C 0 km/h
Sensor: Nr:Datum:Temp:Abs-Feuchte:Windchill:Wind:
Aussen-T/F 276 09-12-2010 07:02:06 -0.3 C 3.94 g/m*3 -0.3 C 0 km/h
277 09-12-2010 07:14:06 -0.3 C 3.94 g/m*3 -0.3 C 0 km/h
278 09-12-2010 07:26:06 -0.3 C 3.94 g/m*3 -0.3 C 0 km/h
279 09-12-2010 07:38:03 -0.3 C 3.94 g/m*3 -0.3 C 0 km/h
280 09-12-2010 07:50:02 -0.2 C 4.01 g/m*3 -0.2 C 0 km/h
281 09-12-2010 08:02:02 -0.3 C 3.99 g/m*3 -0.3 C 0 km/h
282 09-12-2010 08:14:02 -0.2 C 3.97 g/m*3 -0.2 C 0 km/h
283 09-12-2010 08:26:01 -0.3 C 3.94 g/m*3 -0.3 C 0 km/h
284 09-12-2010 08:38:02 -0.5 C 3.84 g/m*3 -0.5 C 0 km/h
285 09-12-2010 08:50:02 -0.6 C 3.81 g/m*3 -0.6 C 0 km/h
286 09-12-2010 09:02:02 -0.3 C 3.89 g/m*3 -0.3 C 0 km/h
287 09-12-2010 09:14:02 -0.2 C 3.92 g/m*3 -0.2 C 0 km/h
288 09-12-2010 09:26:02 0 C 3.92 g/m*3 0 C 0 km/h
289 09-12-2010 09:38:02 0.2 C 3.98 g/m*3 0.2 C 0 km/h
290 09-12-2010 09:50:02 -0.1 C 3.95 g/m*3 -0.1 C 0 km/h
291 09-12-2010 10:02:02 0.1 C 4.05 g/m*3 0.1 C 0 km/h
292 09-12-2010 10:14:02 0.2 C 4.03 g/m*3 0.2 C 0 km/h
293 09-12-2010 10:26:02 0.3 C 4.01 g/m*3 0.3 C 0 km/h
294 09-12-2010 10:38:02 0.6 C 3.99 g/m*3 0.6 C 0 km/h
295 09-12-2010 10:50:02 0.4 C 3.93 g/m*3 0.4 C 0 km/h
296 09-12-2010 11:02:02 0.7 C 4.02 g/m*3 0.7 C 0 km/h
297 09-12-2010 11:14:02 0.7 C 4.02 g/m*3 0.7 C 0 km/h
298 09-12-2010 11:26:02 0.7 C 4.07 g/m*3 0.7 C 0 km/h
299 09-12-2010 11:38:02 1 C 4.1 g/m*3 1 C 0 km/h
300 09-12-2010 11:50:02 0.9 C 4.12 g/m*3 0.9 C 0 km/h
Sensor: Nr:Datum:Temp:Abs-Feuchte:Windchill:Wind:
Aussen-T/F 301 09-12-2010 12:02:02 1.4 C 4.21 g/m*3 1.4 C 0 km/h
302 09-12-2010 12:14:02 2.2 C 4.22 g/m*3 2.2 C 0 km/h
303 09-12-2010 12:26:02 2.4 C 4.11 g/m*3 2.4 C 0 km/h
304 09-12-2010 12:38:01 2.7 C 3.96 g/m*3 2.7 C 0 km/h
305 09-12-2010 12:50:02 2.2 C 3.83 g/m*3 2.2 C 0 km/h
306 09-12-2010 13:02:01 1.7 C 4.03 g/m*3 1.7 C 0 km/h
307 09-12-2010 13:14:01 1.5 C 4.19 g/m*3 1.5 C 0 km/h
308 09-12-2010 13:26:01 1.6 C 4.22 g/m*3 1.6 C 0 km/h
309 09-12-2010 13:38:02 2 C 4.17 g/m*3 2 C 0 km/h
310 09-12-2010 13:50:02 1.9 C 3.92 g/m*3 1.9 C 0 km/h
311 09-12-2010 14:02:02 2.3 C 3.91 g/m*3 2.3 C 0 km/h
312 09-12-2010 14:14:02 2.2 C 3.89 g/m*3 2.2 C 0 km/h
313 09-12-2010 14:26:02 2.1 C 3.86 g/m*3 2.1 C 0 km/h
314 09-12-2010 14:38:02 2 C 4 g/m*3 2 C 0 km/h
315 09-12-2010 14:50:02 2 C 3.95 g/m*3 2 C 0 km/h
316 09-12-2010 15:02:02 1.6 C 3.95 g/m*3 1.6 C 0 km/h
317 09-12-2010 15:14:02 1.4 C 3.89 g/m*3 1.4 C 0 km/h
318 09-12-2010 15:26:02 2 C 3.72 g/m*3 2 C 0 km/h
319 09-12-2010 15:38:02 2 C 3.61 g/m*3 2 C 0 km/h
320 09-12-2010 15:50:02 2.2 C 3.55 g/m*3 2.2 C 0 km/h
321 09-12-2010 16:02:02 1.9 C 3.53 g/m*3 1.9 C 0 km/h
322 09-12-2010 16:14:02 1.7 C 3.59 g/m*3 1.7 C 0 km/h
323 09-12-2010 16:26:03 0.9 C 3.61 g/m*3 0.9 C 0 km/h
324 09-12-2010 16:38:02 1.6 C 3.79 g/m*3 1.6 C 0 km/h
325 09-12-2010 16:50:02 1.5 C 3.76 g/m*3 1.5 C 0 km/h
Sensor: Nr:Datum:Temp:Abs-Feuchte:Windchill:Wind:
Aussen-T/F 326 09-12-2010 17:02:02 1.6 C 3.79 g/m*3 1.6 C 0 km/h
327 09-12-2010 17:14:02 1.5 C 3.81 g/m*3 1.5 C 0 km/h
328 09-12-2010 17:26:02 1.5 C 3.92 g/m*3 1.5 C 0 km/h
329 09-12-2010 17:38:02 1.5 C 3.97 g/m*3 1.5 C 0 km/h
330 09-12-2010 17:50:02 1.4 C 3.95 g/m*3 1.4 C 0 km/h
331 09-12-2010 18:02:01 1.7 C 4.03 g/m*3 1.7 C 0 km/h
332 09-12-2010 18:14:01 1.5 C 3.97 g/m*3 1.5 C 0 km/h
333 09-12-2010 18:26:02 1.7 C 4.08 g/m*3 1.7 C 0 km/h
334 09-12-2010 18:38:02 1.5 C 4.03 g/m*3 1.5 C 0 km/h
335 09-12-2010 18:50:02 2 C 4.06 g/m*3 2 C 0 km/h
336 09-12-2010 19:02:03 2 C 3.89 g/m*3 2 C 0 km/h
337 09-12-2010 19:14:03 2.3 C 3.91 g/m*3 2.3 C 0 km/h
338 09-12-2010 19:26:02 2.2 C 3.89 g/m*3 2.2 C 0 km/h
339 09-12-2010 19:38:02 2.2 C 3.89 g/m*3 2.2 C 0 km/h
340 09-12-2010 19:50:01 2.1 C 3.92 g/m*3 2.1 C 0 km/h
341 09-12-2010 20:02:02 2 C 3.95 g/m*3 2 C 0 km/h
342 09-12-2010 20:14:02 2.5 C 4.02 g/m*3 2.5 C 0 km/h
343 09-12-2010 20:26:01 2.6 C 3.99 g/m*3 2.6 C 0 km/h
344 09-12-2010 20:39:03 2.7 C 4.02 g/m*3 2.7 C 0 km/h
345 09-12-2010 20:51:03 2.4 C 4 g/m*3 2.4 C 0 km/h
346 09-12-2010 21:03:03 2.6 C 4.11 g/m*3 2.6 C 0 km/h
347 09-12-2010 21:15:03 2.6 C 4.05 g/m*3 2.6 C 0 km/h
348 09-12-2010 21:27:03 2.6 C 4.05 g/m*3 2.6 C 0 km/h
349 09-12-2010 21:39:03 2.6 C 3.99 g/m*3 2.6 C 0 km/h
350 09-12-2010 21:51:03 2.5 C 4.08 g/m*3 2.5 C 0 km/h
Sensor: Nr:Datum:Temp:Abs-Feuchte:Windchill:Wind:
Aussen-T/F 351 09-12-2010 22:03:03 2.8 C 4.11 g/m*3 2.8 C 0 km/h
352 09-12-2010 22:15:03 2.7 C 4.08 g/m*3 2.7 C 0 km/h
353 09-12-2010 22:27:03 2.4 C 4.11 g/m*3 2.4 C 0 km/h
354 09-12-2010 22:39:04 2.4 C 4.17 g/m*3 2.4 C 0 km/h
355 09-12-2010 22:51:04 1.9 C 4.3 g/m*3 1.9 C 0 km/h
356 09-12-2010 23:03:04 1.6 C 4.33 g/m*3 1.6 C 0 km/h
357 09-12-2010 23:15:04 1.4 C 4.37 g/m*3 1.4 C 0 km/h
358 09-12-2010 23:27:04 1.4 C 4.43 g/m*3 1.4 C 0 km/h
359 09-12-2010 23:39:04 1.6 C 4.54 g/m*3 1.6 C 0 km/h
360 09-12-2010 23:51:04 1.5 C 4.46 g/m*3 1.5 C 0 km/h
361 10-12-2010 00:03:04 1.6 C 4.49 g/m*3 1.6 C 0 km/h
362 10-12-2010 00:15:04 1.6 C 4.43 g/m*3 1.6 C 0 km/h
363 10-12-2010 00:27:04 2 C 4.45 g/m*3 2 C 0 km/h
364 10-12-2010 00:39:04 2.1 C 4.36 g/m*3 2.1 C 0 km/h
365 10-12-2010 00:51:04 2.2 C 4.34 g/m*3 2.2 C 0 km/h
366 10-12-2010 01:03:04 2.1 C 4.36 g/m*3 2.1 C 0 km/h
367 10-12-2010 01:15:04 1.9 C 4.36 g/m*3 1.9 C 0 km/h
368 10-12-2010 01:27:04 2 C 4.39 g/m*3 2 C 0 km/h
369 10-12-2010 01:39:04 2.1 C 4.36 g/m*3 2.1 C 0 km/h
370 10-12-2010 01:51:04 2.1 C 4.31 g/m*3 2.1 C 0 km/h
371 10-12-2010 02:03:04 2.3 C 4.2 g/m*3 2.3 C 0 km/h
372 10-12-2010 02:15:04 1.8 C 4.17 g/m*3 1.8 C 0 km/h
373 10-12-2010 02:27:04 1.4 C 4.16 g/m*3 1.4 C 0 km/h
374 10-12-2010 02:39:04 1.6 C 4.38 g/m*3 1.6 C 0 km/h
375 10-12-2010 02:51:04 1.4 C 4.37 g/m*3 1.4 C 0 km/h
Sensor: Nr:Datum:Temp:Abs-Feuchte:Windchill:Wind:
Aussen-T/F 376 10-12-2010 03:03:05 1 C 4.31 g/m*3 1 C 0 km/h
377 10-12-2010 03:15:05 1.3 C 4.5 g/m*3 1.3 C 0 km/h
378 10-12-2010 03:27:05 1.2 C 4.53 g/m*3 1.2 C 0 km/h
379 10-12-2010 03:39:05 1.3 C 4.61 g/m*3 1.3 C 0 km/h
380 10-12-2010 03:51:05 1.4 C 4.64 g/m*3 1.4 C 0 km/h
381 10-12-2010 04:03:05 1.4 C 4.69 g/m*3 1.4 C 0 km/h
382 10-12-2010 04:15:05 1.2 C 4.63 g/m*3 1.2 C 0 km/h
383 10-12-2010 04:27:05 1.4 C 4.69 g/m*3 1.4 C 0 km/h
384 10-12-2010 04:39:05 2 C 4.89 g/m*3 2 C 0 km/h
385 10-12-2010 04:51:05 2.5 C 5.06 g/m*3 2.5 C 0 km/h
386 10-12-2010 05:03:05 2.8 C 5.04 g/m*3 2.8 C 0 km/h
387 10-12-2010 05:15:05 2.6 C 4.86 g/m*3 2.6 C 0 km/h
388 10-12-2010 05:27:05 2.4 C 4.8 g/m*3 2.4 C 0 km/h
389 10-12-2010 05:39:05 2.4 C 4.85 g/m*3 2.4 C 0 km/h
390 10-12-2010 05:51:05 2.4 C 4.8 g/m*3 2.4 C 0 km/h
391 10-12-2010 06:03:05 2.2 C 4.79 g/m*3 2.2 C 0 km/h
392 10-12-2010 06:15:05 2.1 C 4.76 g/m*3 2.1 C 0 km/h
393 10-12-2010 06:27:05 2 C 4.72 g/m*3 2 C 0 km/h
394 10-12-2010 06:39:05 1.5 C 4.67 g/m*3 1.5 C 0 km/h
395 10-12-2010 06:51:05 1.4 C 4.69 g/m*3 1.4 C 0 km/h
396 10-12-2010 07:03:05 1.2 C 4.63 g/m*3 1.2 C 0 km/h
397 10-12-2010 07:15:02 1.1 C 4.65 g/m*3 1.1 C 0 km/h
398 10-12-2010 07:27:03 1.1 C 4.65 g/m*3 1.1 C 0 km/h
399 10-12-2010 07:39:02 0.5 C 4.46 g/m*3 0.5 C 0 km/h
400 10-12-2010 07:51:03 -0.1 C 4.28 g/m*3 -0.1 C 0 km/h
Sensor: Nr:Datum:Temp:Abs-Feuchte:Windchill:Wind:
Aussen-T/F 401 10-12-2010 08:03:02 -0.2 C 4.3 g/m*3 -0.2 C 0 km/h
402 10-12-2010 08:15:02 -0.4 C 4.24 g/m*3 -0.4 C 0 km/h
403 10-12-2010 08:27:02 -0.3 C 4.27 g/m*3 -0.3 C 0 km/h
404 10-12-2010 08:39:02 -0.3 C 4.32 g/m*3 -0.3 C 0 km/h
405 10-12-2010 08:51:02 -0.4 C 4.29 g/m*3 -0.4 C 0 km/h
406 10-12-2010 09:03:02 -0.6 C 4.23 g/m*3 -0.6 C 0 km/h
407 10-12-2010 09:15:02 -0.7 C 4.2 g/m*3 -0.7 C 0 km/h
408 10-12-2010 09:27:02 -0.6 C 4.23 g/m*3 -0.6 C 0 km/h
409 10-12-2010 09:39:02 0 C 4.41 g/m*3 0 C 0 km/h
410 10-12-2010 09:51:02 -0.1 C 4.43 g/m*3 -0.1 C 0 km/h
411 10-12-2010 10:03:01 -0.3 C 4.32 g/m*3 -0.3 C 0 km/h
412 10-12-2010 10:15:01 0 C 4.41 g/m*3 0 C 0 km/h
413 10-12-2010 10:27:02 0 C 4.41 g/m*3 0 C 0 km/h
414 10-12-2010 10:39:01 0.2 C 4.52 g/m*3 0.2 C 0 km/h
415 10-12-2010 10:51:03 0.4 C 4.58 g/m*3 0.4 C 0 km/h
416 10-12-2010 11:03:02 0.2 C 4.47 g/m*3 0.2 C 0 km/h
417 10-12-2010 11:15:02 1.1 C 4.76 g/m*3 1.1 C 0 km/h
418 10-12-2010 11:27:02 1.6 C 4.92 g/m*3 1.6 C 0 km/h
419 10-12-2010 11:39:02 2 C 5 g/m*3 2 C 0 km/h
420 10-12-2010 11:51:02 2 C 4.95 g/m*3 2 C 0 km/h
421 10-12-2010 12:03:01 2.3 C 5.05 g/m*3 2.3 C 0 km/h
422 10-12-2010 12:15:02 2.2 C 4.96 g/m*3 2.2 C 0 km/h
423 10-12-2010 12:27:02 2.4 C 5.02 g/m*3 2.4 C 0 km/h
424 10-12-2010 12:39:02 2.3 C 4.93 g/m*3 2.3 C 0 km/h
425 10-12-2010 12:51:02 2 C 4.78 g/m*3 2 C 0 km/h
Sensor: Nr:Datum:Temp:Abs-Feuchte:Windchill:Wind:
Aussen-T/F 426 10-12-2010 13:03:03 2.6 C 4.98 g/m*3 2.6 C 0 km/h
427 10-12-2010 13:15:02 2.7 C 4.95 g/m*3 2.7 C 0 km/h
428 10-12-2010 13:27:02 3 C 4.88 g/m*3 3 C 0 km/h
429 10-12-2010 13:39:02 3.4 C 4.95 g/m*3 3.4 C 0 km/h
430 10-12-2010 13:51:01 3.1 C 4.73 g/m*3 3.1 C 0 km/h
431 10-12-2010 14:03:02 3.1 C 4.67 g/m*3 3.1 C 0 km/h
432 10-12-2010 14:15:01 3.1 C 4.67 g/m*3 3.1 C 0 km/h
433 10-12-2010 14:27:01 2.9 C 4.67 g/m*3 2.9 C 0 km/h
434 10-12-2010 14:39:01 2.7 C 4.66 g/m*3 2.7 C 0 km/h
435 10-12-2010 14:51:01 2.3 C 4.59 g/m*3 2.3 C 0 km/h
436 10-12-2010 15:03:01 2.2 C 4.62 g/m*3 2.2 C 0 km/h
437 10-12-2010 15:15:02 1.8 C 4.6 g/m*3 1.8 C 0 km/h
438 10-12-2010 15:27:02 1.8 C 4.66 g/m*3 1.8 C 0 km/h
439 10-12-2010 15:39:01 1.6 C 4.65 g/m*3 1.6 C 0 km/h
440 10-12-2010 15:51:02 1.5 C 4.67 g/m*3 1.5 C 0 km/h
441 10-12-2010 16:03:01 1.5 C 4.73 g/m*3 1.5 C 0 km/h
442 10-12-2010 16:15:01 1.5 C 4.78 g/m*3 1.5 C 0 km/h
443 10-12-2010 16:27:02 1.4 C 4.75 g/m*3 1.4 C 0 km/h
444 10-12-2010 16:39:01 1.6 C 4.87 g/m*3 1.6 C 0 km/h
445 10-12-2010 16:51:02 1.7 C 4.9 g/m*3 1.7 C 0 km/h
446 10-12-2010 17:03:01 1.9 C 4.97 g/m*3 1.9 C 0 km/h
447 10-12-2010 17:15:02 1.6 C 4.87 g/m*3 1.6 C 0 km/h
448 10-12-2010 17:27:02 1.6 C 4.87 g/m*3 1.6 C 0 km/h
449 10-12-2010 17:39:02 2.3 C 5.1 g/m*3 2.3 C 0 km/h
450 10-12-2010 17:51:01 1.8 C 4.93 g/m*3 1.8 C 0 km/h
Sensor: Nr:Datum:Temp:Abs-Feuchte:Windchill:Wind:
Aussen-T/F 451 10-12-2010 18:03:02 1.7 C 4.9 g/m*3 1.7 C 0 km/h
452 10-12-2010 18:15:01 2 C 5 g/m*3 2 C 0 km/h
453 10-12-2010 18:27:01 2.2 C 5.01 g/m*3 2.2 C 0 km/h
454 10-12-2010 18:39:02 1.8 C 4.88 g/m*3 1.8 C 0 km/h
455 10-12-2010 18:51:02 1.6 C 4.87 g/m*3 1.6 C 0 km/h
456 10-12-2010 19:03:02 2 C 4.95 g/m*3 2 C 0 km/h
457 10-12-2010 19:15:01 2.2 C 5.01 g/m*3 2.2 C 0 km/h
458 10-12-2010 19:27:01 2.5 C 5.06 g/m*3 2.5 C 0 km/h
459 10-12-2010 19:39:02 2.3 C 4.93 g/m*3 2.3 C 0 km/h
460 10-12-2010 19:51:02 2.4 C 4.91 g/m*3 2.4 C 0 km/h
461 10-12-2010 20:03:02 2.4 C 4.91 g/m*3 2.4 C 0 km/h
462 10-12-2010 20:15:01 2.7 C 5.01 g/m*3 2.7 C 0 km/h
463 10-12-2010 20:27:01 2.8 C 4.99 g/m*3 2.8 C 0 km/h
464 10-12-2010 20:39:02 2.5 C 4.83 g/m*3 2.5 C 0 km/h
465 10-12-2010 20:51:01 2.6 C 4.92 g/m*3 2.6 C 0 km/h
466 10-12-2010 21:03:02 2.5 C 4.89 g/m*3 2.5 C 0 km/h
467 10-12-2010 21:15:02 2.5 C 4.83 g/m*3 2.5 C 0 km/h
468 10-12-2010 21:27:02 2.4 C 4.8 g/m*3 2.4 C 0 km/h
469 10-12-2010 21:39:02 2.6 C 4.86 g/m*3 2.6 C 0 km/h
470 10-12-2010 21:51:02 2.5 C 4.89 g/m*3 2.5 C 0 km/h
471 10-12-2010 22:03:02 2.5 C 4.89 g/m*3 2.5 C 0 km/h
472 10-12-2010 22:15:01 2.6 C 4.86 g/m*3 2.6 C 0 km/h
473 10-12-2010 22:27:01 2.4 C 4.85 g/m*3 2.4 C 0 km/h
474 10-12-2010 22:39:02 2.5 C 4.89 g/m*3 2.5 C 0 km/h
475 10-12-2010 22:51:01 2.6 C 4.86 g/m*3 2.6 C 0 km/h
Sensor: Nr:Datum:Temp:Abs-Feuchte:Windchill:Wind:
Aussen-T/F 476 10-12-2010 23:03:02 2.4 C 4.8 g/m*3 2.4 C 0 km/h
477 10-12-2010 23:15:02 2.3 C 4.82 g/m*3 2.3 C 0 km/h
478 10-12-2010 23:27:02 2.1 C 4.87 g/m*3 2.1 C 0 km/h
479 10-12-2010 23:39:02 2.2 C 4.9 g/m*3 2.2 C 0 km/h
480 10-12-2010 23:51:01 2.2 C 4.9 g/m*3 2.2 C 0 km/h
481 11-12-2010 00:03:02 2.2 C 4.96 g/m*3 2.2 C 0 km/h
482 11-12-2010 00:15:02 2.3 C 4.99 g/m*3 2.3 C 0 km/h
483 11-12-2010 00:27:02 2.1 C 4.92 g/m*3 2.1 C 0 km/h
484 11-12-2010 00:39:01 2.2 C 5.01 g/m*3 2.2 C 0 km/h
485 11-12-2010 00:51:02 2.1 C 4.98 g/m*3 2.1 C 0 km/h
486 11-12-2010 01:03:01 2.3 C 5.05 g/m*3 2.3 C 0 km/h
487 11-12-2010 01:15:02 2.4 C 5.08 g/m*3 2.4 C 0 km/h
488 11-12-2010 01:27:03 2.5 C 5.12 g/m*3 2.5 C 0 km/h
489 11-12-2010 01:39:01 2.5 C 5.06 g/m*3 2.5 C 0 km/h
490 11-12-2010 01:51:02 2.6 C 5.09 g/m*3 2.6 C 0 km/h
491 11-12-2010 02:03:02 2.7 C 5.13 g/m*3 2.7 C 0 km/h
492 11-12-2010 02:15:02 2.8 C 5.16 g/m*3 2.8 C 0 km/h
493 11-12-2010 02:27:02 2.8 C 5.16 g/m*3 2.8 C 0 km/h
494 11-12-2010 02:39:03 2.6 C 5.09 g/m*3 2.6 C 0 km/h
495 11-12-2010 02:51:01 2.7 C 5.13 g/m*3 2.7 C 0 km/h
496 11-12-2010 03:03:01 2.6 C 5.09 g/m*3 2.6 C 0 km/h
497 11-12-2010 03:15:02 2.7 C 5.13 g/m*3 2.7 C 0 km/h
498 11-12-2010 03:27:02 2.3 C 4.99 g/m*3 2.3 C 0 km/h
499 11-12-2010 03:39:02 2.3 C 5.05 g/m*3 2.3 C 0 km/h
500 11-12-2010 03:51:02 2.8 C 5.22 g/m*3 2.8 C 0 km/h
Sensor: Nr:Datum:Temp:Abs-Feuchte:Windchill:Wind:
Aussen-T/F 501 11-12-2010 04:03:01 3.3 C 5.34 g/m*3 3.3 C 0 km/h
502 11-12-2010 04:15:01 3 C 5.17 g/m*3 3 C 0 km/h
503 11-12-2010 04:27:01 3 C 5.17 g/m*3 3 C 0 km/h
504 11-12-2010 04:39:02 3.5 C 5.29 g/m*3 3.5 C 0 km/h
505 11-12-2010 04:51:01 3.5 C 5.23 g/m*3 3.5 C 0 km/h
506 11-12-2010 05:03:02 4 C 5.28 g/m*3 4 C 0 km/h
507 11-12-2010 05:15:01 4 C 5.21 g/m*3 4 C 0 km/h
508 11-12-2010 05:27:01 3.8 C 5.14 g/m*3 3.8 C 0 km/h
509 11-12-2010 05:39:02 3.8 C 5.14 g/m*3 3.8 C 0 km/h
510 11-12-2010 05:51:01 3.7 C 5.17 g/m*3 3.7 C 0 km/h
511 11-12-2010 06:03:02 3.6 C 5.2 g/m*3 3.6 C 0 km/h
512 11-12-2010 06:15:01 3.1 C 5.03 g/m*3 3.1 C 0 km/h
513 11-12-2010 06:27:01 3.4 C 5.19 g/m*3 3.4 C 0 km/h
514 11-12-2010 06:39:01 3.4 C 5.19 g/m*3 3.4 C 0 km/h
515 11-12-2010 06:51:01 3.3 C 5.16 g/m*3 3.3 C 0 km/h
516 11-12-2010 07:03:01 3.6 C 5.32 g/m*3 3.6 C 0 km/h
517 11-12-2010 07:15:01 3.9 C 5.31 g/m*3 3.9 C 0 km/h
518 11-12-2010 07:27:01 4.5 C 5.26 g/m*3 4.5 C 0 km/h
519 11-12-2010 07:39:01 4.5 C 5.13 g/m*3 4.5 C 0 km/h
520 11-12-2010 07:51:01 4.2 C 5.03 g/m*3 4.2 C 0 km/h
521 11-12-2010 08:03:01 4.6 C 5.16 g/m*3 4.6 C 0 km/h
522 11-12-2010 08:15:02 4.7 C 5.06 g/m*3 4.7 C 0 km/h
523 11-12-2010 08:27:02 5 C 4.96 g/m*3 5 C 0 km/h
524 11-12-2010 08:39:01 5.1 C 4.92 g/m*3 5.1 C 0 km/h
525 11-12-2010 08:51:02 4.9 C 4.93 g/m*3 4.9 C 0 km/h
Sensor: Nr:Datum:Temp:Abs-Feuchte:Windchill:Wind:
Aussen-T/F 526 11-12-2010 09:03:01 4.5 C 4.86 g/m*3 4.5 C 0 km/h
527 11-12-2010 09:15:02 4.3 C 4.99 g/m*3 4.3 C 0 km/h
528 11-12-2010 09:27:02 4 C 4.9 g/m*3 4 C 0 km/h
529 11-12-2010 09:39:01 4 C 5.15 g/m*3 4 C 0 km/h
530 11-12-2010 09:51:02 4 C 5.28 g/m*3 4 C 0 km/h
531 11-12-2010 10:03:01 3.9 C 5.37 g/m*3 3.9 C 0 km/h
532 11-12-2010 10:15:01 4 C 5.4 g/m*3 4 C 0 km/h
533 11-12-2010 10:27:01 4 C 5.4 g/m*3 4 C 0 km/h
534 11-12-2010 10:39:02 3.8 C 5.33 g/m*3 3.8 C 0 km/h
535 11-12-2010 10:51:01 3.8 C 5.4 g/m*3 3.8 C 0 km/h
536 11-12-2010 11:03:02 4.1 C 5.38 g/m*3 4.1 C 0 km/h
537 11-12-2010 11:15:01 4.2 C 5.35 g/m*3 4.2 C 0 km/h
538 11-12-2010 11:27:01 4.5 C 5.39 g/m*3 4.5 C 0 km/h
539 11-12-2010 11:39:02 4.4 C 5.35 g/m*3 4.4 C 0 km/h
540 11-12-2010 11:51:01 4.3 C 5.38 g/m*3 4.3 C 0 km/h
541 11-12-2010 12:03:02 4.3 C 5.45 g/m*3 4.3 C 0 km/h
542 11-12-2010 12:15:01 4.4 C 5.55 g/m*3 4.4 C 0 km/h
543 11-12-2010 12:27:01 4.6 C 5.62 g/m*3 4.6 C 0 km/h
544 11-12-2010 12:39:01 4.6 C 5.62 g/m*3 4.6 C 0 km/h
545 11-12-2010 12:51:01 4.8 C 5.57 g/m*3 4.8 C 0 km/h
546 11-12-2010 13:03:01 4.8 C 5.5 g/m*3 4.8 C 0 km/h
547 11-12-2010 13:15:01 4.8 C 5.43 g/m*3 4.8 C 0 km/h
548 11-12-2010 13:27:01 4.8 C 5.36 g/m*3 4.8 C 0 km/h
549 11-12-2010 13:39:01 4.9 C 5.33 g/m*3 4.9 C 0 km/h
550 11-12-2010 13:51:01 5 C 5.3 g/m*3 5 C 0 km/h
Sensor: Nr:Datum:Temp:Abs-Feuchte:Windchill:Wind:
Aussen-T/F 551 11-12-2010 14:03:01 4.8 C 5.3 g/m*3 4.8 C 0 km/h
552 11-12-2010 14:15:02 4.9 C 5.33 g/m*3 4.9 C 0 km/h
553 11-12-2010 14:27:02 4.8 C 5.3 g/m*3 4.8 C 0 km/h
554 11-12-2010 14:39:01 4.9 C 5.33 g/m*3 4.9 C 0 km/h
555 11-12-2010 14:51:02 5.1 C 5.27 g/m*3 5.1 C 0 km/h
556 11-12-2010 15:03:01 5.1 C 5.27 g/m*3 5.1 C 0 km/h
557 11-12-2010 15:15:02 5.1 C 5.2 g/m*3 5.1 C 0 km/h
558 11-12-2010 15:27:02 5.2 C 5.16 g/m*3 5.2 C 0 km/h
559 11-12-2010 15:39:01 5.1 C 5.13 g/m*3 5.1 C 0 km/h
560 11-12-2010 15:51:02 4.8 C 5.16 g/m*3 4.8 C 0 km/h
561 11-12-2010 16:03:01 4.7 C 5.2 g/m*3 4.7 C 0 km/h
562 11-12-2010 16:15:01 4.6 C 5.23 g/m*3 4.6 C 0 km/h
563 11-12-2010 16:27:01 5.1 C 5.27 g/m*3 5.1 C 0 km/h
564 11-12-2010 16:39:02 5.1 C 5.27 g/m*3 5.1 C 0 km/h
565 11-12-2010 16:51:01 5 C 5.23 g/m*3 5 C 0 km/h
566 11-12-2010 17:03:02 5 C 5.16 g/m*3 5 C 0 km/h
567 11-12-2010 17:15:01 5.4 C 5.23 g/m*3 5.4 C 0 km/h
568 11-12-2010 17:27:01 5.5 C 5.2 g/m*3 5.5 C 0 km/h
569 11-12-2010 17:39:02 5.1 C 5.2 g/m*3 5.1 C 0 km/h
570 11-12-2010 17:51:01 4.8 C 5.3 g/m*3 4.8 C 0 km/h
571 11-12-2010 18:03:02 4.7 C 5.26 g/m*3 4.7 C 0 km/h
572 11-12-2010 18:15:01 4.4 C 5.16 g/m*3 4.4 C 0 km/h
573 11-12-2010 18:27:01 4.2 C 5.15 g/m*3 4.2 C 0 km/h
574 11-12-2010 18:39:01 3.9 C 5.24 g/m*3 3.9 C 0 km/h
575 11-12-2010 18:51:01 3.9 C 5.24 g/m*3 3.9 C 0 km/h
Sensor: Nr:Datum:Temp:Abs-Feuchte:Windchill:Wind:
Aussen-T/F 576 11-12-2010 19:03:01 4.1 C 5.25 g/m*3 4.1 C 0 km/h
577 11-12-2010 19:15:02 4.2 C 5.22 g/m*3 4.2 C 0 km/h
578 11-12-2010 19:27:02 4 C 5.15 g/m*3 4 C 0 km/h
579 11-12-2010 19:39:01 4.4 C 5.22 g/m*3 4.4 C 0 km/h
580 11-12-2010 19:51:01 4.6 C 5.16 g/m*3 4.6 C 0 km/h
581 11-12-2010 20:03:01 4.5 C 5.06 g/m*3 4.5 C 0 km/h
582 11-12-2010 20:15:02 4.4 C 5.03 g/m*3 4.4 C 0 km/h
583 11-12-2010 20:27:02 5.4 C 5.02 g/m*3 5.4 C 0 km/h
584 11-12-2010 20:39:01 5 C 4.89 g/m*3 5 C 0 km/h
585 11-12-2010 20:51:02 4.8 C 5.03 g/m*3 4.8 C 0 km/h
586 11-12-2010 21:03:01 4.9 C 5.06 g/m*3 4.9 C 0 km/h
587 11-12-2010 21:15:01 4.8 C 5.03 g/m*3 4.8 C 0 km/h
588 11-12-2010 21:27:02 4.1 C 4.99 g/m*3 4.1 C 0 km/h
589 11-12-2010 21:39:01 4 C 5.02 g/m*3 4 C 0 km/h
590 11-12-2010 21:51:02 4.2 C 5.09 g/m*3 4.2 C 0 km/h
591 11-12-2010 22:03:01 4.5 C 5.13 g/m*3 4.5 C 0 km/h
592 11-12-2010 22:15:01 4.2 C 5.03 g/m*3 4.2 C 0 km/h
593 11-12-2010 22:27:01 4.5 C 5.13 g/m*3 4.5 C 0 km/h
594 11-12-2010 22:40:19 4.4 C 4.96 g/m*3 4.4 C 0 km/h
595 11-12-2010 22:52:19 3.9 C 4.93 g/m*3 3.9 C 0 km/h
596 11-12-2010 23:04:19 4.6 C 5.03 g/m*3 4.6 C 0 km/h
597 11-12-2010 23:16:20 4.8 C 4.9 g/m*3 4.8 C 0 km/h
598 11-12-2010 23:28:20 4.8 C 4.9 g/m*3 4.8 C 0 km/h
599 11-12-2010 23:40:20 4.5 C 4.8 g/m*3 4.5 C 0 km/h
600 11-12-2010 23:52:20 4.6 C 4.83 g/m*3 4.6 C 0 km/h
Sensor: Nr:Datum:Temp:Abs-Feuchte:Windchill:Wind:
Aussen-T/F 601 12-12-2010 00:04:20 4.6 C 4.83 g/m*3 4.6 C 0 km/h
602 12-12-2010 00:16:20 4.4 C 4.96 g/m*3 4.4 C 0 km/h
603 12-12-2010 00:28:20 4.2 C 4.96 g/m*3 4.2 C 0 km/h
604 12-12-2010 00:40:20 4.1 C 5.06 g/m*3 4.1 C 0 km/h
605 12-12-2010 00:52:20 4 C 5.02 g/m*3 4 C 0 km/h
606 12-12-2010 01:04:20 4.3 C 5.06 g/m*3 4.3 C 0 km/h
607 12-12-2010 01:16:20 4.7 C 4.86 g/m*3 4.7 C 0 km/h
608 12-12-2010 01:28:20 4.8 C 4.83 g/m*3 4.8 C 0 km/h
609 12-12-2010 01:40:20 5 C 4.76 g/m*3 5 C 0 km/h
610 12-12-2010 01:52:20 5.4 C 4.67 g/m*3 5.4 C 0 km/h
611 12-12-2010 02:04:20 5.3 C 4.64 g/m*3 5.3 C 0 km/h
612 12-12-2010 02:16:20 5.3 C 4.57 g/m*3 5.3 C 0 km/h
613 12-12-2010 02:28:20 4.6 C 4.57 g/m*3 4.6 C 0 km/h
614 12-12-2010 02:40:21 4.2 C 4.51 g/m*3 4.2 C 0 km/h
615 12-12-2010 02:52:21 4.7 C 4.6 g/m*3 4.7 C 0 km/h
616 12-12-2010 03:04:21 4.8 C 4.56 g/m*3 4.8 C 0 km/h
617 12-12-2010 03:16:21 4.7 C 4.46 g/m*3 4.7 C 0 km/h
618 12-12-2010 03:28:21 4.2 C 4.57 g/m*3 4.2 C 0 km/h
619 12-12-2010 03:40:21 3.7 C 4.8 g/m*3 3.7 C 0 km/h
620 12-12-2010 03:52:21 3.6 C 4.89 g/m*3 3.6 C 0 km/h
621 12-12-2010 04:04:21 3.5 C 5.04 g/m*3 3.5 C 0 km/h
622 12-12-2010 04:16:21 3.5 C 5.1 g/m*3 3.5 C 0 km/h
623 12-12-2010 04:28:21 3.6 C 5.2 g/m*3 3.6 C 0 km/h
624 12-12-2010 04:40:21 3.8 C 5.27 g/m*3 3.8 C 0 km/h
625 12-12-2010 04:52:21 4 C 5.28 g/m*3 4 C 0 km/h
Sensor: Nr:Datum:Temp:Abs-Feuchte:Windchill:Wind:
Aussen-T/F 626 12-12-2010 05:04:21 4 C 5.28 g/m*3 4 C 0 km/h
627 12-12-2010 05:16:21 3.2 C 4.94 g/m*3 3.2 C 0 km/h
628 12-12-2010 05:28:21 3.2 C 5.06 g/m*3 3.2 C 0 km/h
629 12-12-2010 05:40:21 3.6 C 5.26 g/m*3 3.6 C 0 km/h
630 12-12-2010 05:52:21 3.2 C 5 g/m*3 3.2 C 0 km/h
631 12-12-2010 06:04:21 2.8 C 4.93 g/m*3 2.8 C 0 km/h
632 12-12-2010 06:16:21 2.5 C 4.89 g/m*3 2.5 C 0 km/h
633 12-12-2010 06:28:21 2.9 C 5.14 g/m*3 2.9 C 0 km/h
634 12-12-2010 06:40:22 3.5 C 5.29 g/m*3 3.5 C 0 km/h
635 12-12-2010 06:52:22 3.5 C 5.1 g/m*3 3.5 C 0 km/h
636 12-12-2010 07:04:22 3.6 C 5.01 g/m*3 3.6 C 0 km/h
637 12-12-2010 07:16:22 3.8 C 5.02 g/m*3 3.8 C 0 km/h
638 12-12-2010 07:28:22 4 C 4.9 g/m*3 4 C 0 km/h
639 12-12-2010 07:40:22 3.9 C 4.86 g/m*3 3.9 C 0 km/h
640 12-12-2010 07:52:22 4 C 4.83 g/m*3 4 C 0 km/h
641 12-12-2010 08:04:22 4 C 4.83 g/m*3 4 C 0 km/h
642 12-12-2010 08:16:22 3.8 C 4.83 g/m*3 3.8 C 0 km/h
643 12-12-2010 08:28:22 3.5 C 4.8 g/m*3 3.5 C 0 km/h
644 12-12-2010 08:40:04 3.4 C 4.95 g/m*3 3.4 C 0 km/h
645 12-12-2010 08:52:02 3.4 C 4.95 g/m*3 3.4 C 0 km/h
646 12-12-2010 09:04:02 3.4 C 4.95 g/m*3 3.4 C 0 km/h
647 12-12-2010 09:16:02 3.5 C 4.98 g/m*3 3.5 C 0 km/h
648 12-12-2010 09:28:02 3.9 C 4.99 g/m*3 3.9 C 0 km/h
649 12-12-2010 09:40:03 3.9 C 4.93 g/m*3 3.9 C 0 km/h
650 12-12-2010 09:52:02 3.8 C 4.96 g/m*3 3.8 C 0 km/h
Sensor: Nr:Datum:Temp:Abs-Feuchte:Windchill:Wind:
Aussen-T/F 651 12-12-2010 10:04:01 3.8 C 4.89 g/m*3 3.8 C 0 km/h
652 12-12-2010 10:16:02 3.8 C 4.96 g/m*3 3.8 C 0 km/h
653 12-12-2010 10:28:02 3.9 C 5.05 g/m*3 3.9 C 0 km/h
654 12-12-2010 10:40:02 4 C 5.09 g/m*3 4 C 0 km/h
655 12-12-2010 10:52:02 3.8 C 5.14 g/m*3 3.8 C 0 km/h
656 12-12-2010 11:04:03 4.1 C 5.18 g/m*3 4.1 C 0 km/h
657 12-12-2010 11:16:02 4.1 C 5.12 g/m*3 4.1 C 0 km/h
658 12-12-2010 11:28:02 4.3 C 5.12 g/m*3 4.3 C 0 km/h
659 12-12-2010 11:40:02 4.1 C 5.12 g/m*3 4.1 C 0 km/h
660 12-12-2010 11:52:02 4 C 5.15 g/m*3 4 C 0 km/h
661 12-12-2010 12:04:02 4 C 5.21 g/m*3 4 C 0 km/h
662 12-12-2010 12:16:01 4.3 C 5.38 g/m*3 4.3 C 0 km/h
663 12-12-2010 12:28:01 4.6 C 5.43 g/m*3 4.6 C 0 km/h
664 12-12-2010 12:40:02 4.7 C 5.33 g/m*3 4.7 C 0 km/h
665 12-12-2010 12:52:02 4.9 C 5.33 g/m*3 4.9 C 0 km/h
666 12-12-2010 13:04:02 4.7 C 5.2 g/m*3 4.7 C 0 km/h
667 12-12-2010 13:16:01 5.1 C 5.2 g/m*3 5.1 C 0 km/h
668 12-12-2010 13:28:01 4.6 C 5.1 g/m*3 4.6 C 0 km/h
669 12-12-2010 13:40:02 4.8 C 5.23 g/m*3 4.8 C 0 km/h
670 12-12-2010 13:52:02 4.9 C 5.13 g/m*3 4.9 C 0 km/h
671 12-12-2010 14:04:02 4.5 C 5 g/m*3 4.5 C 0 km/h
672 12-12-2010 14:16:01 3.6 C 4.89 g/m*3 3.6 C 0 km/h
673 12-12-2010 14:28:01 3.1 C 4.85 g/m*3 3.1 C 0 km/h
674 12-12-2010 14:40:02 2.9 C 4.96 g/m*3 2.9 C 0 km/h
675 12-12-2010 14:52:02 3.2 C 5.06 g/m*3 3.2 C 0 km/h
Sensor: Nr:Datum:Temp:Abs-Feuchte:Windchill:Wind:
Aussen-T/F 676 12-12-2010 15:04:02 3.2 C 5.12 g/m*3 3.2 C 0 km/h
677 12-12-2010 15:16:02 3.2 C 5.18 g/m*3 3.2 C 0 km/h
678 12-12-2010 15:28:02 3.1 C 5.21 g/m*3 3.1 C 0 km/h
679 12-12-2010 15:40:02 3.1 C 5.27 g/m*3 3.1 C 0 km/h
680 12-12-2010 15:52:02 2.9 C 5.26 g/m*3 2.9 C 0 km/h
681 12-12-2010 16:04:02 2.7 C 5.13 g/m*3 2.7 C 0 km/h
682 12-12-2010 16:16:02 2.7 C 5.13 g/m*3 2.7 C 0 km/h
683 12-12-2010 16:28:03 2.6 C 5.09 g/m*3 2.6 C 0 km/h
684 12-12-2010 16:40:01 2.7 C 5.13 g/m*3 2.7 C 0 km/h
685 12-12-2010 16:52:02 2.8 C 5.1 g/m*3 2.8 C 0 km/h
686 12-12-2010 17:04:01 2.8 C 4.99 g/m*3 2.8 C 0 km/h
687 12-12-2010 17:16:01 2.7 C 4.78 g/m*3 2.7 C 0 km/h
688 12-12-2010 17:28:01 2.4 C 4.51 g/m*3 2.4 C 0 km/h
689 12-12-2010 17:40:02 2.3 C 4.42 g/m*3 2.3 C 0 km/h
690 12-12-2010 17:52:02 2.2 C 4.39 g/m*3 2.2 C 0 km/h
691 12-12-2010 18:04:02 2.1 C 4.36 g/m*3 2.1 C 0 km/h
692 12-12-2010 18:16:02 2 C 4.28 g/m*3 2 C 0 km/h
693 12-12-2010 18:28:02 1.8 C 4.22 g/m*3 1.8 C 0 km/h
694 12-12-2010 18:40:02 1.7 C 3.97 g/m*3 1.7 C 0 km/h
695 12-12-2010 18:52:01 1.7 C 3.92 g/m*3 1.7 C 0 km/h
696 12-12-2010 19:04:02 1.6 C 3.95 g/m*3 1.6 C 0 km/h
697 12-12-2010 19:16:01 1.4 C 3.95 g/m*3 1.4 C 0 km/h
698 12-12-2010 19:28:01 1.4 C 3.95 g/m*3 1.4 C 0 km/h
699 12-12-2010 19:40:01 1.3 C 3.87 g/m*3 1.3 C 0 km/h
700 12-12-2010 19:52:01 1.2 C 3.84 g/m*3 1.2 C 0 km/h
Sensor: Nr:Datum:Temp:Abs-Feuchte:Windchill:Wind:
Aussen-T/F 701 12-12-2010 20:04:01 1.4 C 3.57 g/m*3 1.4 C 0 km/h
702 12-12-2010 20:16:02 1.4 C 3.52 g/m*3 1.4 C 0 km/h
703 12-12-2010 20:28:02 1.1 C 3.5 g/m*3 1.1 C 0 km/h
704 12-12-2010 20:40:01 1 C 3.63 g/m*3 1 C 0 km/h
705 12-12-2010 20:52:02 1 C 3.58 g/m*3 1 C 0 km/h
706 12-12-2010 21:04:02 0.9 C 3.56 g/m*3 0.9 C 0 km/h
707 12-12-2010 21:16:02 0.8 C 3.43 g/m*3 0.8 C 0 km/h
708 12-12-2010 21:28:02 0.8 C 3.38 g/m*3 0.8 C 0 km/h
709 12-12-2010 21:40:02 0.7 C 3.2 g/m*3 0.7 C 0 km/h
710 12-12-2010 21:52:02 0.6 C 3.18 g/m*3 0.6 C 0 km/h
711 12-12-2010 22:04:02 0.5 C 3.21 g/m*3 0.5 C 0 km/h
712 12-12-2010 22:16:02 0.5 C 3.16 g/m*3 0.5 C 0 km/h
713 12-12-2010 22:28:02 0.4 C 3.19 g/m*3 0.4 C 0 km/h
714 12-12-2010 22:40:02 0.3 C 3.22 g/m*3 0.3 C 0 km/h
715 12-12-2010 22:53:03 0.3 C 3.12 g/m*3 0.3 C 0 km/h
716 12-12-2010 23:05:03 0.1 C 2.78 g/m*3 0.1 C 0 km/h
717 12-12-2010 23:17:03 0.1 C 2.78 g/m*3 0.1 C 0 km/h
718 12-12-2010 23:29:03 0 C 2.71 g/m*3 0 C 0 km/h
719 12-12-2010 23:41:03 -0.2 C 2.72 g/m*3 -0.2 C 0 km/h
720 12-12-2010 23:53:04 -0.2 C 2.68 g/m*3 -0.2 C 0 km/h
721 13-12-2010 00:05:04 -0.4 C 2.59 g/m*3 -0.4 C 0 km/h
722 13-12-2010 00:17:04 -0.4 C 2.59 g/m*3 -0.4 C 0 km/h
723 13-12-2010 00:29:04 -0.5 C 2.53 g/m*3 -0.5 C 0 km/h
724 13-12-2010 00:41:04 -0.6 C 2.37 g/m*3 -0.6 C 0 km/h
725 13-12-2010 00:53:04 -0.7 C 2.4 g/m*3 -0.7 C 0 km/h
Sensor: Nr:Datum:Temp:Abs-Feuchte:Windchill:Wind:
Aussen-T/F 726 13-12-2010 01:05:04 -0.7 C 2.35 g/m*3 -0.7 C 0 km/h
727 13-12-2010 01:17:04 -0.7 C 2.45 g/m*3 -0.7 C 0 km/h
728 13-12-2010 01:29:04 -0.9 C 2.46 g/m*3 -0.9 C 0 km/h
729 13-12-2010 01:41:04 -0.9 C 2.46 g/m*3 -0.9 C 0 km/h
730 13-12-2010 01:53:04 -1 C 2.53 g/m*3 -1 C 0 km/h
731 13-12-2010 02:05:04 -1.3 C 2.35 g/m*3 -1.3 C 0 km/h
732 13-12-2010 02:17:04 -2.1 C 2.26 g/m*3 -2.1 C 0 km/h
733 13-12-2010 02:29:04 -2.4 C 2.29 g/m*3 -2.4 C 0 km/h
734 13-12-2010 02:41:04 -2.7 C 2.29 g/m*3 -2.7 C 0 km/h
735 13-12-2010 02:53:04 -2.9 C 2.29 g/m*3 -2.9 C 0 km/h
736 13-12-2010 03:05:04 -2.9 C 2.29 g/m*3 -2.9 C 0 km/h
737 13-12-2010 03:17:04 -3.4 C 2.25 g/m*3 -3.4 C 0 km/h
738 13-12-2010 03:29:04 -3.6 C 2.26 g/m*3 -3.6 C 0 km/h
739 13-12-2010 03:41:04 -3.8 C 2.26 g/m*3 -3.8 C 0 km/h
740 13-12-2010 03:53:05 -3.8 C 2.26 g/m*3 -3.8 C 0 km/h
741 13-12-2010 04:05:05 -4.1 C 2.25 g/m*3 -4.1 C 0 km/h
742 13-12-2010 04:17:05 -4.2 C 2.31 g/m*3 -4.2 C 0 km/h
743 13-12-2010 04:29:05 -4.1 C 2.32 g/m*3 -4.1 C 0 km/h
744 13-12-2010 04:41:05 -4.4 C 2.28 g/m*3 -4.4 C 0 km/h
745 13-12-2010 04:53:05 -4.2 C 2.31 g/m*3 -4.2 C 0 km/h
746 13-12-2010 05:05:05 -4.7 C 2.26 g/m*3 -4.7 C 0 km/h
747 13-12-2010 05:17:05 -5.2 C 2.25 g/m*3 -5.2 C 0 km/h
748 13-12-2010 05:29:05 -6 C 2.19 g/m*3 -6 C 0 km/h
749 13-12-2010 05:41:05 -6.5 C 2.17 g/m*3 -6.5 C 0 km/h
750 13-12-2010 05:53:05 -6.6 C 2.24 g/m*3 -6.6 C 0 km/h
Sensor: Nr:Datum:Temp:Abs-Feuchte:Windchill:Wind:
Aussen-T/F 751 13-12-2010 06:05:05 -6.2 C 2.31 g/m*3 -6.2 C 0 km/h
752 13-12-2010 06:17:05 -6.3 C 2.32 g/m*3 -6.3 C 0 km/h
753 13-12-2010 06:29:05 -7 C 2.18 g/m*3 -7 C 0 km/h
754 13-12-2010 06:41:05 -7.5 C 2.13 g/m*3 -7.5 C 0 km/h
755 13-12-2010 06:53:05 -7.7 C 2.13 g/m*3 -7.7 C 0 km/h
756 13-12-2010 07:05:05 -7.2 C 2.23 g/m*3 -7.2 C 0 km/h
757 13-12-2010 07:17:05 -6.8 C 2.3 g/m*3 -6.8 C 0 km/h
758 13-12-2010 07:29:05 -7.2 C 2.2 g/m*3 -7.2 C 0 km/h
759 13-12-2010 07:41:02 -7.3 C 2.19 g/m*3 -7.3 C 0 km/h
760 13-12-2010 07:53:02 -7.5 C 2.19 g/m*3 -7.5 C 0 km/h
761 13-12-2010 08:05:01 -6.9 C 2.31 g/m*3 -6.9 C 0 km/h
762 13-12-2010 08:17:02 -7.2 C 2.26 g/m*3 -7.2 C 0 km/h
763 13-12-2010 08:29:02 -7.3 C 2.25 g/m*3 -7.3 C 0 km/h
764 13-12-2010 08:41:01 -7.3 C 2.25 g/m*3 -7.3 C 0 km/h
765 13-12-2010 08:53:02 -7.2 C 2.29 g/m*3 -7.2 C 0 km/h
766 13-12-2010 09:05:02 -7.3 C 2.25 g/m*3 -7.3 C 0 km/h
767 13-12-2010 09:17:02 -7.4 C 2.23 g/m*3 -7.4 C 0 km/h
768 13-12-2010 09:29:02 -7.3 C 2.25 g/m*3 -7.3 C 0 km/h
769 13-12-2010 09:41:02 -6.8 C 2.36 g/m*3 -6.8 C 0 km/h
770 13-12-2010 09:53:01 -6.8 C 2.36 g/m*3 -6.8 C 0 km/h
771 13-12-2010 10:05:02 -7.1 C 2.31 g/m*3 -7.1 C 0 km/h
772 13-12-2010 10:17:01 -7 C 2.33 g/m*3 -7 C 0 km/h
773 13-12-2010 10:29:01 -6.6 C 2.39 g/m*3 -6.6 C 0 km/h
774 13-12-2010 10:41:02 -6.6 C 2.39 g/m*3 -6.6 C 0 km/h
775 13-12-2010 10:53:02 -5.8 C 2.57 g/m*3 -5.8 C 0 km/h
Sensor: Nr:Datum:Temp:Abs-Feuchte:Windchill:Wind:
Aussen-T/F 776 13-12-2010 11:05:02 -4.9 C 2.71 g/m*3 -4.9 C 0 km/h
777 13-12-2010 11:17:01 -4.4 C 2.7 g/m*3 -4.4 C 0 km/h
778 13-12-2010 11:29:01 -4 C 2.6 g/m*3 -4 C 0 km/h
779 13-12-2010 11:41:02 -3.5 C 2.58 g/m*3 -3.5 C 0 km/h
780 13-12-2010 11:53:01 -3.2 C 2.56 g/m*3 -3.2 C 0 km/h
781 13-12-2010 12:05:02 -2.8 C 2.59 g/m*3 -2.8 C 0 km/h
782 13-12-2010 12:17:02 -2.8 C 2.51 g/m*3 -2.8 C 0 km/h
783 13-12-2010 12:29:02 -2.9 C 2.49 g/m*3 -2.9 C 0 km/h
784 13-12-2010 12:41:01 -2.8 C 2.51 g/m*3 -2.8 C 0 km/h
785 13-12-2010 12:53:02 -2.6 C 2.51 g/m*3 -2.6 C 0 km/h
786 13-12-2010 13:05:01 -2.5 C 2.56 g/m*3 -2.5 C 0 km/h
787 13-12-2010 13:17:02 -2.5 C 2.52 g/m*3 -2.5 C 0 km/h
788 13-12-2010 13:29:03 -2.3 C 2.52 g/m*3 -2.3 C 0 km/h
789 13-12-2010 13:41:01 -2.3 C 2.44 g/m*3 -2.3 C 0 km/h
790 13-12-2010 13:53:02 -2 C 2.44 g/m*3 -2 C 0 km/h
791 13-12-2010 14:05:02 -1.9 C 2.38 g/m*3 -1.9 C 0 km/h
792 13-12-2010 14:17:02 -2 C 2.36 g/m*3 -2 C 0 km/h
793 13-12-2010 14:29:02 -2.1 C 2.39 g/m*3 -2.1 C 0 km/h
794 13-12-2010 14:41:03 -2.3 C 2.39 g/m*3 -2.3 C 0 km/h
795 13-12-2010 14:53:02 -2.7 C 2.45 g/m*3 -2.7 C 0 km/h
796 13-12-2010 15:05:02 -2.9 C 2.45 g/m*3 -2.9 C 0 km/h
797 13-12-2010 15:17:01 -3.1 C 2.46 g/m*3 -3.1 C 0 km/h
798 13-12-2010 15:29:01 -3.4 C 2.48 g/m*3 -3.4 C 0 km/h
799 13-12-2010 15:41:02 -4.2 C 2.45 g/m*3 -4.2 C 0 km/h
800 13-12-2010 15:53:02 -4.7 C 2.51 g/m*3 -4.7 C 0 km/h
Sensor: Nr:Datum:Temp:Abs-Feuchte:Windchill:Wind:
Aussen-T/F 801 13-12-2010 16:05:03 -4.7 C 2.57 g/m*3 -4.7 C 0 km/h
802 13-12-2010 16:17:02 -4.8 C 2.59 g/m*3 -4.8 C 0 km/h
803 13-12-2010 16:29:02 -5 C 2.59 g/m*3 -5 C 0 km/h
804 13-12-2010 16:41:02 -5.3 C 2.53 g/m*3 -5.3 C 0 km/h
805 13-12-2010 16:53:02 -5.1 C 2.6 g/m*3 -5.1 C 0 km/h
806 13-12-2010 17:05:02 -5.6 C 2.54 g/m*3 -5.6 C 0 km/h
807 13-12-2010 17:17:01 -5.5 C 2.56 g/m*3 -5.5 C 0 km/h
808 13-12-2010 17:29:01 -6 C 2.47 g/m*3 -6 C 0 km/h
809 13-12-2010 17:41:02 -6.1 C 2.48 g/m*3 -6.1 C 0 km/h
810 13-12-2010 17:53:02 -6.2 C 2.43 g/m*3 -6.2 C 0 km/h
811 13-12-2010 18:05:02 -6 C 2.5 g/m*3 -6 C 0 km/h
812 13-12-2010 18:17:02 -6.2 C 2.47 g/m*3 -6.2 C 0 km/h
813 13-12-2010 18:29:02 -6.5 C 2.41 g/m*3 -6.5 C 0 km/h
814 13-12-2010 18:41:02 -6.1 C 2.52 g/m*3 -6.1 C 0 km/h
815 13-12-2010 18:53:02 -6.2 C 2.53 g/m*3 -6.2 C 0 km/h
816 13-12-2010 19:05:02 -6.2 C 2.53 g/m*3 -6.2 C 0 km/h
817 13-12-2010 19:17:02 -5.6 C 2.67 g/m*3 -5.6 C 0 km/h
818 13-12-2010 19:29:02 -5.3 C 2.77 g/m*3 -5.3 C 0 km/h
819 13-12-2010 19:41:02 -5.1 C 2.81 g/m*3 -5.1 C 0 km/h
820 13-12-2010 19:53:02 -5 C 2.83 g/m*3 -5 C 0 km/h
821 13-12-2010 20:05:02 -4.9 C 2.85 g/m*3 -4.9 C 0 km/h
822 13-12-2010 20:17:02 -5.3 C 2.7 g/m*3 -5.3 C 0 km/h
823 13-12-2010 20:29:02 -5.1 C 2.74 g/m*3 -5.1 C 0 km/h
824 13-12-2010 20:41:02 -4.6 C 2.84 g/m*3 -4.6 C 0 km/h
825 13-12-2010 20:53:02 -4.4 C 2.88 g/m*3 -4.4 C 0 km/h
Sensor: Nr:Datum:Temp:Abs-Feuchte:Windchill:Wind:
Aussen-T/F 826 13-12-2010 21:05:02 -4.4 C 2.84 g/m*3 -4.4 C 0 km/h
827 13-12-2010 21:17:02 -4.3 C 2.83 g/m*3 -4.3 C 0 km/h
828 13-12-2010 21:29:03 -4.2 C 2.81 g/m*3 -4.2 C 0 km/h
829 13-12-2010 21:41:02 -4.1 C 2.8 g/m*3 -4.1 C 0 km/h
830 13-12-2010 21:53:02 -4.1 C 2.8 g/m*3 -4.1 C 0 km/h
831 13-12-2010 22:05:01 -3.9 C 2.84 g/m*3 -3.9 C 0 km/h
832 13-12-2010 22:17:02 -3.9 C 2.84 g/m*3 -3.9 C 0 km/h
833 13-12-2010 22:29:02 -3.7 C 2.84 g/m*3 -3.7 C 0 km/h
834 13-12-2010 22:41:02 -4 C 2.85 g/m*3 -4 C 0 km/h
835 13-12-2010 22:53:02 -4.1 C 2.91 g/m*3 -4.1 C 0 km/h
836 13-12-2010 23:05:02 -4.1 C 2.94 g/m*3 -4.1 C 0 km/h
837 13-12-2010 23:17:02 -4.1 C 2.98 g/m*3 -4.1 C 0 km/h
838 13-12-2010 23:29:02 -4.1 C 3.01 g/m*3 -4.1 C 0 km/h
839 13-12-2010 23:41:02 -4.1 C 3.01 g/m*3 -4.1 C 0 km/h
840 13-12-2010 23:53:02 -4.1 C 3.05 g/m*3 -4.1 C 0 km/h
841 14-12-2010 00:05:02 -4.1 C 3.05 g/m*3 -4.1 C 0 km/h
842 14-12-2010 00:17:02 -4.1 C 3.01 g/m*3 -4.1 C 0 km/h
843 14-12-2010 00:29:02 -4.1 C 3.01 g/m*3 -4.1 C 0 km/h
844 14-12-2010 00:41:02 -4.1 C 3.01 g/m*3 -4.1 C 0 km/h
845 14-12-2010 00:53:03 -4.1 C 3.01 g/m*3 -4.1 C 0 km/h
846 14-12-2010 01:05:03 -4.1 C 3.01 g/m*3 -4.1 C 0 km/h
847 14-12-2010 01:17:03 -4.1 C 3.01 g/m*3 -4.1 C 0 km/h
848 14-12-2010 01:29:03 -4.1 C 3.01 g/m*3 -4.1 C 0 km/h
849 14-12-2010 01:41:03 -4 C 3.07 g/m*3 -4 C 0 km/h
850 14-12-2010 01:53:03 -4 C 3.04 g/m*3 -4 C 0 km/h
Sensor: Nr:Datum:Temp:Abs-Feuchte:Windchill:Wind:
Aussen-T/F 851 14-12-2010 02:05:03 -3.9 C 3.06 g/m*3 -3.9 C 0 km/h
852 14-12-2010 02:17:03 -3.9 C 3.06 g/m*3 -3.9 C 0 km/h
853 14-12-2010 02:29:03 -3.9 C 3.06 g/m*3 -3.9 C 0 km/h
854 14-12-2010 02:41:03 -3.8 C 3.08 g/m*3 -3.8 C 0 km/h
855 14-12-2010 02:53:03 -3.7 C 3.1 g/m*3 -3.7 C 0 km/h
856 14-12-2010 03:05:03 -3.7 C 3.1 g/m*3 -3.7 C 0 km/h
857 14-12-2010 03:17:03 -3.7 C 3.1 g/m*3 -3.7 C 0 km/h
858 14-12-2010 03:29:03 -3.7 C 3.1 g/m*3 -3.7 C 0 km/h
859 14-12-2010 03:41:03 -3.7 C 3.1 g/m*3 -3.7 C 0 km/h
860 14-12-2010 03:53:03 -3.5 C 3.15 g/m*3 -3.5 C 0 km/h
861 14-12-2010 04:05:03 -3.7 C 3.1 g/m*3 -3.7 C 0 km/h
862 14-12-2010 04:17:03 -3.5 C 3.11 g/m*3 -3.5 C 0 km/h
863 14-12-2010 04:29:03 -3.5 C 3.11 g/m*3 -3.5 C 0 km/h
864 14-12-2010 04:41:03 -3.7 C 3.06 g/m*3 -3.7 C 0 km/h
865 14-12-2010 04:53:04 -3.7 C 3.06 g/m*3 -3.7 C 0 km/h
866 14-12-2010 05:05:04 -3.7 C 3.06 g/m*3 -3.7 C 0 km/h
867 14-12-2010 05:17:04 -3.7 C 3.06 g/m*3 -3.7 C 0 km/h
868 14-12-2010 05:29:04 -3.8 C 3.04 g/m*3 -3.8 C 0 km/h
869 14-12-2010 05:41:04 -3.8 C 3.04 g/m*3 -3.8 C 0 km/h
870 14-12-2010 05:53:04 -4 C 3 g/m*3 -4 C 0 km/h
871 14-12-2010 06:05:04 -4.3 C 2.94 g/m*3 -4.3 C 0 km/h
872 14-12-2010 06:17:04 -4.9 C 2.81 g/m*3 -4.9 C 0 km/h
873 14-12-2010 06:29:04 -5 C 2.79 g/m*3 -5 C 0 km/h
874 14-12-2010 06:41:04 -4.7 C 2.89 g/m*3 -4.7 C 0 km/h
875 14-12-2010 06:53:04 -4.6 C 2.94 g/m*3 -4.6 C 0 km/h
Sensor: Nr:Datum:Temp:Abs-Feuchte:Windchill:Wind:
Aussen-T/F 876 14-12-2010 07:05:04 -5.3 C 2.77 g/m*3 -5.3 C 0 km/h
877 14-12-2010 07:17:04 -6 C 2.63 g/m*3 -6 C 0 km/h
878 14-12-2010 07:29:04 -6.4 C 2.55 g/m*3 -6.4 C 0 km/h
879 14-12-2010 07:41:04 -6.6 C 2.52 g/m*3 -6.6 C 0 km/h
880 14-12-2010 07:53:01 -6.8 C 2.51 g/m*3 -6.8 C 0 km/h
881 14-12-2010 08:05:01 -6.8 C 2.51 g/m*3 -6.8 C 0 km/h
882 14-12-2010 08:17:01 -6.8 C 2.54 g/m*3 -6.8 C 0 km/h
883 14-12-2010 08:29:01 -6 C 2.72 g/m*3 -6 C 0 km/h
884 14-12-2010 08:41:01 -5.9 C 2.74 g/m*3 -5.9 C 0 km/h
885 14-12-2010 08:53:02 -6.4 C 2.61 g/m*3 -6.4 C 0 km/h
886 14-12-2010 09:05:01 -6.4 C 2.61 g/m*3 -6.4 C 0 km/h
887 14-12-2010 09:17:01 -6.1 C 2.67 g/m*3 -6.1 C 0 km/h
888 14-12-2010 09:29:02 -5.7 C 2.75 g/m*3 -5.7 C 0 km/h
889 14-12-2010 09:41:01 -6 C 2.69 g/m*3 -6 C 0 km/h
890 14-12-2010 09:53:02 -5.8 C 2.73 g/m*3 -5.8 C 0 km/h
891 14-12-2010 10:05:01 -4.9 C 2.92 g/m*3 -4.9 C 0 km/h
892 14-12-2010 10:17:01 -4.3 C 3.04 g/m*3 -4.3 C 0 km/h
893 14-12-2010 10:29:01 -4 C 3.04 g/m*3 -4 C 0 km/h
894 14-12-2010 10:41:02 -3.7 C 3.03 g/m*3 -3.7 C 0 km/h
895 14-12-2010 10:53:01 -3.4 C 2.98 g/m*3 -3.4 C 0 km/h
896 14-12-2010 11:05:02 -3.3 C 2.85 g/m*3 -3.3 C 0 km/h
897 14-12-2010 11:17:01 -3.2 C 2.75 g/m*3 -3.2 C 0 km/h
898 14-12-2010 11:29:01 -3.6 C 2.63 g/m*3 -3.6 C 0 km/h
899 14-12-2010 11:41:02 -3.2 C 2.79 g/m*3 -3.2 C 0 km/h
900 14-12-2010 11:53:01 -2.9 C 2.73 g/m*3 -2.9 C 0 km/h
Sensor: Nr:Datum:Temp:Abs-Feuchte:Windchill:Wind:
Aussen-T/F 901 14-12-2010 12:05:02 -2.8 C 2.67 g/m*3 -2.8 C 0 km/h
902 14-12-2010 12:17:01 -2.4 C 2.66 g/m*3 -2.4 C 0 km/h
903 14-12-2010 12:29:01 -2.5 C 2.6 g/m*3 -2.5 C 0 km/h
904 14-12-2010 12:41:01 -2.3 C 2.68 g/m*3 -2.3 C 0 km/h
905 14-12-2010 12:53:01 -2.1 C 2.68 g/m*3 -2.1 C 0 km/h
906 14-12-2010 13:05:01 -2.3 C 2.68 g/m*3 -2.3 C 0 km/h
907 14-12-2010 13:17:02 -2.3 C 2.64 g/m*3 -2.3 C 0 km/h
908 14-12-2010 13:29:02 -2.2 C 2.62 g/m*3 -2.2 C 0 km/h
909 14-12-2010 13:41:01 -2.1 C 2.6 g/m*3 -2.1 C 0 km/h
910 14-12-2010 13:53:02 -2.1 C 2.64 g/m*3 -2.1 C 0 km/h
911 14-12-2010 14:05:01 -2.3 C 2.64 g/m*3 -2.3 C 0 km/h
912 14-12-2010 14:17:02 -2.5 C 2.65 g/m*3 -2.5 C 0 km/h
913 14-12-2010 14:29:02 -2.4 C 2.7 g/m*3 -2.4 C 0 km/h
914 14-12-2010 14:41:01 -2.4 C 2.66 g/m*3 -2.4 C 0 km/h
915 14-12-2010 14:53:02 -2.6 C 2.63 g/m*3 -2.6 C 0 km/h
916 14-12-2010 15:05:01 -2.7 C 2.65 g/m*3 -2.7 C 0 km/h
917 14-12-2010 15:17:01 -2.7 C 2.69 g/m*3 -2.7 C 0 km/h
918 14-12-2010 15:29:01 -2.8 C 2.71 g/m*3 -2.8 C 0 km/h
919 14-12-2010 15:41:02 -2.8 C 2.71 g/m*3 -2.8 C 0 km/h
920 14-12-2010 15:53:01 -2.8 C 2.75 g/m*3 -2.8 C 0 km/h
921 14-12-2010 16:05:02 -2.8 C 2.75 g/m*3 -2.8 C 0 km/h
922 14-12-2010 16:17:01 -2.8 C 2.79 g/m*3 -2.8 C 0 km/h
923 14-12-2010 16:29:01 -2.9 C 2.81 g/m*3 -2.9 C 0 km/h
924 14-12-2010 16:41:02 -3 C 2.83 g/m*3 -3 C 0 km/h
925 14-12-2010 16:53:01 -3 C 2.83 g/m*3 -3 C 0 km/h
Sensor: Nr:Datum:Temp:Abs-Feuchte:Windchill:Wind:
Aussen-T/F 926 14-12-2010 17:05:02 -3 C 2.87 g/m*3 -3 C 0 km/h
927 14-12-2010 17:17:01 -3 C 2.87 g/m*3 -3 C 0 km/h
928 14-12-2010 17:29:01 -3 C 2.95 g/m*3 -3 C 0 km/h
929 14-12-2010 17:41:01 -3 C 2.95 g/m*3 -3 C 0 km/h
930 14-12-2010 17:53:01 -2.9 C 2.93 g/m*3 -2.9 C 0 km/h
931 14-12-2010 18:05:01 -3.1 C 2.85 g/m*3 -3.1 C 0 km/h
932 14-12-2010 18:17:02 -3 C 2.79 g/m*3 -3 C 0 km/h
933 14-12-2010 18:29:02 -3.2 C 2.71 g/m*3 -3.2 C 0 km/h
934 14-12-2010 18:41:01 -3 C 2.79 g/m*3 -3 C 0 km/h
935 14-12-2010 18:53:02 -3 C 2.79 g/m*3 -3 C 0 km/h
936 14-12-2010 19:05:01 -2.8 C 2.83 g/m*3 -2.8 C 0 km/h
937 14-12-2010 19:17:02 -2.8 C 2.83 g/m*3 -2.8 C 0 km/h
938 14-12-2010 19:29:02 -2.8 C 2.87 g/m*3 -2.8 C 0 km/h
939 14-12-2010 19:41:01 -2.8 C 2.87 g/m*3 -2.8 C 0 km/h
940 14-12-2010 19:53:02 -2.9 C 2.81 g/m*3 -2.9 C 0 km/h
941 14-12-2010 20:05:01 -3 C 2.79 g/m*3 -3 C 0 km/h
942 14-12-2010 20:17:01 -3 C 2.79 g/m*3 -3 C 0 km/h
943 14-12-2010 20:29:01 -3 C 2.75 g/m*3 -3 C 0 km/h
944 14-12-2010 20:41:02 -3.1 C 2.69 g/m*3 -3.1 C 0 km/h
945 14-12-2010 20:53:01 -3.1 C 2.69 g/m*3 -3.1 C 0 km/h
946 14-12-2010 21:05:02 -3.1 C 2.65 g/m*3 -3.1 C 0 km/h
947 14-12-2010 21:17:01 -3.1 C 2.65 g/m*3 -3.1 C 0 km/h
948 14-12-2010 21:29:01 -3.1 C 2.65 g/m*3 -3.1 C 0 km/h
949 14-12-2010 21:41:02 -3.1 C 2.65 g/m*3 -3.1 C 0 km/h
950 14-12-2010 21:53:02 -3.2 C 2.59 g/m*3 -3.2 C 0 km/h
Sensor: Nr:Datum:Temp:Abs-Feuchte:Windchill:Wind:
Aussen-T/F 951 14-12-2010 22:05:02 -3.2 C 2.59 g/m*3 -3.2 C 0 km/h
952 14-12-2010 22:17:02 -3.2 C 2.56 g/m*3 -3.2 C 0 km/h
953 14-12-2010 22:29:02 -3.2 C 2.59 g/m*3 -3.2 C 0 km/h
954 14-12-2010 22:42:04 -3.1 C 2.57 g/m*3 -3.1 C 0 km/h
955 14-12-2010 22:54:04 -3.1 C 2.57 g/m*3 -3.1 C 0 km/h
956 14-12-2010 23:06:04 -3.2 C 2.52 g/m*3 -3.2 C 0 km/h
957 14-12-2010 23:18:04 -3.2 C 2.52 g/m*3 -3.2 C 0 km/h
958 14-12-2010 23:30:05 -3.2 C 2.48 g/m*3 -3.2 C 0 km/h
959 14-12-2010 23:42:05 -3.2 C 2.52 g/m*3 -3.2 C 0 km/h
960 14-12-2010 23:54:05 -3.3 C 2.5 g/m*3 -3.3 C 0 km/h
961 15-12-2010 00:06:05 -3.3 C 2.5 g/m*3 -3.3 C 0 km/h
962 15-12-2010 00:18:05 -3.3 C 2.5 g/m*3 -3.3 C 0 km/h
963 15-12-2010 00:30:05 -3.3 C 2.5 g/m*3 -3.3 C 0 km/h
964 15-12-2010 00:42:05 -3.3 C 2.5 g/m*3 -3.3 C 0 km/h
965 15-12-2010 00:54:05 -3.3 C 2.5 g/m*3 -3.3 C 0 km/h
966 15-12-2010 01:06:05 -3.3 C 2.54 g/m*3 -3.3 C 0 km/h
967 15-12-2010 01:18:05 -3.2 C 2.56 g/m*3 -3.2 C 0 km/h
968 15-12-2010 01:30:05 -3.2 C 2.59 g/m*3 -3.2 C 0 km/h
969 15-12-2010 01:42:05 -3.3 C 2.58 g/m*3 -3.3 C 0 km/h
970 15-12-2010 01:54:05 -3.3 C 2.58 g/m*3 -3.3 C 0 km/h
971 15-12-2010 02:06:05 -3.7 C 2.54 g/m*3 -3.7 C 0 km/h
972 15-12-2010 02:18:05 -4 C 2.56 g/m*3 -4 C 0 km/h
973 15-12-2010 02:30:05 -3.9 C 2.58 g/m*3 -3.9 C 0 km/h
974 15-12-2010 02:42:05 -4.5 C 2.51 g/m*3 -4.5 C 0 km/h
975 15-12-2010 02:54:05 -4.7 C 2.51 g/m*3 -4.7 C 0 km/h
Sensor: Nr:Datum:Temp:Abs-Feuchte:Windchill:Wind:
Aussen-T/F 976 15-12-2010 03:06:05 -4.7 C 2.54 g/m*3 -4.7 C 0 km/h
977 15-12-2010 03:18:05 -5 C 2.45 g/m*3 -5 C 0 km/h
978 15-12-2010 03:30:05 -4.8 C 2.52 g/m*3 -4.8 C 0 km/h
979 15-12-2010 03:42:05 -5.2 C 2.45 g/m*3 -5.2 C 0 km/h
980 15-12-2010 03:54:05 -4.8 C 2.56 g/m*3 -4.8 C 0 km/h
981 15-12-2010 04:06:06 -4.7 C 2.57 g/m*3 -4.7 C 0 km/h
982 15-12-2010 04:18:06 -4.3 C 2.65 g/m*3 -4.3 C 0 km/h
983 15-12-2010 04:30:06 -4.5 C 2.58 g/m*3 -4.5 C 0 km/h
984 15-12-2010 04:42:06 -5.4 C 2.41 g/m*3 -5.4 C 0 km/h
985 15-12-2010 04:54:06 -5.4 C 2.48 g/m*3 -5.4 C 0 km/h
986 15-12-2010 05:06:06 -4.9 C 2.61 g/m*3 -4.9 C 0 km/h
987 15-12-2010 05:18:06 -4.9 C 2.61 g/m*3 -4.9 C 0 km/h
988 15-12-2010 05:30:06 -4.8 C 2.63 g/m*3 -4.8 C 0 km/h
989 15-12-2010 05:42:06 -4.6 C 2.66 g/m*3 -4.6 C 0 km/h
990 15-12-2010 05:54:06 -4.4 C 2.67 g/m*3 -4.4 C 0 km/h
991 15-12-2010 06:06:06 -4 C 2.71 g/m*3 -4 C 0 km/h
992 15-12-2010 06:18:06 -3.8 C 2.71 g/m*3 -3.8 C 0 km/h
993 15-12-2010 06:30:06 -3.8 C 2.67 g/m*3 -3.8 C 0 km/h
994 15-12-2010 06:42:06 -3.8 C 2.71 g/m*3 -3.8 C 0 km/h
995 15-12-2010 06:54:06 -3.5 C 2.77 g/m*3 -3.5 C 0 km/h
996 15-12-2010 07:06:06 -3.5 C 2.81 g/m*3 -3.5 C 0 km/h
997 15-12-2010 07:18:06 -3.5 C 2.81 g/m*3 -3.5 C 0 km/h
998 15-12-2010 07:30:06 -3.4 C 2.83 g/m*3 -3.4 C 0 km/h
999 15-12-2010 07:42:06 -3.4 C 2.79 g/m*3 -3.4 C 0 km/h
1000 15-12-2010 07:54:02 -3.3 C 2.85 g/m*3 -3.3 C 0 km/h
Sensor: Nr:Datum:Temp:Abs-Feuchte:Windchill:Wind:
Aussen-T/F 1001 15-12-2010 08:06:03 -3.3 C 2.85 g/m*3 -3.3 C 0 km/h
1002 15-12-2010 08:18:02 -3.4 C 2.83 g/m*3 -3.4 C 0 km/h
1003 15-12-2010 08:30:02 -3.4 C 2.86 g/m*3 -3.4 C 0 km/h
1004 15-12-2010 08:42:02 -3.3 C 2.92 g/m*3 -3.3 C 0 km/h
1005 15-12-2010 08:54:02 -3.1 C 2.96 g/m*3 -3.1 C 0 km/h
1006 15-12-2010 09:06:01 -2.9 C 3.01 g/m*3 -2.9 C 0 km/h
1007 15-12-2010 09:18:02 -2.6 C 3.03 g/m*3 -2.6 C 0 km/h
1008 15-12-2010 09:30:02 -2.6 C 2.99 g/m*3 -2.6 C 0 km/h
1009 15-12-2010 09:42:02 -2.4 C 3.03 g/m*3 -2.4 C 0 km/h
1010 15-12-2010 09:54:01 -2.3 C 3.05 g/m*3 -2.3 C 0 km/h
1011 15-12-2010 10:06:02 -2.1 C 3.1 g/m*3 -2.1 C 0 km/h
1012 15-12-2010 10:18:01 -2 C 3.12 g/m*3 -2 C 0 km/h
1013 15-12-2010 10:30:01 -1.8 C 3.21 g/m*3 -1.8 C 0 km/h
1014 15-12-2010 10:42:01 -1.5 C 3.32 g/m*3 -1.5 C 0 km/h
1015 15-12-2010 10:54:01 -1.4 C 3.39 g/m*3 -1.4 C 0 km/h
1016 15-12-2010 11:06:02 -1.2 C 3.43 g/m*3 -1.2 C 0 km/h
1017 15-12-2010 11:18:01 -0.8 C 3.53 g/m*3 -0.8 C 0 km/h
1018 15-12-2010 11:30:01 -0.5 C 3.56 g/m*3 -0.5 C 0 km/h
1019 15-12-2010 11:42:01 -0.5 C 3.51 g/m*3 -0.5 C 0 km/h
1020 15-12-2010 11:54:01 -0.4 C 3.53 g/m*3 -0.4 C 0 km/h
1021 15-12-2010 12:06:01 -0.4 C 3.53 g/m*3 -0.4 C 0 km/h
1022 15-12-2010 12:18:02 -0.4 C 3.49 g/m*3 -0.4 C 0 km/h
1023 15-12-2010 12:30:02 -0.4 C 3.49 g/m*3 -0.4 C 0 km/h
1024 15-12-2010 12:42:01 -0.5 C 3.46 g/m*3 -0.5 C 0 km/h
1025 15-12-2010 12:54:58 -0.7 C 3.37 g/m*3 -0.7 C 0 km/h
Sensor: Nr:Datum:Temp:Abs-Feuchte:Windchill:Wind:
Aussen-T/F 1026 15-12-2010 13:06:58 -0.8 C 3.44 g/m*3 -0.8 C 0 km/h
1027 15-12-2010 13:18:58 -0.5 C 3.56 g/m*3 -0.5 C 0 km/h
1028 15-12-2010 13:30:01 -0.4 C 3.53 g/m*3 -0.4 C 0 km/h
1029 15-12-2010 13:42:01 0.1 C 3.71 g/m*3 0.1 C 0 km/h
1030 15-12-2010 13:54:02 -0.3 C 3.56 g/m*3 -0.3 C 0 km/h
1031 15-12-2010 14:06:01 0 C 3.63 g/m*3 0 C 0 km/h
1032 15-12-2010 14:18:01 -0.1 C 3.42 g/m*3 -0.1 C 0 km/h
1033 15-12-2010 14:30:01 -0.2 C 3.35 g/m*3 -0.2 C 0 km/h
1034 15-12-2010 14:42:02 0 C 3.34 g/m*3 0 C 0 km/h
1035 15-12-2010 14:54:02 -0.3 C 3.08 g/m*3 -0.3 C 0 km/h
1036 15-12-2010 15:06:02 -0.8 C 2.84 g/m*3 -0.8 C 0 km/h
1037 15-12-2010 15:18:02 -1.2 C 2.76 g/m*3 -1.2 C 0 km/h
1038 15-12-2010 15:30:02 -1.5 C 2.75 g/m*3 -1.5 C 0 km/h
1039 15-12-2010 15:42:02 -1.8 C 2.78 g/m*3 -1.8 C 0 km/h
1040 15-12-2010 15:54:01 -1.9 C 2.84 g/m*3 -1.9 C 0 km/h
1041 15-12-2010 16:06:01 -2.4 C 2.83 g/m*3 -2.4 C 0 km/h
1042 15-12-2010 16:18:01 -2.2 C 2.91 g/m*3 -2.2 C 0 km/h
1043 15-12-2010 16:30:01 -2.7 C 2.73 g/m*3 -2.7 C 0 km/h
1044 15-12-2010 16:42:01 -4.2 C 2.49 g/m*3 -4.2 C 0 km/h
1045 15-12-2010 16:54:01 -4.5 C 2.58 g/m*3 -4.5 C 0 km/h
1046 15-12-2010 17:06:01 -4.5 C 2.68 g/m*3 -4.5 C 0 km/h
1047 15-12-2010 17:18:02 -4.3 C 2.76 g/m*3 -4.3 C 0 km/h
1048 15-12-2010 17:30:02 -4.3 C 2.76 g/m*3 -4.3 C 0 km/h
1049 15-12-2010 17:42:01 -4.3 C 2.76 g/m*3 -4.3 C 0 km/h
1050 15-12-2010 17:54:01 -4.3 C 2.76 g/m*3 -4.3 C 0 km/h
Sensor: Nr:Datum:Temp:Abs-Feuchte:Windchill:Wind:
Aussen-T/F 1051 15-12-2010 18:06:01 -4.8 C 2.76 g/m*3 -4.8 C 0 km/h
1052 15-12-2010 18:18:02 -4.8 C 2.76 g/m*3 -4.8 C 0 km/h
1053 15-12-2010 18:30:02 -5.3 C 2.67 g/m*3 -5.3 C 0 km/h
1054 15-12-2010 18:42:01 -4.9 C 2.78 g/m*3 -4.9 C 0 km/h
1055 15-12-2010 18:54:03 -4.5 C 2.89 g/m*3 -4.5 C 0 km/h
1056 15-12-2010 19:06:02 -4.5 C 2.89 g/m*3 -4.5 C 0 km/h
1057 15-12-2010 19:18:02 -4.5 C 2.86 g/m*3 -4.5 C 0 km/h
1058 15-12-2010 19:30:03 -4.2 C 2.92 g/m*3 -4.2 C 0 km/h
1059 15-12-2010 19:42:02 -4.2 C 2.89 g/m*3 -4.2 C 0 km/h
1060 15-12-2010 19:54:02 -4.7 C 2.75 g/m*3 -4.7 C 0 km/h
1061 15-12-2010 20:06:01 -4.6 C 2.73 g/m*3 -4.6 C 0 km/h
1062 15-12-2010 20:18:02 -3.4 C 2.98 g/m*3 -3.4 C 0 km/h
1063 15-12-2010 20:30:02 -3.5 C 2.84 g/m*3 -3.5 C 0 km/h
1064 15-12-2010 20:42:02 -3.3 C 2.81 g/m*3 -3.3 C 0 km/h
1065 15-12-2010 20:54:01 -3.3 C 2.77 g/m*3 -3.3 C 0 km/h
1066 15-12-2010 21:06:02 -3.2 C 2.79 g/m*3 -3.2 C 0 km/h
1067 15-12-2010 21:19:03 -3.1 C 2.77 g/m*3 -3.1 C 0 km/h
1068 15-12-2010 21:31:03 -3.1 C 2.77 g/m*3 -3.1 C 0 km/h
1069 15-12-2010 21:43:03 -3.2 C 2.75 g/m*3 -3.2 C 0 km/h
1070 15-12-2010 21:55:03 -3.3 C 2.77 g/m*3 -3.3 C 0 km/h
1071 15-12-2010 22:07:03 -3.3 C 2.81 g/m*3 -3.3 C 0 km/h
1072 15-12-2010 22:19:03 -3.3 C 2.81 g/m*3 -3.3 C 0 km/h
1073 15-12-2010 22:31:03 -3.8 C 2.75 g/m*3 -3.8 C 0 km/h
1074 15-12-2010 22:43:03 -4.5 C 2.65 g/m*3 -4.5 C 0 km/h
1075 15-12-2010 22:55:03 -4 C 2.82 g/m*3 -4 C 0 km/h
Sensor: Nr:Datum:Temp:Abs-Feuchte:Windchill:Wind:
Aussen-T/F 1076 15-12-2010 23:07:03 -4.2 C 2.78 g/m*3 -4.2 C 0 km/h
1077 15-12-2010 23:19:03 -4.5 C 2.75 g/m*3 -4.5 C 0 km/h
1078 15-12-2010 23:31:03 -4.2 C 2.85 g/m*3 -4.2 C 0 km/h
1079 15-12-2010 23:43:03 -5 C 2.66 g/m*3 -5 C 0 km/h
1080 15-12-2010 23:55:03 -4.8 C 2.76 g/m*3 -4.8 C 0 km/h
1081 16-12-2010 00:07:04 -4.8 C 2.8 g/m*3 -4.8 C 0 km/h
1082 16-12-2010 00:19:04 -4.3 C 2.94 g/m*3 -4.3 C 0 km/h
1083 16-12-2010 00:31:04 -4.3 C 2.94 g/m*3 -4.3 C 0 km/h
1084 16-12-2010 00:43:04 -4.8 C 2.83 g/m*3 -4.8 C 0 km/h
1085 16-12-2010 00:55:04 -5.2 C 2.75 g/m*3 -5.2 C 0 km/h
1086 16-12-2010 01:07:04 -5.1 C 2.81 g/m*3 -5.1 C 0 km/h
1087 16-12-2010 01:19:04 -5 C 2.83 g/m*3 -5 C 0 km/h
1088 16-12-2010 01:31:04 -4.6 C 2.94 g/m*3 -4.6 C 0 km/h
1089 16-12-2010 01:43:04 -4.7 C 2.89 g/m*3 -4.7 C 0 km/h
1090 16-12-2010 01:55:04 -4.8 C 2.87 g/m*3 -4.8 C 0 km/h
1091 16-12-2010 02:07:04 -4.8 C 2.87 g/m*3 -4.8 C 0 km/h
1092 16-12-2010 02:19:04 -4.9 C 2.81 g/m*3 -4.9 C 0 km/h
1093 16-12-2010 02:31:04 -5.5 C 2.66 g/m*3 -5.5 C 0 km/h
1094 16-12-2010 02:43:04 -5.8 C 2.64 g/m*3 -5.8 C 0 km/h
1095 16-12-2010 02:55:04 -5.5 C 2.69 g/m*3 -5.5 C 0 km/h
1096 16-12-2010 03:07:04 -5.6 C 2.71 g/m*3 -5.6 C 0 km/h
1097 16-12-2010 03:19:04 -5.3 C 2.77 g/m*3 -5.3 C 0 km/h
1098 16-12-2010 03:31:04 -5.4 C 2.75 g/m*3 -5.4 C 0 km/h
1099 16-12-2010 03:43:04 -5.3 C 2.77 g/m*3 -5.3 C 0 km/h
1100 16-12-2010 03:55:04 -5.2 C 2.79 g/m*3 -5.2 C 0 km/h
Sensor: Nr:Datum:Temp:Abs-Feuchte:Windchill:Wind:
Aussen-T/F 1101 16-12-2010 04:07:05 -5.2 C 2.79 g/m*3 -5.2 C 0 km/h
1102 16-12-2010 04:19:05 -5.3 C 2.73 g/m*3 -5.3 C 0 km/h
1103 16-12-2010 04:31:05 -5.6 C 2.64 g/m*3 -5.6 C 0 km/h
1104 16-12-2010 04:43:05 -5.8 C 2.6 g/m*3 -5.8 C 0 km/h
1105 16-12-2010 04:55:05 -6 C 2.53 g/m*3 -6 C 0 km/h
1106 16-12-2010 05:07:05 -6.1 C 2.48 g/m*3 -6.1 C 0 km/h
1107 16-12-2010 05:19:05 -6.2 C 2.47 g/m*3 -6.2 C 0 km/h
1108 16-12-2010 05:31:05 -6.3 C 2.42 g/m*3 -6.3 C 0 km/h
1109 16-12-2010 05:43:05 -6.5 C 2.38 g/m*3 -6.5 C 0 km/h
1110 16-12-2010 05:55:05 -6.9 C 2.31 g/m*3 -6.9 C 0 km/h
1111 16-12-2010 06:07:05 -7.3 C 2.28 g/m*3 -7.3 C 0 km/h
1112 16-12-2010 06:19:05 -7.4 C 2.29 g/m*3 -7.4 C 0 km/h
1113 16-12-2010 06:31:05 -7.6 C 2.25 g/m*3 -7.6 C 0 km/h
1114 16-12-2010 06:43:05 -7.6 C 2.23 g/m*3 -7.6 C 0 km/h
1115 16-12-2010 06:55:05 -7.8 C 2.19 g/m*3 -7.8 C 0 km/h
1116 16-12-2010 07:07:05 -8.1 C 2.14 g/m*3 -8.1 C 0 km/h
1117 16-12-2010 07:19:05 -7.9 C 2.18 g/m*3 -7.9 C 0 km/h
1118 16-12-2010 07:31:05 -8.1 C 2.14 g/m*3 -8.1 C 0 km/h
1119 16-12-2010 07:43:05 -8.6 C 2.04 g/m*3 -8.6 C 0 km/h
1120 16-12-2010 07:55:02 -8.7 C 2.03 g/m*3 -8.7 C 0 km/h
1121 16-12-2010 08:07:01 -8.8 C 2.04 g/m*3 -8.8 C 0 km/h
1122 16-12-2010 08:19:01 -8.2 C 2.13 g/m*3 -8.2 C 0 km/h
1123 16-12-2010 08:31:02 -7.8 C 2.22 g/m*3 -7.8 C 0 km/h
1124 16-12-2010 08:43:02 -7.5 C 2.24 g/m*3 -7.5 C 0 km/h
1125 16-12-2010 08:55:02 -7 C 2.3 g/m*3 -7 C 0 km/h
Sensor: Nr:Datum:Temp:Abs-Feuchte:Windchill:Wind:
Aussen-T/F 1126 16-12-2010 09:07:01 -6.9 C 2.28 g/m*3 -6.9 C 0 km/h
1127 16-12-2010 09:19:01 -6.8 C 2.27 g/m*3 -6.8 C 0 km/h
1128 16-12-2010 09:31:01 -6.8 C 2.21 g/m*3 -6.8 C 0 km/h
1129 16-12-2010 09:43:01 -6.6 C 2.24 g/m*3 -6.6 C 0 km/h
1130 16-12-2010 09:55:02 -5.9 C 2.3 g/m*3 -5.9 C 0 km/h
1131 16-12-2010 10:07:01 -5.2 C 2.38 g/m*3 -5.2 C 0 km/h
1132 16-12-2010 10:19:01 -5.2 C 2.38 g/m*3 -5.2 C 0 km/h
1133 16-12-2010 10:31:01 -5 C 2.45 g/m*3 -5 C 0 km/h
1134 16-12-2010 10:43:01 -4.7 C 2.51 g/m*3 -4.7 C 0 km/h
1135 16-12-2010 10:55:02 -4.1 C 2.62 g/m*3 -4.1 C 0 km/h
1136 16-12-2010 11:07:02 -3.7 C 2.65 g/m*3 -3.7 C 0 km/h
1137 16-12-2010 11:19:02 -3.5 C 2.65 g/m*3 -3.5 C 0 km/h
1138 16-12-2010 11:31:02 -3.3 C 2.69 g/m*3 -3.3 C 0 km/h
1139 16-12-2010 11:43:02 -3.3 C 2.65 g/m*3 -3.3 C 0 km/h
1140 16-12-2010 11:55:02 -3.3 C 2.61 g/m*3 -3.3 C 0 km/h
1141 16-12-2010 12:07:02 -3.1 C 2.69 g/m*3 -3.1 C 0 km/h
1142 16-12-2010 12:19:02 -3.1 C 2.73 g/m*3 -3.1 C 0 km/h
1143 16-12-2010 12:31:01 -3 C 2.75 g/m*3 -3 C 0 km/h
1144 16-12-2010 12:43:01 -2.6 C 2.87 g/m*3 -2.6 C 0 km/h
1145 16-12-2010 12:55:02 -2.4 C 2.95 g/m*3 -2.4 C 0 km/h
1146 16-12-2010 13:07:02 -2.2 C 2.95 g/m*3 -2.2 C 0 km/h
1147 16-12-2010 13:19:02 -2.2 C 2.95 g/m*3 -2.2 C 0 km/h
1148 16-12-2010 13:31:02 -2.1 C 3.01 g/m*3 -2.1 C 0 km/h
1149 16-12-2010 13:43:02 -2.1 C 3.01 g/m*3 -2.1 C 0 km/h
1150 16-12-2010 13:55:02 -2 C 3.03 g/m*3 -2 C 0 km/h
Sensor: Nr:Datum:Temp:Abs-Feuchte:Windchill:Wind:
Aussen-T/F 1151 16-12-2010 14:07:02 -1.9 C 3.1 g/m*3 -1.9 C 0 km/h
1152 16-12-2010 14:19:01 -1.9 C 3.14 g/m*3 -1.9 C 0 km/h
1153 16-12-2010 14:31:02 -1.8 C 3.21 g/m*3 -1.8 C 0 km/h
1154 16-12-2010 14:43:02 -1.6 C 3.25 g/m*3 -1.6 C 0 km/h
1155 16-12-2010 14:55:02 -1.4 C 3.3 g/m*3 -1.4 C 0 km/h
1156 16-12-2010 15:07:02 -1.5 C 3.32 g/m*3 -1.5 C 0 km/h
1157 16-12-2010 15:19:01 -1.5 C 3.45 g/m*3 -1.5 C 0 km/h
1158 16-12-2010 15:31:02 -1.5 C 3.49 g/m*3 -1.5 C 0 km/h
1159 16-12-2010 15:43:02 -1.2 C 3.52 g/m*3 -1.2 C 0 km/h
1160 16-12-2010 15:55:02 -1.3 C 3.45 g/m*3 -1.3 C 0 km/h
1161 16-12-2010 16:07:02 -1.4 C 3.43 g/m*3 -1.4 C 0 km/h
1162 16-12-2010 16:19:02 -1.5 C 3.41 g/m*3 -1.5 C 0 km/h
1163 16-12-2010 16:31:02 -1.4 C 3.39 g/m*3 -1.4 C 0 km/h
1164 16-12-2010 16:43:02 -1.1 C 3.46 g/m*3 -1.1 C 0 km/h
1165 16-12-2010 16:55:01 -1.1 C 3.46 g/m*3 -1.1 C 0 km/h
1166 16-12-2010 17:07:02 -1.4 C 3.43 g/m*3 -1.4 C 0 km/h
1167 16-12-2010 17:19:02 -1.4 C 3.43 g/m*3 -1.4 C 0 km/h
1168 16-12-2010 17:31:02 -1.2 C 3.48 g/m*3 -1.2 C 0 km/h
1169 16-12-2010 17:43:02 -1.2 C 3.48 g/m*3 -1.2 C 0 km/h
1170 16-12-2010 17:55:02 -1.1 C 3.55 g/m*3 -1.1 C 0 km/h
1171 16-12-2010 18:07:01 -0.9 C 3.6 g/m*3 -0.9 C 0 km/h
1172 16-12-2010 18:19:02 -0.7 C 3.65 g/m*3 -0.7 C 0 km/h
1173 16-12-2010 18:31:02 -0.6 C 3.63 g/m*3 -0.6 C 0 km/h
1174 16-12-2010 18:43:02 -0.6 C 3.58 g/m*3 -0.6 C 0 km/h
1175 16-12-2010 18:55:01 -0.7 C 3.6 g/m*3 -0.7 C 0 km/h
Sensor: Nr:Datum:Temp:Abs-Feuchte:Windchill:Wind:
Aussen-T/F 1176 16-12-2010 19:07:01 -0.4 C 3.68 g/m*3 -0.4 C 0 km/h
1177 16-12-2010 19:19:01 -0.5 C 3.6 g/m*3 -0.5 C 0 km/h
1178 16-12-2010 19:31:02 -0.2 C 3.73 g/m*3 -0.2 C 0 km/h
1179 16-12-2010 19:43:02 -0.3 C 3.65 g/m*3 -0.3 C 0 km/h
1180 16-12-2010 19:55:02 0 C 3.68 g/m*3 0 C 0 km/h
1181 16-12-2010 20:07:02 0 C 3.68 g/m*3 0 C 0 km/h
1182 16-12-2010 20:19:01 0 C 3.68 g/m*3 0 C 0 km/h
1183 16-12-2010 20:31:02 0 C 3.68 g/m*3 0 C 0 km/h
1184 16-12-2010 20:43:02 0 C 3.68 g/m*3 0 C 0 km/h
1185 16-12-2010 20:55:02 0.1 C 3.71 g/m*3 0.1 C 0 km/h
1186 16-12-2010 21:08:03 0 C 3.73 g/m*3 0 C 0 km/h
1187 16-12-2010 21:20:03 -0.2 C 3.78 g/m*3 -0.2 C 0 km/h
1188 16-12-2010 21:32:03 -0.2 C 3.78 g/m*3 -0.2 C 0 km/h
1189 16-12-2010 21:44:03 -0.1 C 3.85 g/m*3 -0.1 C 0 km/h
1190 16-12-2010 21:56:03 -0.1 C 3.8 g/m*3 -0.1 C 0 km/h
1191 16-12-2010 22:08:03 -0.1 C 3.85 g/m*3 -0.1 C 0 km/h
1192 16-12-2010 22:20:03 -0.2 C 3.87 g/m*3 -0.2 C 0 km/h
1193 16-12-2010 22:32:03 -0.3 C 3.89 g/m*3 -0.3 C 0 km/h
1194 16-12-2010 22:44:03 -0.5 C 3.88 g/m*3 -0.5 C 0 km/h
1195 16-12-2010 22:56:03 -0.6 C 3.9 g/m*3 -0.6 C 0 km/h
1196 16-12-2010 23:08:03 -0.5 C 3.93 g/m*3 -0.5 C 0 km/h
1197 16-12-2010 23:20:03 -0.4 C 3.86 g/m*3 -0.4 C 0 km/h
1198 16-12-2010 23:32:03 -0.5 C 3.79 g/m*3 -0.5 C 0 km/h
1199 16-12-2010 23:44:03 -0.4 C 3.82 g/m*3 -0.4 C 0 km/h
1200 16-12-2010 23:56:03 -0.5 C 3.79 g/m*3 -0.5 C 0 km/h
Sensor: Nr:Datum:Temp:Abs-Feuchte:Windchill:Wind:
Aussen-T/F 1201 17-12-2010 00:08:03 -0.5 C 3.79 g/m*3 -0.5 C 0 km/h
1202 17-12-2010 00:20:03 -0.3 C 3.84 g/m*3 -0.3 C 0 km/h
1203 17-12-2010 00:32:03 -0.3 C 3.84 g/m*3 -0.3 C 0 km/h
1204 17-12-2010 00:44:03 -0.1 C 3.9 g/m*3 -0.1 C 0 km/h
1205 17-12-2010 00:56:04 -0.2 C 3.87 g/m*3 -0.2 C 0 km/h
1206 17-12-2010 01:08:04 -0.2 C 3.87 g/m*3 -0.2 C 0 km/h
1207 17-12-2010 01:20:04 -0.3 C 3.89 g/m*3 -0.3 C 0 km/h
1208 17-12-2010 01:32:04 -0.4 C 3.86 g/m*3 -0.4 C 0 km/h
1209 17-12-2010 01:44:04 -0.4 C 3.91 g/m*3 -0.4 C 0 km/h
1210 17-12-2010 01:56:04 -0.4 C 3.86 g/m*3 -0.4 C 0 km/h
1211 17-12-2010 02:08:04 -0.5 C 3.79 g/m*3 -0.5 C 0 km/h
1212 17-12-2010 02:20:04 -0.5 C 3.7 g/m*3 -0.5 C 0 km/h
1213 17-12-2010 02:32:04 -0.6 C 3.58 g/m*3 -0.6 C 0 km/h
1214 17-12-2010 02:44:04 -0.6 C 3.53 g/m*3 -0.6 C 0 km/h
1215 17-12-2010 02:56:04 -0.7 C 3.51 g/m*3 -0.7 C 0 km/h
1216 17-12-2010 03:08:04 -1.1 C 3.37 g/m*3 -1.1 C 0 km/h
1217 17-12-2010 03:20:04 -1.3 C 3.36 g/m*3 -1.3 C 0 km/h
1218 17-12-2010 03:32:04 -1.2 C 3.39 g/m*3 -1.2 C 0 km/h
1219 17-12-2010 03:44:04 -1.2 C 3.34 g/m*3 -1.2 C 0 km/h
1220 17-12-2010 03:56:04 -1.2 C 3.34 g/m*3 -1.2 C 0 km/h
1221 17-12-2010 04:08:04 -1.1 C 3.23 g/m*3 -1.1 C 0 km/h
1222 17-12-2010 04:20:04 -1.2 C 3.12 g/m*3 -1.2 C 0 km/h
1223 17-12-2010 04:32:04 -1.3 C 3.14 g/m*3 -1.3 C 0 km/h
1224 17-12-2010 04:44:04 -1.3 C 3.14 g/m*3 -1.3 C 0 km/h
1225 17-12-2010 04:56:04 -1.5 C 3.14 g/m*3 -1.5 C 0 km/h
Sensor: Nr:Datum:Temp:Abs-Feuchte:Windchill:Wind:
Aussen-T/F 1226 17-12-2010 05:08:05 -1.3 C 3.28 g/m*3 -1.3 C 0 km/h
1227 17-12-2010 05:20:05 -1.5 C 3.27 g/m*3 -1.5 C 0 km/h
1228 17-12-2010 05:32:05 -1.7 C 3.27 g/m*3 -1.7 C 0 km/h
1229 17-12-2010 05:44:05 -1.8 C 3.25 g/m*3 -1.8 C 0 km/h
1230 17-12-2010 05:56:05 -1.8 C 3.21 g/m*3 -1.8 C 0 km/h
1231 17-12-2010 06:08:05 -1.9 C 3.14 g/m*3 -1.9 C 0 km/h
1232 17-12-2010 06:20:05 -2.2 C 3.08 g/m*3 -2.2 C 0 km/h
1233 17-12-2010 06:32:05 -2.3 C 3.01 g/m*3 -2.3 C 0 km/h
1234 17-12-2010 06:44:05 -2.6 C 2.83 g/m*3 -2.6 C 0 km/h
1235 17-12-2010 06:56:05 -2.2 C 2.78 g/m*3 -2.2 C 0 km/h
1236 17-12-2010 07:08:05 -2.2 C 2.62 g/m*3 -2.2 C 0 km/h
1237 17-12-2010 07:20:04 -2.1 C 2.64 g/m*3 -2.1 C 0 km/h
1238 17-12-2010 07:32:03 -2.3 C 2.64 g/m*3 -2.3 C 0 km/h
1239 17-12-2010 07:44:03 -2.6 C 2.63 g/m*3 -2.6 C 0 km/h
1240 17-12-2010 07:56:02 -2.2 C 2.74 g/m*3 -2.2 C 0 km/h
1241 17-12-2010 08:08:02 -2.4 C 2.83 g/m*3 -2.4 C 0 km/h
1242 17-12-2010 08:20:02 -2.4 C 2.99 g/m*3 -2.4 C 0 km/h
1243 17-12-2010 08:32:02 -2.1 C 3.1 g/m*3 -2.1 C 0 km/h
1244 17-12-2010 08:44:02 -2.1 C 3.06 g/m*3 -2.1 C 0 km/h
1245 17-12-2010 08:56:02 -2.1 C 3.01 g/m*3 -2.1 C 0 km/h
1246 17-12-2010 09:08:01 -2 C 2.95 g/m*3 -2 C 0 km/h
1247 17-12-2010 09:20:02 -2 C 2.95 g/m*3 -2 C 0 km/h
1248 17-12-2010 09:32:02 -1.9 C 3.01 g/m*3 -1.9 C 0 km/h
1249 17-12-2010 09:44:02 -1.8 C 3.08 g/m*3 -1.8 C 0 km/h
1250 17-12-2010 09:56:02 -1.9 C 3.06 g/m*3 -1.9 C 0 km/h
Sensor: Nr:Datum:Temp:Abs-Feuchte:Windchill:Wind:
Aussen-T/F 1251 17-12-2010 10:08:02 -1.9 C 3.01 g/m*3 -1.9 C 0 km/h
1252 17-12-2010 10:20:02 -1.8 C 2.95 g/m*3 -1.8 C 0 km/h
1253 17-12-2010 10:32:02 -1.7 C 2.88 g/m*3 -1.7 C 0 km/h
1254 17-12-2010 10:44:02 -1.8 C 2.86 g/m*3 -1.8 C 0 km/h
1255 17-12-2010 10:56:01 -1.1 C 3.05 g/m*3 -1.1 C 0 km/h
1256 17-12-2010 11:08:01 -1.5 C 2.92 g/m*3 -1.5 C 0 km/h
1257 17-12-2010 11:20:01 -1.4 C 2.86 g/m*3 -1.4 C 0 km/h
1258 17-12-2010 11:32:01 -1.1 C 2.78 g/m*3 -1.1 C 0 km/h
1259 17-12-2010 11:44:01 -1.1 C 2.56 g/m*3 -1.1 C 0 km/h
1260 17-12-2010 11:56:01 -0.9 C 2.55 g/m*3 -0.9 C 0 km/h
1261 17-12-2010 12:08:01 -0.6 C 2.6 g/m*3 -0.6 C 0 km/h
1262 17-12-2010 12:20:02 -1.2 C 2.54 g/m*3 -1.2 C 0 km/h
1263 17-12-2010 12:32:01 -1.4 C 2.51 g/m*3 -1.4 C 0 km/h
1264 17-12-2010 12:44:01 -1.2 C 2.54 g/m*3 -1.2 C 0 km/h
1265 17-12-2010 12:56:03 -1.3 C 2.43 g/m*3 -1.3 C 0 km/h
1266 17-12-2010 13:08:02 -1.9 C 2.38 g/m*3 -1.9 C 0 km/h
1267 17-12-2010 13:20:02 -1 C 2.44 g/m*3 -1 C 0 km/h
1268 17-12-2010 13:32:02 -1 C 2.44 g/m*3 -1 C 0 km/h
1269 17-12-2010 13:44:02 -1 C 2.44 g/m*3 -1 C 0 km/h
1270 17-12-2010 13:56:02 -1.2 C 2.45 g/m*3 -1.2 C 0 km/h
1271 17-12-2010 14:08:01 -0.6 C 2.56 g/m*3 -0.6 C 0 km/h
1272 17-12-2010 14:20:02 -1.1 C 2.51 g/m*3 -1.1 C 0 km/h
1273 17-12-2010 14:32:02 -1.6 C 2.6 g/m*3 -1.6 C 0 km/h
1274 17-12-2010 14:44:02 -1.8 C 2.74 g/m*3 -1.8 C 0 km/h
1275 17-12-2010 14:56:02 -1.9 C 2.84 g/m*3 -1.9 C 0 km/h
Sensor: Nr:Datum:Temp:Abs-Feuchte:Windchill:Wind:
Aussen-T/F 1276 17-12-2010 15:08:03 -1.9 C 2.93 g/m*3 -1.9 C 0 km/h
1277 17-12-2010 15:20:02 -1.8 C 2.99 g/m*3 -1.8 C 0 km/h
1278 17-12-2010 15:32:02 -1.7 C 2.97 g/m*3 -1.7 C 0 km/h
1279 17-12-2010 15:44:03 -1.9 C 2.97 g/m*3 -1.9 C 0 km/h
1280 17-12-2010 15:56:01 -1.8 C 3.04 g/m*3 -1.8 C 0 km/h
1281 17-12-2010 16:08:02 -1.8 C 3.04 g/m*3 -1.8 C 0 km/h
1282 17-12-2010 16:20:01 -1.9 C 3.01 g/m*3 -1.9 C 0 km/h
1283 17-12-2010 16:32:01 -2.1 C 3.01 g/m*3 -2.1 C 0 km/h
1284 17-12-2010 16:44:01 -2 C 3.03 g/m*3 -2 C 0 km/h
1285 17-12-2010 16:56:01 -2.6 C 2.91 g/m*3 -2.6 C 0 km/h
1286 17-12-2010 17:08:01 -3.4 C 2.83 g/m*3 -3.4 C 0 km/h
1287 17-12-2010 17:20:01 -4.3 C 2.72 g/m*3 -4.3 C 0 km/h
1288 17-12-2010 17:32:01 -4.2 C 2.81 g/m*3 -4.2 C 0 km/h
1289 17-12-2010 17:44:01 -4.1 C 2.83 g/m*3 -4.1 C 0 km/h
1290 17-12-2010 17:56:01 -4.3 C 2.79 g/m*3 -4.3 C 0 km/h
1291 17-12-2010 18:08:02 -4.6 C 2.77 g/m*3 -4.6 C 0 km/h
1292 17-12-2010 18:20:01 -4.8 C 2.76 g/m*3 -4.8 C 0 km/h
1293 17-12-2010 18:32:01 -5.6 C 2.61 g/m*3 -5.6 C 0 km/h
1294 17-12-2010 18:44:01 -5.8 C 2.6 g/m*3 -5.8 C 0 km/h
1295 17-12-2010 18:56:01 -5.3 C 2.73 g/m*3 -5.3 C 0 km/h
1296 17-12-2010 19:08:02 -6.2 C 2.53 g/m*3 -6.2 C 0 km/h
1297 17-12-2010 19:20:02 -6.5 C 2.5 g/m*3 -6.5 C 0 km/h
1298 17-12-2010 19:32:01 -6.1 C 2.61 g/m*3 -6.1 C 0 km/h
1299 17-12-2010 19:44:01 -6.7 C 2.47 g/m*3 -6.7 C 0 km/h
1300 17-12-2010 19:56:01 -6.9 C 2.43 g/m*3 -6.9 C 0 km/h
Sensor: Nr:Datum:Temp:Abs-Feuchte:Windchill:Wind:
Aussen-T/F 1301 17-12-2010 20:08:02 -6.6 C 2.52 g/m*3 -6.6 C 0 km/h
1302 17-12-2010 20:20:01 -6.6 C 2.52 g/m*3 -6.6 C 0 km/h
1303 17-12-2010 20:32:02 -6.6 C 2.52 g/m*3 -6.6 C 0 km/h
1304 17-12-2010 20:44:02 -6.5 C 2.53 g/m*3 -6.5 C 0 km/h
1305 17-12-2010 20:56:02 -6.6 C 2.52 g/m*3 -6.6 C 0 km/h
1306 17-12-2010 21:08:02 -6.8 C 2.48 g/m*3 -6.8 C 0 km/h
1307 17-12-2010 21:20:02 -6.8 C 2.48 g/m*3 -6.8 C 0 km/h
1308 17-12-2010 21:32:02 -7 C 2.41 g/m*3 -7 C 0 km/h
1309 17-12-2010 21:44:02 -7.1 C 2.4 g/m*3 -7.1 C 0 km/h
1310 17-12-2010 21:57:02 -7 C 2.41 g/m*3 -7 C 0 km/h
1311 17-12-2010 22:09:02 -7.3 C 2.36 g/m*3 -7.3 C 0 km/h
1312 17-12-2010 22:21:02 -7.4 C 2.34 g/m*3 -7.4 C 0 km/h
1313 17-12-2010 22:33:02 -7.2 C 2.38 g/m*3 -7.2 C 0 km/h
1314 17-12-2010 22:45:02 -6.6 C 2.52 g/m*3 -6.6 C 0 km/h
1315 17-12-2010 22:57:02 -6.1 C 2.61 g/m*3 -6.1 C 0 km/h
1316 17-12-2010 23:09:02 -6.2 C 2.59 g/m*3 -6.2 C 0 km/h
1317 17-12-2010 23:21:02 -6 C 2.63 g/m*3 -6 C 0 km/h
1318 17-12-2010 23:33:02 -6 C 2.63 g/m*3 -6 C 0 km/h
1319 17-12-2010 23:45:02 -5.8 C 2.7 g/m*3 -5.8 C 0 km/h
1320 17-12-2010 23:57:03 -5.5 C 2.76 g/m*3 -5.5 C 0 km/h
1321 18-12-2010 00:09:03 -5.2 C 2.82 g/m*3 -5.2 C 0 km/h
1322 18-12-2010 00:21:03 -4.9 C 2.92 g/m*3 -4.9 C 0 km/h
1323 18-12-2010 00:33:03 -4.7 C 2.96 g/m*3 -4.7 C 0 km/h
1324 18-12-2010 00:45:03 -4.5 C 3 g/m*3 -4.5 C 0 km/h
1325 18-12-2010 00:57:03 -4.4 C 2.99 g/m*3 -4.4 C 0 km/h
Sensor: Nr:Datum:Temp:Abs-Feuchte:Windchill:Wind:
Aussen-T/F 1326 18-12-2010 01:09:03 -4.3 C 2.97 g/m*3 -4.3 C 0 km/h
1327 18-12-2010 01:21:03 -4.3 C 2.94 g/m*3 -4.3 C 0 km/h
1328 18-12-2010 01:33:03 -4.2 C 2.96 g/m*3 -4.2 C 0 km/h
1329 18-12-2010 01:45:03 -4.6 C 2.84 g/m*3 -4.6 C 0 km/h
1330 18-12-2010 01:57:03 -4.8 C 2.8 g/m*3 -4.8 C 0 km/h
1331 18-12-2010 02:09:03 -5.2 C 2.68 g/m*3 -5.2 C 0 km/h
1332 18-12-2010 02:21:03 -5.9 C 2.55 g/m*3 -5.9 C 0 km/h
1333 18-12-2010 02:33:03 -5.4 C 2.68 g/m*3 -5.4 C 0 km/h
1334 18-12-2010 02:45:03 -5.3 C 2.73 g/m*3 -5.3 C 0 km/h
1335 18-12-2010 02:57:03 -4.6 C 2.84 g/m*3 -4.6 C 0 km/h
1336 18-12-2010 03:09:03 -4.5 C 2.82 g/m*3 -4.5 C 0 km/h
1337 18-12-2010 03:21:03 -4.4 C 2.84 g/m*3 -4.4 C 0 km/h
1338 18-12-2010 03:33:03 -4.3 C 2.86 g/m*3 -4.3 C 0 km/h
1339 18-12-2010 03:45:03 -4.3 C 2.9 g/m*3 -4.3 C 0 km/h
1340 18-12-2010 03:57:03 -4.3 C 2.94 g/m*3 -4.3 C 0 km/h
1341 18-12-2010 04:09:03 -4.4 C 2.92 g/m*3 -4.4 C 0 km/h
1342 18-12-2010 04:21:04 -4.4 C 2.92 g/m*3 -4.4 C 0 km/h
1343 18-12-2010 04:33:04 -4.3 C 2.97 g/m*3 -4.3 C 0 km/h
1344 18-12-2010 04:45:04 -4.4 C 2.95 g/m*3 -4.4 C 0 km/h
1345 18-12-2010 04:57:04 -4.3 C 2.97 g/m*3 -4.3 C 0 km/h
1346 18-12-2010 05:09:04 -4.4 C 2.99 g/m*3 -4.4 C 0 km/h
1347 18-12-2010 05:21:04 -4.4 C 2.99 g/m*3 -4.4 C 0 km/h
1348 18-12-2010 05:33:04 -4.5 C 2.96 g/m*3 -4.5 C 0 km/h
1349 18-12-2010 05:45:04 -4.4 C 2.99 g/m*3 -4.4 C 0 km/h
1350 18-12-2010 05:57:04 -4.5 C 2.96 g/m*3 -4.5 C 0 km/h
Sensor: Nr:Datum:Temp:Abs-Feuchte:Windchill:Wind:
Aussen-T/F 1351 18-12-2010 06:09:04 -4.4 C 2.99 g/m*3 -4.4 C 0 km/h
1352 18-12-2010 06:21:04 -4.4 C 2.99 g/m*3 -4.4 C 0 km/h
1353 18-12-2010 06:33:04 -4.4 C 2.99 g/m*3 -4.4 C 0 km/h
1354 18-12-2010 06:45:04 -4.3 C 3.01 g/m*3 -4.3 C 0 km/h
1355 18-12-2010 06:57:04 -4.2 C 3.07 g/m*3 -4.2 C 0 km/h
1356 18-12-2010 07:09:04 -4.2 C 3.07 g/m*3 -4.2 C 0 km/h
1357 18-12-2010 07:21:04 -4.8 C 2.9 g/m*3 -4.8 C 0 km/h
1358 18-12-2010 07:33:04 -5.4 C 2.78 g/m*3 -5.4 C 0 km/h
1359 18-12-2010 07:45:04 -6.2 C 2.62 g/m*3 -6.2 C 0 km/h
1360 18-12-2010 07:57:04 -5.7 C 2.72 g/m*3 -5.7 C 0 km/h
1361 18-12-2010 08:09:04 -5.3 C 2.83 g/m*3 -5.3 C 0 km/h
1362 18-12-2010 08:21:04 -5.3 C 2.83 g/m*3 -5.3 C 0 km/h
1363 18-12-2010 08:33:04 -5.5 C 2.76 g/m*3 -5.5 C 0 km/h
1364 18-12-2010 08:45:05 -5.4 C 2.78 g/m*3 -5.4 C 0 km/h
1365 18-12-2010 08:57:05 -5.2 C 2.79 g/m*3 -5.2 C 0 km/h
1366 18-12-2010 09:09:02 -5.2 C 2.75 g/m*3 -5.2 C 0 km/h
1367 18-12-2010 09:21:02 -5.1 C 2.74 g/m*3 -5.1 C 0 km/h
1368 18-12-2010 09:33:02 -4.9 C 2.71 g/m*3 -4.9 C 0 km/h
1369 18-12-2010 09:45:02 -4.6 C 2.73 g/m*3 -4.6 C 0 km/h
1370 18-12-2010 09:57:02 -4.4 C 2.7 g/m*3 -4.4 C 0 km/h
1371 18-12-2010 10:09:02 -4.2 C 2.67 g/m*3 -4.2 C 0 km/h
1372 18-12-2010 10:21:02 -4.1 C 2.65 g/m*3 -4.1 C 0 km/h
1373 18-12-2010 10:33:02 -3.8 C 2.71 g/m*3 -3.8 C 0 km/h
1374 18-12-2010 10:45:02 -3.5 C 2.73 g/m*3 -3.5 C 0 km/h
1375 18-12-2010 10:57:02 -3.5 C 2.65 g/m*3 -3.5 C 0 km/h
Sensor: Nr:Datum:Temp:Abs-Feuchte:Windchill:Wind:
Aussen-T/F 1376 18-12-2010 11:09:03 -3.5 C 2.62 g/m*3 -3.5 C 0 km/h
1377 18-12-2010 11:21:02 -3.9 C 2.62 g/m*3 -3.9 C 0 km/h
1378 18-12-2010 11:33:02 -3.5 C 2.69 g/m*3 -3.5 C 0 km/h
1379 18-12-2010 11:45:01 -3.2 C 2.59 g/m*3 -3.2 C 0 km/h
1380 18-12-2010 11:57:01 -3.3 C 2.42 g/m*3 -3.3 C 0 km/h
1381 18-12-2010 12:09:02 -3.6 C 2.41 g/m*3 -3.6 C 0 km/h
1382 18-12-2010 12:21:01 -3.8 C 2.49 g/m*3 -3.8 C 0 km/h
1383 18-12-2010 12:33:01 -3.3 C 2.5 g/m*3 -3.3 C 0 km/h
1384 18-12-2010 12:45:01 -2.9 C 2.49 g/m*3 -2.9 C 0 km/h
1385 18-12-2010 12:57:01 -2.8 C 2.43 g/m*3 -2.8 C 0 km/h
1386 18-12-2010 13:09:01 -3 C 2.36 g/m*3 -3 C 0 km/h
1387 18-12-2010 13:21:02 -3.2 C 2.32 g/m*3 -3.2 C 0 km/h
1388 18-12-2010 13:33:01 -3 C 2.36 g/m*3 -3 C 0 km/h
1389 18-12-2010 13:45:03 -2.8 C 2.39 g/m*3 -2.8 C 0 km/h
1390 18-12-2010 13:57:03 -2.8 C 2.39 g/m*3 -2.8 C 0 km/h
1391 18-12-2010 14:09:02 -3.3 C 2.35 g/m*3 -3.3 C 0 km/h
1392 18-12-2010 14:21:02 -3.2 C 2.32 g/m*3 -3.2 C 0 km/h
1393 18-12-2010 14:33:02 -3.7 C 2.28 g/m*3 -3.7 C 0 km/h
1394 18-12-2010 14:45:02 -4.2 C 2.27 g/m*3 -4.2 C 0 km/h
1395 18-12-2010 14:57:02 -4.8 C 2.25 g/m*3 -4.8 C 0 km/h
1396 18-12-2010 15:09:01 -4.7 C 2.3 g/m*3 -4.7 C 0 km/h
1397 18-12-2010 15:21:02 -5.1 C 2.3 g/m*3 -5.1 C 0 km/h
1398 18-12-2010 15:33:02 -5.6 C 2.28 g/m*3 -5.6 C 0 km/h
1399 18-12-2010 15:45:02 -5.9 C 2.33 g/m*3 -5.9 C 0 km/h
1400 18-12-2010 15:57:02 -6.1 C 2.33 g/m*3 -6.1 C 0 km/h
Sensor: Nr:Datum:Temp:Abs-Feuchte:Windchill:Wind:
Aussen-T/F 1401 18-12-2010 16:09:03 -6.6 C 2.3 g/m*3 -6.6 C 0 km/h
1402 18-12-2010 16:21:02 -6.9 C 2.25 g/m*3 -6.9 C 0 km/h
1403 18-12-2010 16:33:02 -7 C 2.3 g/m*3 -7 C 0 km/h
1404 18-12-2010 16:45:01 -7.5 C 2.24 g/m*3 -7.5 C 0 km/h
1405 18-12-2010 16:57:01 -7.3 C 2.28 g/m*3 -7.3 C 0 km/h
1406 18-12-2010 17:09:02 -7.6 C 2.25 g/m*3 -7.6 C 0 km/h
1407 18-12-2010 17:21:01 -7.7 C 2.24 g/m*3 -7.7 C 0 km/h
1408 18-12-2010 17:33:01 -7.9 C 2.23 g/m*3 -7.9 C 0 km/h
1409 18-12-2010 17:45:01 -7.3 C 2.36 g/m*3 -7.3 C 0 km/h
1410 18-12-2010 17:57:01 -7.3 C 2.36 g/m*3 -7.3 C 0 km/h
1411 18-12-2010 18:09:01 -6.7 C 2.5 g/m*3 -6.7 C 0 km/h
1412 18-12-2010 18:21:02 -6.8 C 2.48 g/m*3 -6.8 C 0 km/h
1413 18-12-2010 18:33:01 -6.9 C 2.43 g/m*3 -6.9 C 0 km/h
1414 18-12-2010 18:45:02 -6.8 C 2.45 g/m*3 -6.8 C 0 km/h
1415 18-12-2010 18:57:02 -6.5 C 2.53 g/m*3 -6.5 C 0 km/h
1416 18-12-2010 19:09:01 -5.8 C 2.7 g/m*3 -5.8 C 0 km/h
1417 18-12-2010 19:21:02 -5.4 C 2.78 g/m*3 -5.4 C 0 km/h
1418 18-12-2010 19:33:01 -5.4 C 2.78 g/m*3 -5.4 C 0 km/h
1419 18-12-2010 19:45:02 -5.2 C 2.82 g/m*3 -5.2 C 0 km/h
1420 18-12-2010 19:57:02 -4.9 C 2.88 g/m*3 -4.9 C 0 km/h
1421 18-12-2010 20:09:02 -4.6 C 2.94 g/m*3 -4.6 C 0 km/h
1422 18-12-2010 20:21:02 -4.4 C 2.99 g/m*3 -4.4 C 0 km/h
1423 18-12-2010 20:33:02 -4.2 C 2.99 g/m*3 -4.2 C 0 km/h
1424 18-12-2010 20:45:01 -4.4 C 2.95 g/m*3 -4.4 C 0 km/h
1425 18-12-2010 20:57:01 -4.2 C 2.99 g/m*3 -4.2 C 0 km/h
Sensor: Nr:Datum:Temp:Abs-Feuchte:Windchill:Wind:
Aussen-T/F 1426 18-12-2010 21:09:02 -4.1 C 3.01 g/m*3 -4.1 C 0 km/h
1427 18-12-2010 21:21:01 -4.1 C 3.01 g/m*3 -4.1 C 0 km/h
1428 18-12-2010 21:33:02 -3.9 C 3.06 g/m*3 -3.9 C 0 km/h
1429 18-12-2010 21:46:03 -4 C 3.04 g/m*3 -4 C 0 km/h
1430 18-12-2010 21:58:03 -3.8 C 3.12 g/m*3 -3.8 C 0 km/h
1431 18-12-2010 22:10:03 -3.5 C 3.18 g/m*3 -3.5 C 0 km/h
1432 18-12-2010 22:22:03 -3.5 C 3.18 g/m*3 -3.5 C 0 km/h
1433 18-12-2010 22:34:03 -3.4 C 3.21 g/m*3 -3.4 C 0 km/h
1434 18-12-2010 22:46:03 -3.4 C 3.21 g/m*3 -3.4 C 0 km/h
1435 18-12-2010 22:58:03 -3.3 C 3.23 g/m*3 -3.3 C 0 km/h
1436 18-12-2010 23:10:03 -3.2 C 3.25 g/m*3 -3.2 C 0 km/h
1437 18-12-2010 23:22:03 -3.1 C 3.28 g/m*3 -3.1 C 0 km/h
1438 18-12-2010 23:34:03 -3.1 C 3.28 g/m*3 -3.1 C 0 km/h
1439 18-12-2010 23:46:03 -3.1 C 3.28 g/m*3 -3.1 C 0 km/h
1440 18-12-2010 23:58:03 -2.9 C 3.32 g/m*3 -2.9 C 0 km/h
1441 19-12-2010 00:10:03 -2.7 C 3.37 g/m*3 -2.7 C 0 km/h
1442 19-12-2010 00:22:03 -2.7 C 3.37 g/m*3 -2.7 C 0 km/h
1443 19-12-2010 00:34:04 -2.6 C 3.39 g/m*3 -2.6 C 0 km/h
1444 19-12-2010 00:46:04 -2.4 C 3.44 g/m*3 -2.4 C 0 km/h
1445 19-12-2010 00:58:04 -2.4 C 3.48 g/m*3 -2.4 C 0 km/h
1446 19-12-2010 01:10:04 -2.4 C 3.52 g/m*3 -2.4 C 0 km/h
1447 19-12-2010 01:22:04 -2.4 C 3.52 g/m*3 -2.4 C 0 km/h
1448 19-12-2010 01:34:04 -2.4 C 3.52 g/m*3 -2.4 C 0 km/h
1449 19-12-2010 01:46:04 -2.5 C 3.54 g/m*3 -2.5 C 0 km/h
1450 19-12-2010 01:58:04 -2.5 C 3.54 g/m*3 -2.5 C 0 km/h
Sensor: Nr:Datum:Temp:Abs-Feuchte:Windchill:Wind:
Aussen-T/F 1451 19-12-2010 02:10:04 -2.4 C 3.57 g/m*3 -2.4 C 0 km/h
1452 19-12-2010 02:22:04 -2.5 C 3.54 g/m*3 -2.5 C 0 km/h
1453 19-12-2010 02:34:04 -2.5 C 3.54 g/m*3 -2.5 C 0 km/h
1454 19-12-2010 02:46:04 -2.5 C 3.54 g/m*3 -2.5 C 0 km/h
1455 19-12-2010 02:58:04 -2.6 C 3.52 g/m*3 -2.6 C 0 km/h
1456 19-12-2010 03:10:04 -2.7 C 3.49 g/m*3 -2.7 C 0 km/h
1457 19-12-2010 03:22:04 -2.7 C 3.49 g/m*3 -2.7 C 0 km/h
1458 19-12-2010 03:34:04 -2.7 C 3.49 g/m*3 -2.7 C 0 km/h
1459 19-12-2010 03:46:04 -2.7 C 3.49 g/m*3 -2.7 C 0 km/h
1460 19-12-2010 03:58:04 -2.7 C 3.49 g/m*3 -2.7 C 0 km/h
1461 19-12-2010 04:10:04 -2.6 C 3.52 g/m*3 -2.6 C 0 km/h
1462 19-12-2010 04:22:04 -2.5 C 3.54 g/m*3 -2.5 C 0 km/h
1463 19-12-2010 04:34:04 -2.5 C 3.54 g/m*3 -2.5 C 0 km/h
1464 19-12-2010 04:46:04 -2.4 C 3.57 g/m*3 -2.4 C 0 km/h
1465 19-12-2010 04:58:05 -2.3 C 3.59 g/m*3 -2.3 C 0 km/h
1466 19-12-2010 05:10:05 -1.6 C 3.77 g/m*3 -1.6 C 0 km/h
1467 19-12-2010 05:22:05 -1.1 C 3.82 g/m*3 -1.1 C 0 km/h
1468 19-12-2010 05:34:05 -0.9 C 3.69 g/m*3 -0.9 C 0 km/h
1469 19-12-2010 05:46:05 -0.6 C 3.58 g/m*3 -0.6 C 0 km/h
1470 19-12-2010 05:58:05 -0.9 C 3.46 g/m*3 -0.9 C 0 km/h
1471 19-12-2010 06:10:05 -1.1 C 3.41 g/m*3 -1.1 C 0 km/h
1472 19-12-2010 06:22:05 -1.4 C 3.3 g/m*3 -1.4 C 0 km/h
1473 19-12-2010 06:34:05 -1.4 C 3.25 g/m*3 -1.4 C 0 km/h
1474 19-12-2010 06:46:05 -1.7 C 3.19 g/m*3 -1.7 C 0 km/h
1475 19-12-2010 06:58:05 -2.6 C 3.07 g/m*3 -2.6 C 0 km/h
Sensor: Nr:Datum:Temp:Abs-Feuchte:Windchill:Wind:
Aussen-T/F 1476 19-12-2010 07:10:05 -2.8 C 3.03 g/m*3 -2.8 C 0 km/h
1477 19-12-2010 07:22:05 -3.3 C 3.04 g/m*3 -3.3 C 0 km/h
1478 19-12-2010 07:34:05 -2.7 C 3.21 g/m*3 -2.7 C 0 km/h
1479 19-12-2010 07:46:05 -2 C 3.37 g/m*3 -2 C 0 km/h
1480 19-12-2010 07:58:05 -2.1 C 3.31 g/m*3 -2.1 C 0 km/h
1481 19-12-2010 08:10:05 -1.7 C 3.31 g/m*3 -1.7 C 0 km/h
1482 19-12-2010 08:22:05 -2.7 C 3.09 g/m*3 -2.7 C 0 km/h
1483 19-12-2010 08:34:05 -2.9 C 3.13 g/m*3 -2.9 C 0 km/h
1484 19-12-2010 08:46:02 -2.9 C 3.16 g/m*3 -2.9 C 0 km/h
1485 19-12-2010 08:58:02 -2.3 C 3.3 g/m*3 -2.3 C 0 km/h
1486 19-12-2010 09:10:02 -2.1 C 3.31 g/m*3 -2.1 C 0 km/h
1487 19-12-2010 09:22:02 -2.5 C 3.26 g/m*3 -2.5 C 0 km/h
1488 19-12-2010 09:34:02 -2.4 C 3.32 g/m*3 -2.4 C 0 km/h
1489 19-12-2010 09:46:02 -2 C 3.41 g/m*3 -2 C 0 km/h
1490 19-12-2010 09:58:02 -1.2 C 3.57 g/m*3 -1.2 C 0 km/h
1491 19-12-2010 10:10:02 -1.1 C 3.5 g/m*3 -1.1 C 0 km/h
1492 19-12-2010 10:22:02 -1.1 C 3.41 g/m*3 -1.1 C 0 km/h
1493 19-12-2010 10:34:02 -0.8 C 3.44 g/m*3 -0.8 C 0 km/h
1494 19-12-2010 10:46:02 -0.9 C 3.37 g/m*3 -0.9 C 0 km/h
1495 19-12-2010 10:58:02 -0.8 C 3.35 g/m*3 -0.8 C 0 km/h
1496 19-12-2010 11:10:01 -0.7 C 3.37 g/m*3 -0.7 C 0 km/h
1497 19-12-2010 11:22:02 -0.6 C 3.44 g/m*3 -0.6 C 0 km/h
1498 19-12-2010 11:34:02 -0.4 C 3.58 g/m*3 -0.4 C 0 km/h
1499 19-12-2010 11:46:02 -0.2 C 3.68 g/m*3 -0.2 C 0 km/h
1500 19-12-2010 11:58:02 0 C 3.73 g/m*3 0 C 0 km/h
Sensor: Nr:Datum:Temp:Abs-Feuchte:Windchill:Wind:
Aussen-T/F 1501 19-12-2010 12:10:02 0 C 3.59 g/m*3 0 C 0 km/h
1502 19-12-2010 12:22:02 0.2 C 3.64 g/m*3 0.2 C 0 km/h
1503 19-12-2010 12:34:02 0.6 C 3.69 g/m*3 0.6 C 0 km/h
1504 19-12-2010 12:46:01 0.5 C 3.56 g/m*3 0.5 C 0 km/h
1505 19-12-2010 12:58:01 0.2 C 3.54 g/m*3 0.2 C 0 km/h
1506 19-12-2010 13:10:02 0.2 C 3.59 g/m*3 0.2 C 0 km/h
1507 19-12-2010 13:22:01 0.2 C 3.68 g/m*3 0.2 C 0 km/h
1508 19-12-2010 13:34:02 0.2 C 3.73 g/m*3 0.2 C 0 km/h
1509 19-12-2010 13:46:01 0.1 C 3.76 g/m*3 0.1 C 0 km/h
1510 19-12-2010 13:58:01 0 C 3.78 g/m*3 0 C 0 km/h
1511 19-12-2010 14:10:02 -0.2 C 3.82 g/m*3 -0.2 C 0 km/h
1512 19-12-2010 14:22:01 -0.2 C 3.92 g/m*3 -0.2 C 0 km/h
1513 19-12-2010 14:34:02 -0.2 C 3.97 g/m*3 -0.2 C 0 km/h
1514 19-12-2010 14:46:01 -0.1 C 3.99 g/m*3 -0.1 C 0 km/h
1515 19-12-2010 14:58:01 -0.2 C 4.01 g/m*3 -0.2 C 0 km/h
1516 19-12-2010 15:10:02 -0.4 C 4.01 g/m*3 -0.4 C 0 km/h
1517 19-12-2010 15:22:02 -0.4 C 4.05 g/m*3 -0.4 C 0 km/h
1518 19-12-2010 15:34:01 -0.4 C 4.1 g/m*3 -0.4 C 0 km/h
1519 19-12-2010 15:46:02 -0.4 C 4.1 g/m*3 -0.4 C 0 km/h
1520 19-12-2010 15:58:02 -0.4 C 4.15 g/m*3 -0.4 C 0 km/h
1521 19-12-2010 16:10:01 -0.4 C 4.19 g/m*3 -0.4 C 0 km/h
1522 19-12-2010 16:22:02 -0.3 C 4.22 g/m*3 -0.3 C 0 km/h
1523 19-12-2010 16:34:01 -0.3 C 4.22 g/m*3 -0.3 C 0 km/h
1524 19-12-2010 16:46:02 -0.2 C 4.25 g/m*3 -0.2 C 0 km/h
1525 19-12-2010 16:58:02 -0.3 C 4.27 g/m*3 -0.3 C 0 km/h
Sensor: Nr:Datum:Temp:Abs-Feuchte:Windchill:Wind:
Aussen-T/F 1526 19-12-2010 17:10:02 -0.2 C 4.3 g/m*3 -0.2 C 0 km/h
1527 19-12-2010 17:22:02 -0.2 C 4.3 g/m*3 -0.2 C 0 km/h
1528 19-12-2010 17:34:03 -0.2 C 4.35 g/m*3 -0.2 C 0 km/h
1529 19-12-2010 17:46:02 -0.2 C 4.35 g/m*3 -0.2 C 0 km/h
1530 19-12-2010 17:58:03 -0.2 C 4.35 g/m*3 -0.2 C 0 km/h
1531 19-12-2010 18:10:01 -0.2 C 4.35 g/m*3 -0.2 C 0 km/h
1532 19-12-2010 18:22:02 -0.2 C 4.35 g/m*3 -0.2 C 0 km/h
1533 19-12-2010 18:34:02 -0.2 C 4.35 g/m*3 -0.2 C 0 km/h
1534 19-12-2010 18:46:02 -0.2 C 4.35 g/m*3 -0.2 C 0 km/h
1535 19-12-2010 18:58:02 -0.1 C 4.43 g/m*3 -0.1 C 0 km/h
1536 19-12-2010 19:10:02 -0.1 C 4.43 g/m*3 -0.1 C 0 km/h
1537 19-12-2010 19:22:02 -0.1 C 4.43 g/m*3 -0.1 C 0 km/h
1538 19-12-2010 19:34:02 0 C 4.46 g/m*3 0 C 0 km/h
1539 19-12-2010 19:46:02 0 C 4.46 g/m*3 0 C 0 km/h
1540 19-12-2010 19:58:02 0 C 4.46 g/m*3 0 C 0 km/h
1541 19-12-2010 20:10:02 0 C 4.46 g/m*3 0 C 0 km/h
1542 19-12-2010 20:22:02 0 C 4.46 g/m*3 0 C 0 km/h
1543 19-12-2010 20:34:02 0.1 C 4.49 g/m*3 0.1 C 0 km/h
1544 19-12-2010 20:46:02 0.1 C 4.49 g/m*3 0.1 C 0 km/h
1545 19-12-2010 20:58:02 0.2 C 4.57 g/m*3 0.2 C 0 km/h
1546 19-12-2010 21:10:02 0.3 C 4.6 g/m*3 0.3 C 0 km/h
1547 19-12-2010 21:22:03 0.4 C 4.63 g/m*3 0.4 C 0 km/h
1548 19-12-2010 21:34:02 1 C 4.78 g/m*3 1 C 0 km/h
1549 19-12-2010 21:46:03 1.8 C 5.1 g/m*3 1.8 C 0 km/h
1550 19-12-2010 21:58:03 2 C 5.11 g/m*3 2 C 0 km/h
Sensor: Nr:Datum:Temp:Abs-Feuchte:Windchill:Wind:
Aussen-T/F 1551 19-12-2010 22:10:03 1.9 C 5.08 g/m*3 1.9 C 0 km/h
1552 19-12-2010 22:22:02 1.7 C 5.01 g/m*3 1.7 C 0 km/h
1553 19-12-2010 22:34:02 1.5 C 4.94 g/m*3 1.5 C 0 km/h
1554 19-12-2010 22:46:01 1.6 C 4.92 g/m*3 1.6 C 0 km/h
1555 19-12-2010 22:58:01 2.9 C 5.37 g/m*3 2.9 C 0 km/h
1556 19-12-2010 23:10:02 3.6 C 5.45 g/m*3 3.6 C 0 km/h
1557 19-12-2010 23:22:01 4.2 C 5.28 g/m*3 4.2 C 0 km/h
1558 19-12-2010 23:34:02 4.5 C 5 g/m*3 4.5 C 0 km/h
1559 19-12-2010 23:46:01 5.1 C 4.79 g/m*3 5.1 C 0 km/h
1560 19-12-2010 23:58:01 4.7 C 4.66 g/m*3 4.7 C 0 km/h
1561 20-12-2010 00:10:02 4.3 C 4.61 g/m*3 4.3 C 0 km/h
1562 20-12-2010 00:22:01 4.2 C 4.64 g/m*3 4.2 C 0 km/h
1563 20-12-2010 00:34:02 4 C 4.64 g/m*3 4 C 0 km/h
1564 20-12-2010 00:46:01 4 C 4.64 g/m*3 4 C 0 km/h
1565 20-12-2010 00:58:01 3.6 C 4.58 g/m*3 3.6 C 0 km/h
1566 20-12-2010 01:10:02 2.9 C 4.67 g/m*3 2.9 C 0 km/h
1567 20-12-2010 01:22:02 2.7 C 4.66 g/m*3 2.7 C 0 km/h
1568 20-12-2010 01:34:01 1.3 C 4.29 g/m*3 1.3 C 0 km/h
1569 20-12-2010 01:46:02 0.7 C 4.27 g/m*3 0.7 C 0 km/h
1570 20-12-2010 01:58:02 0.8 C 4.25 g/m*3 0.8 C 0 km/h
1571 20-12-2010 02:10:01 0.7 C 3.97 g/m*3 0.7 C 0 km/h
1572 20-12-2010 02:22:02 0.6 C 3.64 g/m*3 0.6 C 0 km/h
1573 20-12-2010 02:34:01 0.4 C 3.64 g/m*3 0.4 C 0 km/h
1574 20-12-2010 02:46:02 0.3 C 3.61 g/m*3 0.3 C 0 km/h
1575 20-12-2010 02:58:02 0.1 C 3.66 g/m*3 0.1 C 0 km/h
Sensor: Nr:Datum:Temp:Abs-Feuchte:Windchill:Wind:
Aussen-T/F 1576 20-12-2010 03:10:01 0 C 3.73 g/m*3 0 C 0 km/h
1577 20-12-2010 03:22:01 -0.1 C 3.66 g/m*3 -0.1 C 0 km/h
1578 20-12-2010 03:34:02 0 C 3.59 g/m*3 0 C 0 km/h
1579 20-12-2010 03:46:02 -0.3 C 3.56 g/m*3 -0.3 C 0 km/h
1580 20-12-2010 03:58:02 0 C 3.63 g/m*3 0 C 0 km/h
1581 20-12-2010 04:10:01 -0.2 C 3.58 g/m*3 -0.2 C 0 km/h
1582 20-12-2010 04:22:02 -0.6 C 3.63 g/m*3 -0.6 C 0 km/h
1583 20-12-2010 04:34:01 -0.5 C 3.74 g/m*3 -0.5 C 0 km/h
1584 20-12-2010 04:46:02 -0.4 C 3.72 g/m*3 -0.4 C 0 km/h
1585 20-12-2010 04:58:02 -0.5 C 3.65 g/m*3 -0.5 C 0 km/h
1586 20-12-2010 05:10:01 -0.7 C 3.6 g/m*3 -0.7 C 0 km/h
1587 20-12-2010 05:22:01 -1 C 3.57 g/m*3 -1 C 0 km/h
1588 20-12-2010 05:34:02 -1.1 C 3.55 g/m*3 -1.1 C 0 km/h
1589 20-12-2010 05:46:01 -1.1 C 3.55 g/m*3 -1.1 C 0 km/h
1590 20-12-2010 05:58:01 -1.2 C 3.52 g/m*3 -1.2 C 0 km/h
1591 20-12-2010 06:10:02 -1.3 C 3.54 g/m*3 -1.3 C 0 km/h
1592 20-12-2010 06:22:01 -1.3 C 3.54 g/m*3 -1.3 C 0 km/h
1593 20-12-2010 06:34:02 -1.5 C 3.49 g/m*3 -1.5 C 0 km/h
1594 20-12-2010 06:46:01 -1.9 C 3.4 g/m*3 -1.9 C 0 km/h
1595 20-12-2010 06:58:01 -2.3 C 3.34 g/m*3 -2.3 C 0 km/h
1596 20-12-2010 07:10:02 -2.5 C 3.34 g/m*3 -2.5 C 0 km/h
1597 20-12-2010 07:22:01 -2.7 C 3.33 g/m*3 -2.7 C 0 km/h
1598 20-12-2010 07:34:01 -2.4 C 3.44 g/m*3 -2.4 C 0 km/h
1599 20-12-2010 07:46:01 -2.7 C 3.37 g/m*3 -2.7 C 0 km/h
1600 20-12-2010 07:58:01 -2.7 C 3.41 g/m*3 -2.7 C 0 km/h
Sensor: Nr:Datum:Temp:Abs-Feuchte:Windchill:Wind:
Aussen-T/F 1601 20-12-2010 08:10:02 -2.5 C 3.5 g/m*3 -2.5 C 0 km/h
1602 20-12-2010 08:22:01 -2.5 C 3.5 g/m*3 -2.5 C 0 km/h
1603 20-12-2010 08:34:01 -2.5 C 3.54 g/m*3 -2.5 C 0 km/h
1604 20-12-2010 08:46:01 -2.4 C 3.57 g/m*3 -2.4 C 0 km/h
1605 20-12-2010 08:58:01 -2.2 C 3.62 g/m*3 -2.2 C 0 km/h
1606 20-12-2010 09:10:02 -2 C 3.67 g/m*3 -2 C 0 km/h
1607 20-12-2010 09:22:01 -1.8 C 3.72 g/m*3 -1.8 C 0 km/h
1608 20-12-2010 09:34:01 -1.9 C 3.61 g/m*3 -1.9 C 0 km/h
1609 20-12-2010 09:46:01 -1.7 C 3.53 g/m*3 -1.7 C 0 km/h
1610 20-12-2010 09:58:01 -1.6 C 3.42 g/m*3 -1.6 C 0 km/h
1611 20-12-2010 10:10:01 -1.6 C 3.34 g/m*3 -1.6 C 0 km/h
1612 20-12-2010 10:22:02 -1.3 C 3.36 g/m*3 -1.3 C 0 km/h
1613 20-12-2010 10:34:01 -1.1 C 3.37 g/m*3 -1.1 C 0 km/h
1614 20-12-2010 10:46:02 -1.1 C 3.28 g/m*3 -1.1 C 0 km/h
1615 20-12-2010 10:58:02 -1 C 3.3 g/m*3 -1 C 0 km/h
1616 20-12-2010 11:10:01 -0.9 C 3.28 g/m*3 -0.9 C 0 km/h
1617 20-12-2010 11:22:02 -0.9 C 3.28 g/m*3 -0.9 C 0 km/h
1618 20-12-2010 11:34:01 -0.8 C 3.25 g/m*3 -0.8 C 0 km/h
1619 20-12-2010 11:46:02 -0.7 C 3.32 g/m*3 -0.7 C 0 km/h
1620 20-12-2010 11:58:02 -0.7 C 3.28 g/m*3 -0.7 C 0 km/h
1621 20-12-2010 12:10:01 -1 C 3.21 g/m*3 -1 C 0 km/h
1622 20-12-2010 12:22:01 -1.1 C 3.28 g/m*3 -1.1 C 0 km/h
1623 20-12-2010 12:34:02 -1.1 C 3.28 g/m*3 -1.1 C 0 km/h
1624 20-12-2010 12:46:01 -1.1 C 3.28 g/m*3 -1.1 C 0 km/h
1625 20-12-2010 12:58:01 -1 C 3.3 g/m*3 -1 C 0 km/h
Sensor: Nr:Datum:Temp:Abs-Feuchte:Windchill:Wind:
Aussen-T/F 1626 20-12-2010 13:10:02 -0.9 C 3.28 g/m*3 -0.9 C 0 km/h
1627 20-12-2010 13:22:01 -1 C 3.25 g/m*3 -1 C 0 km/h
1628 20-12-2010 13:34:02 -0.9 C 3.28 g/m*3 -0.9 C 0 km/h
1629 20-12-2010 13:46:01 -0.8 C 3.35 g/m*3 -0.8 C 0 km/h
1630 20-12-2010 13:58:01 -1 C 3.25 g/m*3 -1 C 0 km/h
1631 20-12-2010 14:10:02 -1 C 3.25 g/m*3 -1 C 0 km/h
1632 20-12-2010 14:22:01 -0.9 C 3.28 g/m*3 -0.9 C 0 km/h
1633 20-12-2010 14:34:01 -1 C 3.25 g/m*3 -1 C 0 km/h
1634 20-12-2010 14:46:01 -1 C 3.25 g/m*3 -1 C 0 km/h
1635 20-12-2010 14:58:01 -1 C 3.25 g/m*3 -1 C 0 km/h
1636 20-12-2010 15:10:01 -1.1 C 3.23 g/m*3 -1.1 C 0 km/h
1637 20-12-2010 15:22:01 -1 C 3.25 g/m*3 -1 C 0 km/h
1638 20-12-2010 15:34:01 -1 C 3.25 g/m*3 -1 C 0 km/h
1639 20-12-2010 15:46:01 -1 C 3.3 g/m*3 -1 C 0 km/h
1640 20-12-2010 15:58:01 -1.3 C 3.28 g/m*3 -1.3 C 0 km/h
1641 20-12-2010 16:10:01 -1.6 C 3.25 g/m*3 -1.6 C 0 km/h
1642 20-12-2010 16:22:02 -2.9 C 2.93 g/m*3 -2.9 C 0 km/h
1643 20-12-2010 16:34:01 -3.3 C 3 g/m*3 -3.3 C 0 km/h
1644 20-12-2010 16:46:02 -3.5 C 3.03 g/m*3 -3.5 C 0 km/h
1645 20-12-2010 16:58:02 -3.9 C 3.02 g/m*3 -3.9 C 0 km/h
1646 20-12-2010 17:10:01 -4.2 C 2.99 g/m*3 -4.2 C 0 km/h
1647 20-12-2010 17:22:01 -3.8 C 3.12 g/m*3 -3.8 C 0 km/h
1648 20-12-2010 17:34:01 -3.4 C 3.28 g/m*3 -3.4 C 0 km/h
1649 20-12-2010 17:46:01 -3.2 C 3.33 g/m*3 -3.2 C 0 km/h
1650 20-12-2010 17:58:02 -3 C 3.42 g/m*3 -3 C 0 km/h
Sensor: Nr:Datum:Temp:Abs-Feuchte:Windchill:Wind:
Aussen-T/F 1651 20-12-2010 18:10:01 -3 C 3.42 g/m*3 -3 C 0 km/h
1652 20-12-2010 18:22:01 -3.1 C 3.39 g/m*3 -3.1 C 0 km/h
1653 20-12-2010 18:34:02 -3.1 C 3.39 g/m*3 -3.1 C 0 km/h
1654 20-12-2010 18:46:01 -3.1 C 3.39 g/m*3 -3.1 C 0 km/h
1655 20-12-2010 18:58:01 -2.9 C 3.48 g/m*3 -2.9 C 0 km/h
1656 20-12-2010 19:10:02 -2.9 C 3.48 g/m*3 -2.9 C 0 km/h
1657 20-12-2010 19:22:01 -2.9 C 3.48 g/m*3 -2.9 C 0 km/h
1658 20-12-2010 19:34:01 -3 C 3.46 g/m*3 -3 C 0 km/h
1659 20-12-2010 19:46:01 -3 C 3.46 g/m*3 -3 C 0 km/h
1660 20-12-2010 19:58:01 -3.2 C 3.37 g/m*3 -3.2 C 0 km/h
1661 20-12-2010 20:10:02 -3.1 C 3.43 g/m*3 -3.1 C 0 km/h
1662 20-12-2010 20:22:01 -2.8 C 3.51 g/m*3 -2.8 C 0 km/h
1663 20-12-2010 20:34:01 -2.9 C 3.48 g/m*3 -2.9 C 0 km/h
1664 20-12-2010 20:46:01 -2.9 C 3.48 g/m*3 -2.9 C 0 km/h
1665 20-12-2010 20:58:01 -2.9 C 3.48 g/m*3 -2.9 C 0 km/h
1666 20-12-2010 21:10:01 -3.2 C 3.37 g/m*3 -3.2 C 0 km/h
1667 20-12-2010 21:23:04 -3.3 C 3.35 g/m*3 -3.3 C 0 km/h
1668 20-12-2010 21:35:04 -3.6 C 3.27 g/m*3 -3.6 C 0 km/h
1669 20-12-2010 21:47:05 -3.8 C 3.23 g/m*3 -3.8 C 0 km/h
1670 20-12-2010 21:59:05 -4.3 C 3.08 g/m*3 -4.3 C 0 km/h
1671 20-12-2010 22:11:05 -4.5 C 3.04 g/m*3 -4.5 C 0 km/h
1672 20-12-2010 22:23:05 -4.5 C 3.04 g/m*3 -4.5 C 0 km/h
1673 20-12-2010 22:35:05 -4.4 C 3.09 g/m*3 -4.4 C 0 km/h
1674 20-12-2010 22:47:05 -4.2 C 3.14 g/m*3 -4.2 C 0 km/h
1675 20-12-2010 22:59:05 -3.9 C 3.24 g/m*3 -3.9 C 0 km/h
Sensor: Nr:Datum:Temp:Abs-Feuchte:Windchill:Wind:
Aussen-T/F 1676 20-12-2010 23:11:05 -3.6 C 3.31 g/m*3 -3.6 C 0 km/h
1677 20-12-2010 23:23:05 -3.4 C 3.4 g/m*3 -3.4 C 0 km/h
1678 20-12-2010 23:35:05 -3.5 C 3.34 g/m*3 -3.5 C 0 km/h
1679 20-12-2010 23:47:05 -3.4 C 3.4 g/m*3 -3.4 C 0 km/h
1680 20-12-2010 23:59:05 -3.4 C 3.4 g/m*3 -3.4 C 0 km/h
1681 21-12-2010 00:11:05 -3.7 C 3.29 g/m*3 -3.7 C 0 km/h
1682 21-12-2010 00:23:05 -3.8 C 3.27 g/m*3 -3.8 C 0 km/h
1683 21-12-2010 00:35:05 -3.7 C 3.33 g/m*3 -3.7 C 0 km/h
1684 21-12-2010 00:47:05 -3.6 C 3.35 g/m*3 -3.6 C 0 km/h
1685 21-12-2010 00:59:05 -3.3 C 3.42 g/m*3 -3.3 C 0 km/h
1686 21-12-2010 01:11:05 -3.1 C 3.47 g/m*3 -3.1 C 0 km/h
1687 21-12-2010 01:23:05 -3 C 3.5 g/m*3 -3 C 0 km/h
1688 21-12-2010 01:35:05 -2.8 C 3.55 g/m*3 -2.8 C 0 km/h
1689 21-12-2010 01:47:05 -2.8 C 3.55 g/m*3 -2.8 C 0 km/h
1690 21-12-2010 01:59:06 -2.7 C 3.57 g/m*3 -2.7 C 0 km/h
1691 21-12-2010 02:11:06 -2.7 C 3.57 g/m*3 -2.7 C 0 km/h
1692 21-12-2010 02:23:06 -2.5 C 3.62 g/m*3 -2.5 C 0 km/h
1693 21-12-2010 02:35:06 -2.7 C 3.57 g/m*3 -2.7 C 0 km/h
1694 21-12-2010 02:47:06 -2.6 C 3.6 g/m*3 -2.6 C 0 km/h
1695 21-12-2010 02:59:06 -2.5 C 3.62 g/m*3 -2.5 C 0 km/h
1696 21-12-2010 03:11:06 -2.6 C 3.56 g/m*3 -2.6 C 0 km/h
1697 21-12-2010 03:23:06 -2.6 C 3.56 g/m*3 -2.6 C 0 km/h
1698 21-12-2010 03:35:06 -2.6 C 3.56 g/m*3 -2.6 C 0 km/h
1699 21-12-2010 03:47:06 -2.5 C 3.58 g/m*3 -2.5 C 0 km/h
1700 21-12-2010 03:59:06 -2.4 C 3.61 g/m*3 -2.4 C 0 km/h
Sensor: Nr:Datum:Temp:Abs-Feuchte:Windchill:Wind:
Aussen-T/F 1701 21-12-2010 04:11:06 -2.3 C 3.63 g/m*3 -2.3 C 0 km/h
1702 21-12-2010 04:23:06 -2.2 C 3.66 g/m*3 -2.2 C 0 km/h
1703 21-12-2010 04:35:06 -2.1 C 3.68 g/m*3 -2.1 C 0 km/h
1704 21-12-2010 04:47:06 -2.1 C 3.68 g/m*3 -2.1 C 0 km/h
1705 21-12-2010 04:59:06 -2 C 3.71 g/m*3 -2 C 0 km/h
1706 21-12-2010 05:11:06 -2 C 3.71 g/m*3 -2 C 0 km/h
1707 21-12-2010 05:23:06 -1.9 C 3.74 g/m*3 -1.9 C 0 km/h
1708 21-12-2010 05:35:06 -1.9 C 3.74 g/m*3 -1.9 C 0 km/h
1709 21-12-2010 05:47:06 -1.8 C 3.8 g/m*3 -1.8 C 0 km/h
1710 21-12-2010 05:59:07 -1.8 C 3.8 g/m*3 -1.8 C 0 km/h
1711 21-12-2010 06:11:07 -1.8 C 3.8 g/m*3 -1.8 C 0 km/h
1712 21-12-2010 06:23:07 -1.8 C 3.8 g/m*3 -1.8 C 0 km/h
1713 21-12-2010 06:35:07 -1.8 C 3.8 g/m*3 -1.8 C 0 km/h
1714 21-12-2010 06:47:07 -1.8 C 3.8 g/m*3 -1.8 C 0 km/h
1715 21-12-2010 06:59:07 -1.7 C 3.83 g/m*3 -1.7 C 0 km/h
1716 21-12-2010 07:11:07 -1.7 C 3.83 g/m*3 -1.7 C 0 km/h
1717 21-12-2010 07:23:07 -1.4 C 3.91 g/m*3 -1.4 C 0 km/h
1718 21-12-2010 07:35:05 -1.8 C 3.8 g/m*3 -1.8 C 0 km/h
1719 21-12-2010 07:47:02 -1.8 C 3.8 g/m*3 -1.8 C 0 km/h
1720 21-12-2010 07:59:02 -1.8 C 3.8 g/m*3 -1.8 C 0 km/h
1721 21-12-2010 08:11:02 -1.7 C 3.83 g/m*3 -1.7 C 0 km/h
1722 21-12-2010 08:23:01 -1.6 C 3.86 g/m*3 -1.6 C 0 km/h
1723 21-12-2010 08:35:02 -1.6 C 3.86 g/m*3 -1.6 C 0 km/h
1724 21-12-2010 08:47:02 -1.7 C 3.83 g/m*3 -1.7 C 0 km/h
1725 21-12-2010 08:59:02 -1.6 C 3.86 g/m*3 -1.6 C 0 km/h
Sensor: Nr:Datum:Temp:Abs-Feuchte:Windchill:Wind:
Aussen-T/F 1726 21-12-2010 09:11:02 -1.4 C 3.91 g/m*3 -1.4 C 0 km/h
1727 21-12-2010 09:23:02 -1.3 C 3.94 g/m*3 -1.3 C 0 km/h
1728 21-12-2010 09:35:02 -1.2 C 3.92 g/m*3 -1.2 C 0 km/h
1729 21-12-2010 09:47:02 -1.1 C 3.91 g/m*3 -1.1 C 0 km/h
1730 21-12-2010 09:59:02 -1.2 C 3.88 g/m*3 -1.2 C 0 km/h
1731 21-12-2010 10:11:02 -0.7 C 3.97 g/m*3 -0.7 C 0 km/h
1732 21-12-2010 10:23:02 -0.8 C 3.9 g/m*3 -0.8 C 0 km/h
1733 21-12-2010 10:35:02 -0.9 C 3.82 g/m*3 -0.9 C 0 km/h
1734 21-12-2010 10:47:02 -0.3 C 3.99 g/m*3 -0.3 C 0 km/h
1735 21-12-2010 10:59:02 -0.3 C 3.89 g/m*3 -0.3 C 0 km/h
1736 21-12-2010 11:11:02 0.1 C 3.95 g/m*3 0.1 C 0 km/h
1737 21-12-2010 11:23:02 0.4 C 4.03 g/m*3 0.4 C 0 km/h
1738 21-12-2010 11:35:01 0.6 C 3.99 g/m*3 0.6 C 0 km/h
1739 21-12-2010 11:47:02 0.8 C 4.04 g/m*3 0.8 C 0 km/h
1740 21-12-2010 11:59:02 0.6 C 3.89 g/m*3 0.6 C 0 km/h
1741 21-12-2010 12:11:01 0.9 C 3.92 g/m*3 0.9 C 0 km/h
1742 21-12-2010 12:23:02 1.2 C 3.95 g/m*3 1.2 C 0 km/h
1743 21-12-2010 12:35:02 1.3 C 4.03 g/m*3 1.3 C 0 km/h
1744 21-12-2010 12:47:02 1.4 C 4.05 g/m*3 1.4 C 0 km/h
1745 21-12-2010 12:59:02 0.9 C 3.92 g/m*3 0.9 C 0 km/h
1746 21-12-2010 13:11:02 1.3 C 4.08 g/m*3 1.3 C 0 km/h
1747 21-12-2010 13:23:02 1.4 C 4.11 g/m*3 1.4 C 0 km/h
1748 21-12-2010 13:35:02 1.5 C 4.14 g/m*3 1.5 C 0 km/h
1749 21-12-2010 13:47:01 1.5 C 4.14 g/m*3 1.5 C 0 km/h
1750 21-12-2010 13:59:01 1.5 C 4.14 g/m*3 1.5 C 0 km/h
Sensor: Nr:Datum:Temp:Abs-Feuchte:Windchill:Wind:
Aussen-T/F 1751 21-12-2010 14:11:02 1.4 C 4.11 g/m*3 1.4 C 0 km/h
1752 21-12-2010 14:23:01 1.2 C 4.05 g/m*3 1.2 C 0 km/h
1753 21-12-2010 14:35:01 1.2 C 4.05 g/m*3 1.2 C 0 km/h
1754 21-12-2010 14:47:01 1.2 C 4.05 g/m*3 1.2 C 0 km/h
1755 21-12-2010 14:59:01 1.2 C 4.05 g/m*3 1.2 C 0 km/h
1756 21-12-2010 15:11:02 1.2 C 4.05 g/m*3 1.2 C 0 km/h
1757 21-12-2010 15:23:01 1.3 C 4.19 g/m*3 1.3 C 0 km/h
1758 21-12-2010 15:35:01 1.2 C 4.21 g/m*3 1.2 C 0 km/h
1759 21-12-2010 15:47:01 1.1 C 4.23 g/m*3 1.1 C 0 km/h
1760 21-12-2010 15:59:01 1.1 C 4.23 g/m*3 1.1 C 0 km/h
1761 21-12-2010 16:11:02 1.1 C 4.23 g/m*3 1.1 C 0 km/h
1762 21-12-2010 16:23:02 0.6 C 4.19 g/m*3 0.6 C 0 km/h
1763 21-12-2010 16:35:01 0.6 C 4.19 g/m*3 0.6 C 0 km/h
1764 21-12-2010 16:47:02 0.3 C 4.16 g/m*3 0.3 C 0 km/h
1765 21-12-2010 16:59:02 0.3 C 4.2 g/m*3 0.3 C 0 km/h
1766 21-12-2010 17:11:01 0.3 C 4.25 g/m*3 0.3 C 0 km/h
1767 21-12-2010 17:23:02 0.3 C 4.3 g/m*3 0.3 C 0 km/h
1768 21-12-2010 17:35:01 0.1 C 4.29 g/m*3 0.1 C 0 km/h
1769 21-12-2010 17:47:02 0.1 C 4.29 g/m*3 0.1 C 0 km/h
1770 21-12-2010 17:59:02 0 C 4.26 g/m*3 0 C 0 km/h
1771 21-12-2010 18:11:02 0.1 C 4.34 g/m*3 0.1 C 0 km/h
1772 21-12-2010 18:23:02 0.2 C 4.37 g/m*3 0.2 C 0 km/h
1773 21-12-2010 18:35:02 0.2 C 4.37 g/m*3 0.2 C 0 km/h
1774 21-12-2010 18:47:02 0.2 C 4.37 g/m*3 0.2 C 0 km/h
1775 21-12-2010 18:59:02 0.2 C 4.42 g/m*3 0.2 C 0 km/h
Sensor: Nr:Datum:Temp:Abs-Feuchte:Windchill:Wind:
Aussen-T/F 1776 21-12-2010 19:11:02 0.2 C 4.42 g/m*3 0.2 C 0 km/h
1777 21-12-2010 19:23:01 0.1 C 4.39 g/m*3 0.1 C 0 km/h
1778 21-12-2010 19:35:02 0.1 C 4.39 g/m*3 0.1 C 0 km/h
1779 21-12-2010 19:47:02 0.1 C 4.39 g/m*3 0.1 C 0 km/h
1780 21-12-2010 19:59:02 0.1 C 4.39 g/m*3 0.1 C 0 km/h
1781 21-12-2010 20:11:02 0.1 C 4.39 g/m*3 0.1 C 0 km/h
1782 21-12-2010 20:23:01 0.1 C 4.39 g/m*3 0.1 C 0 km/h
1783 21-12-2010 20:35:02 0.1 C 4.39 g/m*3 0.1 C 0 km/h
1784 21-12-2010 20:47:02 0.1 C 4.39 g/m*3 0.1 C 0 km/h
1785 21-12-2010 20:59:02 0.2 C 4.42 g/m*3 0.2 C 0 km/h
1786 21-12-2010 21:11:02 0.1 C 4.44 g/m*3 0.1 C 0 km/h
1787 21-12-2010 21:23:01 0.1 C 4.44 g/m*3 0.1 C 0 km/h
1788 21-12-2010 21:35:02 0.2 C 4.47 g/m*3 0.2 C 0 km/h
1789 21-12-2010 21:47:01 0.1 C 4.44 g/m*3 0.1 C 0 km/h
1790 21-12-2010 21:59:01 0.1 C 4.44 g/m*3 0.1 C 0 km/h
1791 21-12-2010 22:11:02 0.1 C 4.44 g/m*3 0.1 C 0 km/h
1792 21-12-2010 22:24:04 0.1 C 4.44 g/m*3 0.1 C 0 km/h
1793 21-12-2010 22:36:04 0.2 C 4.47 g/m*3 0.2 C 0 km/h
1794 21-12-2010 22:48:04 0.2 C 4.47 g/m*3 0.2 C 0 km/h
1795 21-12-2010 23:00:04 0.2 C 4.47 g/m*3 0.2 C 0 km/h
1796 21-12-2010 23:12:04 0.1 C 4.44 g/m*3 0.1 C 0 km/h
1797 21-12-2010 23:24:04 0.1 C 4.44 g/m*3 0.1 C 0 km/h
1798 21-12-2010 23:36:04 0.1 C 4.44 g/m*3 0.1 C 0 km/h
1799 21-12-2010 23:48:04 0.1 C 4.44 g/m*3 0.1 C 0 km/h
1800 22-12-2010 00:00:04 0.1 C 4.44 g/m*3 0.1 C 0 km/h
Sensor: Nr:Datum:Temp:Abs-Feuchte:Windchill:Wind:
Aussen-T/F 1801 22-12-2010 00:12:04 0.1 C 4.49 g/m*3 0.1 C 0 km/h
1802 22-12-2010 00:24:04 0.1 C 4.49 g/m*3 0.1 C 0 km/h
1803 22-12-2010 00:36:04 0.1 C 4.49 g/m*3 0.1 C 0 km/h
1804 22-12-2010 00:48:04 0.1 C 4.49 g/m*3 0.1 C 0 km/h
1805 22-12-2010 01:00:04 0.1 C 4.49 g/m*3 0.1 C 0 km/h
1806 22-12-2010 01:12:04 0.1 C 4.49 g/m*3 0.1 C 0 km/h
1807 22-12-2010 01:24:04 0.2 C 4.52 g/m*3 0.2 C 0 km/h
1808 22-12-2010 01:36:04 0.2 C 4.52 g/m*3 0.2 C 0 km/h
1809 22-12-2010 01:48:04 0.2 C 4.52 g/m*3 0.2 C 0 km/h
1810 22-12-2010 02:00:04 0.2 C 4.52 g/m*3 0.2 C 0 km/h
1811 22-12-2010 02:12:05 0.2 C 4.52 g/m*3 0.2 C 0 km/h
1812 22-12-2010 02:24:05 0.2 C 4.52 g/m*3 0.2 C 0 km/h
1813 22-12-2010 02:36:05 0.2 C 4.52 g/m*3 0.2 C 0 km/h
1814 22-12-2010 02:48:05 0.2 C 4.52 g/m*3 0.2 C 0 km/h
1815 22-12-2010 03:00:05 0.2 C 4.52 g/m*3 0.2 C 0 km/h
1816 22-12-2010 03:12:05 0.2 C 4.52 g/m*3 0.2 C 0 km/h
1817 22-12-2010 03:24:05 0.1 C 4.49 g/m*3 0.1 C 0 km/h
1818 22-12-2010 03:36:05 0.1 C 4.49 g/m*3 0.1 C 0 km/h
1819 22-12-2010 03:48:05 0.2 C 4.52 g/m*3 0.2 C 0 km/h
1820 22-12-2010 04:00:05 0.2 C 4.52 g/m*3 0.2 C 0 km/h
1821 22-12-2010 04:12:05 0.3 C 4.55 g/m*3 0.3 C 0 km/h
1822 22-12-2010 04:24:05 0.3 C 4.55 g/m*3 0.3 C 0 km/h
1823 22-12-2010 04:36:05 0.3 C 4.55 g/m*3 0.3 C 0 km/h
1824 22-12-2010 04:48:05 0.3 C 4.55 g/m*3 0.3 C 0 km/h
1825 22-12-2010 05:00:05 0.3 C 4.55 g/m*3 0.3 C 0 km/h
Sensor: Nr:Datum:Temp:Abs-Feuchte:Windchill:Wind:
Aussen-T/F 1826 22-12-2010 05:12:05 0.3 C 4.55 g/m*3 0.3 C 0 km/h
1827 22-12-2010 05:24:05 0.3 C 4.55 g/m*3 0.3 C 0 km/h
1828 22-12-2010 05:36:05 0.3 C 4.55 g/m*3 0.3 C 0 km/h
1829 22-12-2010 05:48:05 0.3 C 4.55 g/m*3 0.3 C 0 km/h
1830 22-12-2010 06:00:05 0.3 C 4.55 g/m*3 0.3 C 0 km/h
1831 22-12-2010 06:12:06 0.3 C 4.55 g/m*3 0.3 C 0 km/h
1832 22-12-2010 06:24:06 0.3 C 4.55 g/m*3 0.3 C 0 km/h
1833 22-12-2010 06:36:06 0.3 C 4.55 g/m*3 0.3 C 0 km/h
1834 22-12-2010 06:48:06 0.3 C 4.55 g/m*3 0.3 C 0 km/h
1835 22-12-2010 07:00:06 0.3 C 4.55 g/m*3 0.3 C 0 km/h
1836 22-12-2010 07:12:06 0.3 C 4.55 g/m*3 0.3 C 0 km/h
1837 22-12-2010 07:24:06 0.3 C 4.55 g/m*3 0.3 C 0 km/h
1838 22-12-2010 07:36:03 0.3 C 4.6 g/m*3 0.3 C 0 km/h
1839 22-12-2010 07:48:02 0.3 C 4.6 g/m*3 0.3 C 0 km/h
1840 22-12-2010 08:00:02 0.3 C 4.6 g/m*3 0.3 C 0 km/h
1841 22-12-2010 08:12:02 0.3 C 4.6 g/m*3 0.3 C 0 km/h
1842 22-12-2010 08:24:01 0.3 C 4.6 g/m*3 0.3 C 0 km/h
1843 22-12-2010 08:36:02 0.4 C 4.63 g/m*3 0.4 C 0 km/h
1844 22-12-2010 08:48:02 0.4 C 4.63 g/m*3 0.4 C 0 km/h
1845 22-12-2010 09:00:02 0.4 C 4.63 g/m*3 0.4 C 0 km/h
1846 22-12-2010 09:12:02 0.6 C 4.7 g/m*3 0.6 C 0 km/h
1847 22-12-2010 09:24:01 0.7 C 4.73 g/m*3 0.7 C 0 km/h
1848 22-12-2010 09:36:02 0.9 C 4.79 g/m*3 0.9 C 0 km/h
1849 22-12-2010 09:48:01 0.9 C 4.79 g/m*3 0.9 C 0 km/h
1850 22-12-2010 10:00:01 1.1 C 4.81 g/m*3 1.1 C 0 km/h
Sensor: Nr:Datum:Temp:Abs-Feuchte:Windchill:Wind:
Aussen-T/F 1851 22-12-2010 10:12:02 1.2 C 4.84 g/m*3 1.2 C 0 km/h
1852 22-12-2010 10:24:02 1.2 C 4.84 g/m*3 1.2 C 0 km/h
1853 22-12-2010 10:36:02 1.7 C 5.01 g/m*3 1.7 C 0 km/h
1854 22-12-2010 10:48:02 1.7 C 5.01 g/m*3 1.7 C 0 km/h
1855 22-12-2010 11:00:02 2 C 5 g/m*3 2 C 0 km/h
1856 22-12-2010 11:12:02 1.9 C 4.97 g/m*3 1.9 C 0 km/h
1857 22-12-2010 11:24:02 2.3 C 5.05 g/m*3 2.3 C 0 km/h
1858 22-12-2010 11:36:01 2.7 C 5.13 g/m*3 2.7 C 0 km/h
1859 22-12-2010 11:48:02 2.6 C 4.98 g/m*3 2.6 C 0 km/h
1860 22-12-2010 12:00:02 2.7 C 4.95 g/m*3 2.7 C 0 km/h
1861 22-12-2010 12:12:01 2.7 C 4.89 g/m*3 2.7 C 0 km/h
1862 22-12-2010 12:24:01 2.9 C 4.9 g/m*3 2.9 C 0 km/h
1863 22-12-2010 12:36:02 2.9 C 4.9 g/m*3 2.9 C 0 km/h
1864 22-12-2010 12:48:02 2.6 C 4.8 g/m*3 2.6 C 0 km/h
1865 22-12-2010 13:00:02 2.6 C 4.8 g/m*3 2.6 C 0 km/h
1866 22-12-2010 13:12:02 2.3 C 4.71 g/m*3 2.3 C 0 km/h
1867 22-12-2010 13:24:02 2.6 C 4.8 g/m*3 2.6 C 0 km/h
1868 22-12-2010 13:36:02 2.3 C 4.71 g/m*3 2.3 C 0 km/h
1869 22-12-2010 13:48:02 2.1 C 4.64 g/m*3 2.1 C 0 km/h
1870 22-12-2010 14:00:02 2.1 C 4.7 g/m*3 2.1 C 0 km/h
1871 22-12-2010 14:12:02 2.3 C 4.76 g/m*3 2.3 C 0 km/h
1872 22-12-2010 14:24:02 2.6 C 4.86 g/m*3 2.6 C 0 km/h
1873 22-12-2010 14:36:02 2.6 C 4.8 g/m*3 2.6 C 0 km/h
1874 22-12-2010 14:48:02 2.4 C 4.68 g/m*3 2.4 C 0 km/h
1875 22-12-2010 15:00:02 2 C 4.61 g/m*3 2 C 0 km/h
Sensor: Nr:Datum:Temp:Abs-Feuchte:Windchill:Wind:
Aussen-T/F 1876 22-12-2010 15:12:02 1.7 C 4.57 g/m*3 1.7 C 0 km/h
1877 22-12-2010 15:24:02 1.6 C 4.6 g/m*3 1.6 C 0 km/h
1878 22-12-2010 15:36:02 1.6 C 4.6 g/m*3 1.6 C 0 km/h
1879 22-12-2010 15:48:02 1.4 C 4.59 g/m*3 1.4 C 0 km/h
1880 22-12-2010 16:00:02 1.4 C 4.64 g/m*3 1.4 C 0 km/h
1881 22-12-2010 16:12:02 1.2 C 4.58 g/m*3 1.2 C 0 km/h
1882 22-12-2010 16:24:02 1.2 C 4.63 g/m*3 1.2 C 0 km/h
1883 22-12-2010 16:36:02 1 C 4.57 g/m*3 1 C 0 km/h
1884 22-12-2010 16:48:02 1 C 4.57 g/m*3 1 C 0 km/h
1885 22-12-2010 17:00:02 0.9 C 4.59 g/m*3 0.9 C 0 km/h
1886 22-12-2010 17:12:02 0.8 C 4.56 g/m*3 0.8 C 0 km/h
1887 22-12-2010 17:24:02 0.7 C 4.58 g/m*3 0.7 C 0 km/h
1888 22-12-2010 17:36:01 0.8 C 4.61 g/m*3 0.8 C 0 km/h
1889 22-12-2010 17:48:02 0.8 C 4.66 g/m*3 0.8 C 0 km/h
1890 22-12-2010 18:00:02 0.7 C 4.63 g/m*3 0.7 C 0 km/h
1891 22-12-2010 18:12:01 0.7 C 4.63 g/m*3 0.7 C 0 km/h
1892 22-12-2010 18:24:01 0.6 C 4.6 g/m*3 0.6 C 0 km/h
1893 22-12-2010 18:36:02 0.8 C 4.66 g/m*3 0.8 C 0 km/h
1894 22-12-2010 18:48:02 0.7 C 4.63 g/m*3 0.7 C 0 km/h
1895 22-12-2010 19:00:02 0.7 C 4.68 g/m*3 0.7 C 0 km/h
1896 22-12-2010 19:12:02 0.8 C 4.71 g/m*3 0.8 C 0 km/h
1897 22-12-2010 19:24:02 0.8 C 4.71 g/m*3 0.8 C 0 km/h
1898 22-12-2010 19:36:02 0.8 C 4.71 g/m*3 0.8 C 0 km/h
1899 22-12-2010 19:48:02 0.8 C 4.71 g/m*3 0.8 C 0 km/h
1900 22-12-2010 20:00:02 0.7 C 4.68 g/m*3 0.7 C 0 km/h
Sensor: Nr:Datum:Temp:Abs-Feuchte:Windchill:Wind:
Aussen-T/F 1901 22-12-2010 20:12:03 0.8 C 4.71 g/m*3 0.8 C 0 km/h
1902 22-12-2010 20:24:02 0.8 C 4.71 g/m*3 0.8 C 0 km/h
1903 22-12-2010 20:36:02 0.8 C 4.71 g/m*3 0.8 C 0 km/h
1904 22-12-2010 20:48:01 0.8 C 4.71 g/m*3 0.8 C 0 km/h
1905 22-12-2010 21:00:01 0.8 C 4.71 g/m*3 0.8 C 0 km/h
1906 22-12-2010 21:12:01 0.8 C 4.71 g/m*3 0.8 C 0 km/h
1907 22-12-2010 21:24:01 0.8 C 4.71 g/m*3 0.8 C 0 km/h
1908 22-12-2010 21:36:01 0.8 C 4.71 g/m*3 0.8 C 0 km/h
1909 22-12-2010 21:48:01 0.8 C 4.71 g/m*3 0.8 C 0 km/h
1910 22-12-2010 22:00:01 0.7 C 4.68 g/m*3 0.7 C 0 km/h
1911 22-12-2010 22:13:03 0.7 C 4.68 g/m*3 0.7 C 0 km/h
1912 22-12-2010 22:25:03 0.7 C 4.68 g/m*3 0.7 C 0 km/h
1913 22-12-2010 22:37:03 0.7 C 4.68 g/m*3 0.7 C 0 km/h
1914 22-12-2010 22:49:03 0.7 C 4.68 g/m*3 0.7 C 0 km/h
1915 22-12-2010 23:01:03 0.7 C 4.68 g/m*3 0.7 C 0 km/h
1916 22-12-2010 23:13:03 0.7 C 4.68 g/m*3 0.7 C 0 km/h
1917 22-12-2010 23:25:03 0.7 C 4.68 g/m*3 0.7 C 0 km/h
1918 22-12-2010 23:37:03 0.7 C 4.68 g/m*3 0.7 C 0 km/h
1919 22-12-2010 23:49:03 0.7 C 4.68 g/m*3 0.7 C 0 km/h
1920 23-12-2010 00:01:03 0.7 C 4.68 g/m*3 0.7 C 0 km/h
1921 23-12-2010 00:13:03 0.8 C 4.76 g/m*3 0.8 C 0 km/h
1922 23-12-2010 00:25:03 0.8 C 4.76 g/m*3 0.8 C 0 km/h
1923 23-12-2010 00:37:03 0.8 C 4.76 g/m*3 0.8 C 0 km/h
1924 23-12-2010 00:49:03 0.7 C 4.73 g/m*3 0.7 C 0 km/h
1925 23-12-2010 01:01:04 0.7 C 4.73 g/m*3 0.7 C 0 km/h
Sensor: Nr:Datum:Temp:Abs-Feuchte:Windchill:Wind:
Aussen-T/F 1926 23-12-2010 01:13:04 0.7 C 4.73 g/m*3 0.7 C 0 km/h
1927 23-12-2010 01:25:04 0.7 C 4.73 g/m*3 0.7 C 0 km/h
1928 23-12-2010 01:37:04 0.7 C 4.73 g/m*3 0.7 C 0 km/h
1929 23-12-2010 01:49:04 0.7 C 4.73 g/m*3 0.7 C 0 km/h
1930 23-12-2010 02:01:04 0.7 C 4.73 g/m*3 0.7 C 0 km/h
1931 23-12-2010 02:13:04 0.7 C 4.73 g/m*3 0.7 C 0 km/h
1932 23-12-2010 02:25:04 0.7 C 4.73 g/m*3 0.7 C 0 km/h
1933 23-12-2010 02:37:04 0.7 C 4.73 g/m*3 0.7 C 0 km/h
1934 23-12-2010 02:49:04 0.7 C 4.73 g/m*3 0.7 C 0 km/h
1935 23-12-2010 03:01:04 0.7 C 4.73 g/m*3 0.7 C 0 km/h
1936 23-12-2010 03:13:04 0.7 C 4.73 g/m*3 0.7 C 0 km/h
1937 23-12-2010 03:25:04 0.7 C 4.73 g/m*3 0.7 C 0 km/h
1938 23-12-2010 03:37:04 0.7 C 4.73 g/m*3 0.7 C 0 km/h
1939 23-12-2010 03:49:04 0.7 C 4.73 g/m*3 0.7 C 0 km/h
1940 23-12-2010 04:01:04 0.7 C 4.73 g/m*3 0.7 C 0 km/h
1941 23-12-2010 04:13:04 0.7 C 4.73 g/m*3 0.7 C 0 km/h
1942 23-12-2010 04:25:04 0.7 C 4.73 g/m*3 0.7 C 0 km/h
1943 23-12-2010 04:37:04 0.6 C 4.7 g/m*3 0.6 C 0 km/h
1944 23-12-2010 04:49:04 0.6 C 4.7 g/m*3 0.6 C 0 km/h
1945 23-12-2010 05:01:04 0.6 C 4.7 g/m*3 0.6 C 0 km/h
1946 23-12-2010 05:13:05 0.6 C 4.7 g/m*3 0.6 C 0 km/h
1947 23-12-2010 05:25:05 0.4 C 4.63 g/m*3 0.4 C 0 km/h
1948 23-12-2010 05:37:05 0.4 C 4.63 g/m*3 0.4 C 0 km/h
1949 23-12-2010 05:49:05 0.4 C 4.63 g/m*3 0.4 C 0 km/h
1950 23-12-2010 06:01:05 0.4 C 4.63 g/m*3 0.4 C 0 km/h
Sensor: Nr:Datum:Temp:Abs-Feuchte:Windchill:Wind:
Aussen-T/F 1951 23-12-2010 06:13:05 0.4 C 4.63 g/m*3 0.4 C 0 km/h
1952 23-12-2010 06:25:05 0.4 C 4.63 g/m*3 0.4 C 0 km/h
1953 23-12-2010 06:37:05 0.4 C 4.63 g/m*3 0.4 C 0 km/h
1954 23-12-2010 06:49:05 0.1 C 4.54 g/m*3 0.1 C 0 km/h
1955 23-12-2010 07:01:05 0.1 C 4.54 g/m*3 0.1 C 0 km/h
1956 23-12-2010 07:13:05 0.1 C 4.54 g/m*3 0.1 C 0 km/h
1957 23-12-2010 07:25:03 0 C 4.51 g/m*3 0 C 0 km/h
1958 23-12-2010 07:37:03 -0.1 C 4.47 g/m*3 -0.1 C 0 km/h
1959 23-12-2010 07:49:02 -0.1 C 4.47 g/m*3 -0.1 C 0 km/h
1960 23-12-2010 08:01:02 -0.2 C 4.44 g/m*3 -0.2 C 0 km/h
1961 23-12-2010 08:13:03 -0.2 C 4.44 g/m*3 -0.2 C 0 km/h
1962 23-12-2010 08:25:02 -0.3 C 4.41 g/m*3 -0.3 C 0 km/h
1963 23-12-2010 08:37:02 -0.4 C 4.34 g/m*3 -0.4 C 0 km/h
1964 23-12-2010 08:49:01 -0.5 C 4.31 g/m*3 -0.5 C 0 km/h
1965 23-12-2010 09:01:01 -0.5 C 4.31 g/m*3 -0.5 C 0 km/h
1966 23-12-2010 09:13:01 -0.5 C 4.31 g/m*3 -0.5 C 0 km/h
1967 23-12-2010 09:25:02 -0.6 C 4.28 g/m*3 -0.6 C 0 km/h
1968 23-12-2010 09:37:01 -0.5 C 4.31 g/m*3 -0.5 C 0 km/h
1969 23-12-2010 09:49:03 -0.4 C 4.34 g/m*3 -0.4 C 0 km/h
1970 23-12-2010 10:01:02 -0.4 C 4.34 g/m*3 -0.4 C 0 km/h
1971 23-12-2010 10:13:02 -0.4 C 4.34 g/m*3 -0.4 C 0 km/h
1972 23-12-2010 10:25:02 -0.5 C 4.31 g/m*3 -0.5 C 0 km/h
1973 23-12-2010 10:37:02 -0.7 C 4.2 g/m*3 -0.7 C 0 km/h
1974 23-12-2010 10:49:02 -0.7 C 4.15 g/m*3 -0.7 C 0 km/h
1975 23-12-2010 11:01:01 -0.8 C 4.13 g/m*3 -0.8 C 0 km/h
Sensor: Nr:Datum:Temp:Abs-Feuchte:Windchill:Wind:
Aussen-T/F 1976 23-12-2010 11:13:01 -0.6 C 4.18 g/m*3 -0.6 C 0 km/h
1977 23-12-2010 11:25:02 -0.5 C 4.21 g/m*3 -0.5 C 0 km/h
1978 23-12-2010 11:37:02 -0.5 C 4.21 g/m*3 -0.5 C 0 km/h
1979 23-12-2010 11:49:01 -0.5 C 4.21 g/m*3 -0.5 C 0 km/h
1980 23-12-2010 12:01:01 -0.5 C 4.21 g/m*3 -0.5 C 0 km/h
1981 23-12-2010 12:13:01 -0.8 C 4.03 g/m*3 -0.8 C 0 km/h
1982 23-12-2010 12:25:01 -0.7 C 4.02 g/m*3 -0.7 C 0 km/h
1983 23-12-2010 12:37:02 -0.7 C 4.02 g/m*3 -0.7 C 0 km/h
1984 23-12-2010 12:49:02 -0.7 C 4.02 g/m*3 -0.7 C 0 km/h
1985 23-12-2010 13:01:02 -0.7 C 4.02 g/m*3 -0.7 C 0 km/h
1986 23-12-2010 13:13:02 -0.6 C 4.04 g/m*3 -0.6 C 0 km/h
1987 23-12-2010 13:25:01 -0.6 C 4 g/m*3 -0.6 C 0 km/h
1988 23-12-2010 13:37:02 -0.7 C 3.97 g/m*3 -0.7 C 0 km/h
1989 23-12-2010 13:49:02 -0.7 C 3.97 g/m*3 -0.7 C 0 km/h
1990 23-12-2010 14:01:02 -0.5 C 4.03 g/m*3 -0.5 C 0 km/h
1991 23-12-2010 14:13:03 -0.6 C 4 g/m*3 -0.6 C 0 km/h
1992 23-12-2010 14:25:01 -0.6 C 4 g/m*3 -0.6 C 0 km/h
1993 23-12-2010 14:37:02 -0.6 C 4 g/m*3 -0.6 C 0 km/h
1994 23-12-2010 14:49:01 -0.8 C 3.94 g/m*3 -0.8 C 0 km/h
1995 23-12-2010 15:01:02 -0.8 C 3.94 g/m*3 -0.8 C 0 km/h
1996 23-12-2010 15:13:02 -0.8 C 3.94 g/m*3 -0.8 C 0 km/h
1997 23-12-2010 15:25:02 -0.9 C 3.91 g/m*3 -0.9 C 0 km/h
1998 23-12-2010 15:37:01 -0.9 C 3.91 g/m*3 -0.9 C 0 km/h
1999 23-12-2010 15:49:02 -0.9 C 3.96 g/m*3 -0.9 C 0 km/h
2000 23-12-2010 16:01:01 -0.9 C 3.96 g/m*3 -0.9 C 0 km/h
Sensor: Nr:Datum:Temp:Abs-Feuchte:Windchill:Wind:
Aussen-T/F 2001 23-12-2010 16:13:01 -0.8 C 3.99 g/m*3 -0.8 C 0 km/h
2002 23-12-2010 16:25:02 -0.9 C 3.96 g/m*3 -0.9 C 0 km/h
2003 23-12-2010 16:37:01 -0.9 C 3.96 g/m*3 -0.9 C 0 km/h
2004 23-12-2010 16:49:02 -1 C 3.93 g/m*3 -1 C 0 km/h
2005 23-12-2010 17:01:02 -1 C 3.93 g/m*3 -1 C 0 km/h
2006 23-12-2010 17:13:02 -1 C 3.93 g/m*3 -1 C 0 km/h
2007 23-12-2010 17:25:02 -1 C 3.93 g/m*3 -1 C 0 km/h
2008 23-12-2010 17:37:03 -1 C 3.93 g/m*3 -1 C 0 km/h
2009 23-12-2010 17:49:02 -1.1 C 3.91 g/m*3 -1.1 C 0 km/h
2010 23-12-2010 18:01:02 -1.1 C 3.91 g/m*3 -1.1 C 0 km/h
2011 23-12-2010 18:13:02 -1.1 C 3.91 g/m*3 -1.1 C 0 km/h
2012 23-12-2010 18:25:01 -1.1 C 3.91 g/m*3 -1.1 C 0 km/h
2013 23-12-2010 18:37:02 -1.2 C 3.88 g/m*3 -1.2 C 0 km/h
2014 23-12-2010 18:49:02 -1.2 C 3.88 g/m*3 -1.2 C 0 km/h
2015 23-12-2010 19:01:02 -1.2 C 3.88 g/m*3 -1.2 C 0 km/h
2016 23-12-2010 19:13:02 -1.2 C 3.88 g/m*3 -1.2 C 0 km/h
2017 23-12-2010 19:25:01 -1.3 C 3.85 g/m*3 -1.3 C 0 km/h
2018 23-12-2010 19:37:02 -1.3 C 3.81 g/m*3 -1.3 C 0 km/h
2019 23-12-2010 19:49:02 -1.3 C 3.81 g/m*3 -1.3 C 0 km/h
2020 23-12-2010 20:01:02 -1.4 C 3.78 g/m*3 -1.4 C 0 km/h
2021 23-12-2010 20:13:02 -1.3 C 3.85 g/m*3 -1.3 C 0 km/h
2022 23-12-2010 20:25:02 -1.2 C 3.88 g/m*3 -1.2 C 0 km/h
2023 23-12-2010 20:37:02 -1.2 C 3.83 g/m*3 -1.2 C 0 km/h
2024 23-12-2010 20:49:02 -1.2 C 3.83 g/m*3 -1.2 C 0 km/h
2025 23-12-2010 21:01:02 -1.2 C 3.83 g/m*3 -1.2 C 0 km/h
Sensor: Nr:Datum:Temp:Abs-Feuchte:Windchill:Wind:
Aussen-T/F 2026 23-12-2010 21:13:02 -1.2 C 3.83 g/m*3 -1.2 C 0 km/h
2027 23-12-2010 21:25:02 -1.1 C 3.86 g/m*3 -1.1 C 0 km/h
2028 23-12-2010 21:37:01 -1 C 3.89 g/m*3 -1 C 0 km/h
2029 23-12-2010 21:50:02 -1 C 3.89 g/m*3 -1 C 0 km/h
2030 23-12-2010 22:02:02 -0.9 C 3.91 g/m*3 -0.9 C 0 km/h
2031 23-12-2010 22:14:02 -1 C 3.89 g/m*3 -1 C 0 km/h
2032 23-12-2010 22:26:02 -1 C 3.89 g/m*3 -1 C 0 km/h
2033 23-12-2010 22:38:02 -0.9 C 3.96 g/m*3 -0.9 C 0 km/h
2034 23-12-2010 22:50:02 -0.9 C 3.96 g/m*3 -0.9 C 0 km/h
2035 23-12-2010 23:02:02 -0.9 C 3.96 g/m*3 -0.9 C 0 km/h
2036 23-12-2010 23:14:02 -0.8 C 3.99 g/m*3 -0.8 C 0 km/h
2037 23-12-2010 23:26:03 -0.7 C 4.02 g/m*3 -0.7 C 0 km/h
2038 23-12-2010 23:38:03 -0.8 C 3.94 g/m*3 -0.8 C 0 km/h
2039 23-12-2010 23:50:03 -0.8 C 3.99 g/m*3 -0.8 C 0 km/h
2040 24-12-2010 00:02:03 -0.9 C 3.91 g/m*3 -0.9 C 0 km/h
2041 24-12-2010 00:14:03 -0.9 C 3.91 g/m*3 -0.9 C 0 km/h
2042 24-12-2010 00:26:03 -0.9 C 3.91 g/m*3 -0.9 C 0 km/h
2043 24-12-2010 00:38:03 -0.9 C 3.91 g/m*3 -0.9 C 0 km/h
2044 24-12-2010 00:50:03 -0.9 C 3.91 g/m*3 -0.9 C 0 km/h
2045 24-12-2010 01:02:03 -0.9 C 3.91 g/m*3 -0.9 C 0 km/h
2046 24-12-2010 01:14:03 -0.9 C 3.96 g/m*3 -0.9 C 0 km/h
2047 24-12-2010 01:26:03 -0.7 C 4.02 g/m*3 -0.7 C 0 km/h
2048 24-12-2010 01:38:03 -0.7 C 3.97 g/m*3 -0.7 C 0 km/h
2049 24-12-2010 01:50:03 -0.5 C 4.03 g/m*3 -0.5 C 0 km/h
2050 24-12-2010 02:02:03 -0.6 C 4 g/m*3 -0.6 C 0 km/h
Sensor: Nr:Datum:Temp:Abs-Feuchte:Windchill:Wind:
Aussen-T/F 2051 24-12-2010 02:14:03 -0.6 C 4 g/m*3 -0.6 C 0 km/h
2052 24-12-2010 02:26:03 -0.5 C 4.03 g/m*3 -0.5 C 0 km/h
2053 24-12-2010 02:38:03 -0.4 C 4.05 g/m*3 -0.4 C 0 km/h
2054 24-12-2010 02:50:03 -0.4 C 4.05 g/m*3 -0.4 C 0 km/h
2055 24-12-2010 03:02:03 -0.4 C 4.05 g/m*3 -0.4 C 0 km/h
2056 24-12-2010 03:14:03 -0.5 C 4.03 g/m*3 -0.5 C 0 km/h
2057 24-12-2010 03:26:03 -0.5 C 4.03 g/m*3 -0.5 C 0 km/h
2058 24-12-2010 03:38:04 -0.5 C 4.03 g/m*3 -0.5 C 0 km/h
2059 24-12-2010 03:50:04 -0.5 C 4.03 g/m*3 -0.5 C 0 km/h
2060 24-12-2010 04:02:04 -0.5 C 4.03 g/m*3 -0.5 C 0 km/h
2061 24-12-2010 04:14:04 -0.5 C 4.03 g/m*3 -0.5 C 0 km/h
2062 24-12-2010 04:26:04 -0.5 C 4.03 g/m*3 -0.5 C 0 km/h
2063 24-12-2010 04:38:04 -0.5 C 4.03 g/m*3 -0.5 C 0 km/h
2064 24-12-2010 04:50:04 -0.5 C 4.03 g/m*3 -0.5 C 0 km/h
2065 24-12-2010 05:02:04 -0.5 C 3.98 g/m*3 -0.5 C 0 km/h
2066 24-12-2010 05:14:04 -0.7 C 3.92 g/m*3 -0.7 C 0 km/h
2067 24-12-2010 05:26:04 -0.7 C 3.92 g/m*3 -0.7 C 0 km/h
2068 24-12-2010 05:38:04 -0.9 C 3.87 g/m*3 -0.9 C 0 km/h
2069 24-12-2010 05:50:04 -0.9 C 3.87 g/m*3 -0.9 C 0 km/h
2070 24-12-2010 06:02:04 -0.9 C 3.87 g/m*3 -0.9 C 0 km/h
2071 24-12-2010 06:14:04 -1 C 3.8 g/m*3 -1 C 0 km/h
2072 24-12-2010 06:26:04 -1 C 3.8 g/m*3 -1 C 0 km/h
2073 24-12-2010 06:38:04 -0.9 C 3.78 g/m*3 -0.9 C 0 km/h
2074 24-12-2010 06:50:04 -1 C 3.71 g/m*3 -1 C 0 km/h
2075 24-12-2010 07:02:04 -1.1 C 3.68 g/m*3 -1.1 C 0 km/h
Sensor: Nr:Datum:Temp:Abs-Feuchte:Windchill:Wind:
Aussen-T/F 2076 24-12-2010 07:14:04 -1.2 C 3.66 g/m*3 -1.2 C 0 km/h
2077 24-12-2010 07:26:04 -1.2 C 3.61 g/m*3 -1.2 C 0 km/h
2078 24-12-2010 07:38:04 -1.2 C 3.61 g/m*3 -1.2 C 0 km/h
2079 24-12-2010 07:50:04 -1.3 C 3.63 g/m*3 -1.3 C 0 km/h
2080 24-12-2010 08:02:05 -1.3 C 3.63 g/m*3 -1.3 C 0 km/h
2081 24-12-2010 08:14:05 -1.4 C 3.65 g/m*3 -1.4 C 0 km/h
2082 24-12-2010 08:26:05 -1.5 C 3.62 g/m*3 -1.5 C 0 km/h
2083 24-12-2010 08:38:05 -1.6 C 3.64 g/m*3 -1.6 C 0 km/h
2084 24-12-2010 08:50:05 -1.6 C 3.64 g/m*3 -1.6 C 0 km/h
2085 24-12-2010 09:02:02 -1.7 C 3.66 g/m*3 -1.7 C 0 km/h
2086 24-12-2010 09:14:02 -1.7 C 3.66 g/m*3 -1.7 C 0 km/h
2087 24-12-2010 09:26:02 -1.7 C 3.66 g/m*3 -1.7 C 0 km/h
2088 24-12-2010 09:38:02 -1.7 C 3.66 g/m*3 -1.7 C 0 km/h
2089 24-12-2010 09:50:02 -1.7 C 3.66 g/m*3 -1.7 C 0 km/h
2090 24-12-2010 10:02:02 -1.7 C 3.66 g/m*3 -1.7 C 0 km/h
2091 24-12-2010 10:14:02 -1.6 C 3.68 g/m*3 -1.6 C 0 km/h
2092 24-12-2010 10:26:02 -1.6 C 3.68 g/m*3 -1.6 C 0 km/h
2093 24-12-2010 10:38:02 -1.5 C 3.67 g/m*3 -1.5 C 0 km/h
2094 24-12-2010 10:50:01 -1.3 C 3.72 g/m*3 -1.3 C 0 km/h
2095 24-12-2010 11:02:02 -1.5 C 3.67 g/m*3 -1.5 C 0 km/h
2096 24-12-2010 11:14:02 -1.3 C 3.72 g/m*3 -1.3 C 0 km/h
2097 24-12-2010 11:26:01 -1.3 C 3.67 g/m*3 -1.3 C 0 km/h
2098 24-12-2010 11:38:02 -1.2 C 3.66 g/m*3 -1.2 C 0 km/h
2099 24-12-2010 11:50:03 -1.3 C 3.63 g/m*3 -1.3 C 0 km/h
2100 24-12-2010 12:02:02 -1.3 C 3.59 g/m*3 -1.3 C 0 km/h
Sensor: Nr:Datum:Temp:Abs-Feuchte:Windchill:Wind:
Aussen-T/F 2101 24-12-2010 12:14:02 -1.3 C 3.59 g/m*3 -1.3 C 0 km/h
2102 24-12-2010 12:26:02 -1.6 C 3.51 g/m*3 -1.6 C 0 km/h
2103 24-12-2010 12:38:02 -1.4 C 3.56 g/m*3 -1.4 C 0 km/h
2104 24-12-2010 12:50:02 -1.1 C 3.64 g/m*3 -1.1 C 0 km/h
2105 24-12-2010 13:02:02 -1.3 C 3.54 g/m*3 -1.3 C 0 km/h
2106 24-12-2010 13:14:02 -1.4 C 3.52 g/m*3 -1.4 C 0 km/h
2107 24-12-2010 13:26:01 -1.4 C 3.52 g/m*3 -1.4 C 0 km/h
2108 24-12-2010 13:38:02 -1.4 C 3.52 g/m*3 -1.4 C 0 km/h
2109 24-12-2010 13:50:02 -1.4 C 3.52 g/m*3 -1.4 C 0 km/h
2110 24-12-2010 14:02:02 -1.4 C 3.52 g/m*3 -1.4 C 0 km/h
2111 24-12-2010 14:14:02 -1.4 C 3.52 g/m*3 -1.4 C 0 km/h
2112 24-12-2010 14:26:02 -1.4 C 3.52 g/m*3 -1.4 C 0 km/h
2113 24-12-2010 14:38:02 -1.4 C 3.52 g/m*3 -1.4 C 0 km/h
2114 24-12-2010 14:50:02 -1.4 C 3.52 g/m*3 -1.4 C 0 km/h
2115 24-12-2010 15:02:02 -1.4 C 3.52 g/m*3 -1.4 C 0 km/h
2116 24-12-2010 15:14:02 -1.4 C 3.52 g/m*3 -1.4 C 0 km/h
2117 24-12-2010 15:26:02 -2 C 3.46 g/m*3 -2 C 0 km/h
2118 24-12-2010 15:38:02 -2.2 C 3.41 g/m*3 -2.2 C 0 km/h
2119 24-12-2010 15:50:01 -2.2 C 3.41 g/m*3 -2.2 C 0 km/h
2120 24-12-2010 16:02:02 -2.2 C 3.41 g/m*3 -2.2 C 0 km/h
2121 24-12-2010 16:14:02 -2.4 C 3.36 g/m*3 -2.4 C 0 km/h
2122 24-12-2010 16:26:01 -2.5 C 3.34 g/m*3 -2.5 C 0 km/h
2123 24-12-2010 16:38:01 -2.5 C 3.34 g/m*3 -2.5 C 0 km/h
2124 24-12-2010 16:50:01 -2.5 C 3.3 g/m*3 -2.5 C 0 km/h
2125 24-12-2010 17:02:01 -2.5 C 3.26 g/m*3 -2.5 C 0 km/h
Sensor: Nr:Datum:Temp:Abs-Feuchte:Windchill:Wind:
Aussen-T/F 2126 24-12-2010 17:14:01 -2.5 C 3.26 g/m*3 -2.5 C 0 km/h
2127 24-12-2010 17:26:02 -2.5 C 3.21 g/m*3 -2.5 C 0 km/h
2128 24-12-2010 17:38:02 -2.6 C 3.19 g/m*3 -2.6 C 0 km/h
2129 24-12-2010 17:50:02 -2.7 C 3.17 g/m*3 -2.7 C 0 km/h
2130 24-12-2010 18:02:02 -2.7 C 3.25 g/m*3 -2.7 C 0 km/h
2131 24-12-2010 18:14:02 -2.8 C 3.23 g/m*3 -2.8 C 0 km/h
2132 24-12-2010 18:26:02 -2.8 C 3.23 g/m*3 -2.8 C 0 km/h
2133 24-12-2010 18:38:02 -2.9 C 3.2 g/m*3 -2.9 C 0 km/h
2134 24-12-2010 18:50:02 -2.8 C 3.23 g/m*3 -2.8 C 0 km/h
2135 24-12-2010 19:02:02 -2.9 C 3.16 g/m*3 -2.9 C 0 km/h
2136 24-12-2010 19:14:03 -2.9 C 3.16 g/m*3 -2.9 C 0 km/h
2137 24-12-2010 19:26:02 -2.9 C 3.13 g/m*3 -2.9 C 0 km/h
2138 24-12-2010 19:38:02 -3 C 3.1 g/m*3 -3 C 0 km/h
2139 24-12-2010 19:50:01 -3 C 3.1 g/m*3 -3 C 0 km/h
2140 24-12-2010 20:02:01 -3 C 3.1 g/m*3 -3 C 0 km/h
2141 24-12-2010 20:14:01 -3 C 3.14 g/m*3 -3 C 0 km/h
2142 24-12-2010 20:26:02 -3 C 3.1 g/m*3 -3 C 0 km/h
2143 24-12-2010 20:38:01 -3 C 3.1 g/m*3 -3 C 0 km/h
2144 24-12-2010 20:50:01 -3.1 C 3.08 g/m*3 -3.1 C 0 km/h
2145 24-12-2010 21:02:01 -3.1 C 3.08 g/m*3 -3.1 C 0 km/h
2146 24-12-2010 21:14:01 -3.2 C 3.06 g/m*3 -3.2 C 0 km/h
2147 24-12-2010 21:19:02 -3.2 C 3.06 g/m*3 -3.2 C 0 km/h
2148 24-12-2010 21:31:01 -3.3 C 3.04 g/m*3 -3.3 C 0 km/h
2149 24-12-2010 21:43:01 -3.3 C 3.04 g/m*3 -3.3 C 0 km/h
2150 24-12-2010 21:55:02 -3.3 C 3.08 g/m*3 -3.3 C 0 km/h
Sensor: Nr:Datum:Temp:Abs-Feuchte:Windchill:Wind:
Aussen-T/F 2151 24-12-2010 22:07:01 -3.4 C 3.05 g/m*3 -3.4 C 0 km/h
2152 24-12-2010 22:19:01 -3.5 C 3.03 g/m*3 -3.5 C 0 km/h
2153 24-12-2010 22:31:02 -3.6 C 3.01 g/m*3 -3.6 C 0 km/h
2154 24-12-2010 22:43:02 -3.6 C 3.01 g/m*3 -3.6 C 0 km/h
2155 24-12-2010 22:55:02 -3.7 C 2.99 g/m*3 -3.7 C 0 km/h
2156 24-12-2010 23:07:02 -3.7 C 2.99 g/m*3 -3.7 C 0 km/h
2157 24-12-2010 23:19:02 -3.7 C 2.99 g/m*3 -3.7 C 0 km/h
2158 24-12-2010 23:31:02 -3.7 C 2.99 g/m*3 -3.7 C 0 km/h
2159 24-12-2010 23:43:02 -3.8 C 2.97 g/m*3 -3.8 C 0 km/h
2160 24-12-2010 23:56:02 -3.8 C 2.97 g/m*3 -3.8 C 0 km/h
2161 25-12-2010 00:08:02 -3.8 C 2.97 g/m*3 -3.8 C 0 km/h
2162 25-12-2010 00:20:02 -3.8 C 2.97 g/m*3 -3.8 C 0 km/h
2163 25-12-2010 00:32:02 -3.8 C 2.97 g/m*3 -3.8 C 0 km/h
2164 25-12-2010 00:44:03 -3.8 C 2.93 g/m*3 -3.8 C 0 km/h
2165 25-12-2010 00:56:03 -3.9 C 2.87 g/m*3 -3.9 C 0 km/h
2166 25-12-2010 01:08:03 -3.9 C 2.87 g/m*3 -3.9 C 0 km/h
2167 25-12-2010 01:20:03 -3.9 C 2.87 g/m*3 -3.9 C 0 km/h
2168 25-12-2010 01:32:03 -3.9 C 2.87 g/m*3 -3.9 C 0 km/h
2169 25-12-2010 01:44:03 -3.9 C 2.87 g/m*3 -3.9 C 0 km/h
2170 25-12-2010 01:56:03 -4 C 2.89 g/m*3 -4 C 0 km/h
2171 25-12-2010 02:08:03 -4.1 C 2.87 g/m*3 -4.1 C 0 km/h
2172 25-12-2010 02:20:03 -4.1 C 2.91 g/m*3 -4.1 C 0 km/h
2173 25-12-2010 02:32:03 -4.1 C 2.87 g/m*3 -4.1 C 0 km/h
2174 25-12-2010 02:44:03 -4.1 C 2.87 g/m*3 -4.1 C 0 km/h
2175 25-12-2010 02:56:03 -4 C 2.85 g/m*3 -4 C 0 km/h
Sensor: Nr:Datum:Temp:Abs-Feuchte:Windchill:Wind:
Aussen-T/F 2176 25-12-2010 03:08:03 -4.1 C 2.83 g/m*3 -4.1 C 0 km/h
2177 25-12-2010 03:20:03 -4.1 C 2.83 g/m*3 -4.1 C 0 km/h
2178 25-12-2010 03:32:03 -4.2 C 2.81 g/m*3 -4.2 C 0 km/h
2179 25-12-2010 03:44:03 -4.2 C 2.81 g/m*3 -4.2 C 0 km/h
2180 25-12-2010 03:56:03 -4.2 C 2.78 g/m*3 -4.2 C 0 km/h
2181 25-12-2010 04:08:03 -4.2 C 2.74 g/m*3 -4.2 C 0 km/h
2182 25-12-2010 04:20:03 -4.2 C 2.7 g/m*3 -4.2 C 0 km/h
2183 25-12-2010 04:32:03 -4.2 C 2.67 g/m*3 -4.2 C 0 km/h
2184 25-12-2010 04:44:03 -4.3 C 2.65 g/m*3 -4.3 C 0 km/h
2185 25-12-2010 04:56:04 -4.4 C 2.63 g/m*3 -4.4 C 0 km/h
2186 25-12-2010 05:08:04 -4.4 C 2.63 g/m*3 -4.4 C 0 km/h
2187 25-12-2010 05:20:04 -4.4 C 2.6 g/m*3 -4.4 C 0 km/h
2188 25-12-2010 05:32:04 -4.5 C 2.58 g/m*3 -4.5 C 0 km/h
2189 25-12-2010 05:44:04 -4.5 C 2.58 g/m*3 -4.5 C 0 km/h
2190 25-12-2010 05:56:04 -4.5 C 2.54 g/m*3 -4.5 C 0 km/h
2191 25-12-2010 06:08:04 -4.6 C 2.52 g/m*3 -4.6 C 0 km/h
2192 25-12-2010 06:20:04 -4.6 C 2.52 g/m*3 -4.6 C 0 km/h
2193 25-12-2010 06:32:04 -4.6 C 2.52 g/m*3 -4.6 C 0 km/h
2194 25-12-2010 06:44:04 -4.6 C 2.52 g/m*3 -4.6 C 0 km/h
2195 25-12-2010 06:56:04 -4.7 C 2.47 g/m*3 -4.7 C 0 km/h
2196 25-12-2010 07:08:04 -4.7 C 2.44 g/m*3 -4.7 C 0 km/h
2197 25-12-2010 07:20:04 -4.7 C 2.44 g/m*3 -4.7 C 0 km/h
2198 25-12-2010 07:32:04 -4.7 C 2.44 g/m*3 -4.7 C 0 km/h
2199 25-12-2010 07:44:04 -4.7 C 2.47 g/m*3 -4.7 C 0 km/h
2200 25-12-2010 07:56:04 -4.8 C 2.45 g/m*3 -4.8 C 0 km/h
Sensor: Nr:Datum:Temp:Abs-Feuchte:Windchill:Wind:
Aussen-T/F 2201 25-12-2010 08:08:04 -4.7 C 2.47 g/m*3 -4.7 C 0 km/h
2202 25-12-2010 08:20:04 -4.7 C 2.47 g/m*3 -4.7 C 0 km/h
2203 25-12-2010 08:32:04 -4.8 C 2.49 g/m*3 -4.8 C 0 km/h
2204 25-12-2010 08:44:04 -4.9 C 2.47 g/m*3 -4.9 C 0 km/h
2205 25-12-2010 08:56:05 -4.9 C 2.47 g/m*3 -4.9 C 0 km/h
2206 25-12-2010 09:08:05 -4.9 C 2.43 g/m*3 -4.9 C 0 km/h
2207 25-12-2010 09:20:05 -4.8 C 2.45 g/m*3 -4.8 C 0 km/h
2208 25-12-2010 09:32:02 -4.9 C 2.43 g/m*3 -4.9 C 0 km/h
2209 25-12-2010 09:44:02 -4.8 C 2.42 g/m*3 -4.8 C 0 km/h
2210 25-12-2010 09:56:02 -4.7 C 2.44 g/m*3 -4.7 C 0 km/h
2211 25-12-2010 10:08:02 -4.7 C 2.4 g/m*3 -4.7 C 0 km/h
2212 25-12-2010 10:20:02 -4.7 C 2.37 g/m*3 -4.7 C 0 km/h
2213 25-12-2010 10:32:02 -4.7 C 2.33 g/m*3 -4.7 C 0 km/h
2214 25-12-2010 10:44:02 -4.6 C 2.31 g/m*3 -4.6 C 0 km/h
2215 25-12-2010 10:56:02 -4.2 C 2.38 g/m*3 -4.2 C 0 km/h
2216 25-12-2010 11:08:02 -4.5 C 2.29 g/m*3 -4.5 C 0 km/h
2217 25-12-2010 11:20:03 -4.1 C 2.29 g/m*3 -4.1 C 0 km/h
2218 25-12-2010 11:32:02 -4.3 C 2.18 g/m*3 -4.3 C 0 km/h
2219 25-12-2010 11:44:02 -4.9 C 2.06 g/m*3 -4.9 C 0 km/h
2220 25-12-2010 11:56:03 -4.7 C 2.09 g/m*3 -4.7 C 0 km/h
2221 25-12-2010 12:08:02 -4.9 C 2.06 g/m*3 -4.9 C 0 km/h
2222 25-12-2010 12:20:02 -5.2 C 2.01 g/m*3 -5.2 C 0 km/h
2223 25-12-2010 12:32:02 -4.9 C 2.09 g/m*3 -4.9 C 0 km/h
2224 25-12-2010 12:44:02 -4.9 C 2.09 g/m*3 -4.9 C 0 km/h
2225 25-12-2010 12:56:02 -5 C 2.08 g/m*3 -5 C 0 km/h
Sensor: Nr:Datum:Temp:Abs-Feuchte:Windchill:Wind:
Aussen-T/F 2226 25-12-2010 13:08:02 -4.6 C 2.17 g/m*3 -4.6 C 0 km/h
2227 25-12-2010 13:20:02 -4.5 C 2.19 g/m*3 -4.5 C 0 km/h
2228 25-12-2010 13:32:02 -4.7 C 2.19 g/m*3 -4.7 C 0 km/h
2229 25-12-2010 13:44:02 -5.1 C 2.13 g/m*3 -5.1 C 0 km/h
2230 25-12-2010 13:56:02 -4.7 C 2.23 g/m*3 -4.7 C 0 km/h
2231 25-12-2010 14:08:01 -5 C 2.11 g/m*3 -5 C 0 km/h
2232 25-12-2010 14:20:02 -4.9 C 2.13 g/m*3 -4.9 C 0 km/h
2233 25-12-2010 14:32:02 -4.9 C 2.09 g/m*3 -4.9 C 0 km/h
2234 25-12-2010 14:44:02 -4.8 C 2.11 g/m*3 -4.8 C 0 km/h
2235 25-12-2010 14:56:02 -5 C 2.08 g/m*3 -5 C 0 km/h
2236 25-12-2010 15:08:02 -5 C 2.11 g/m*3 -5 C 0 km/h
2237 25-12-2010 15:20:02 -5.4 C 2.05 g/m*3 -5.4 C 0 km/h
2238 25-12-2010 15:32:02 -5.6 C 2.05 g/m*3 -5.6 C 0 km/h
2239 25-12-2010 15:44:02 -5.7 C 2.1 g/m*3 -5.7 C 0 km/h
2240 25-12-2010 15:56:01 -6 C 2.12 g/m*3 -6 C 0 km/h
2241 25-12-2010 16:08:02 -6.4 C 2.12 g/m*3 -6.4 C 0 km/h
2242 25-12-2010 16:20:01 -6.7 C 2.11 g/m*3 -6.7 C 0 km/h
2243 25-12-2010 16:32:01 -6.8 C 2.12 g/m*3 -6.8 C 0 km/h
2244 25-12-2010 16:44:01 -7.3 C 2.07 g/m*3 -7.3 C 0 km/h
2245 25-12-2010 16:56:01 -6.9 C 2.19 g/m*3 -6.9 C 0 km/h
2246 25-12-2010 17:08:01 -7.4 C 2.12 g/m*3 -7.4 C 0 km/h
2247 25-12-2010 17:20:02 -7.6 C 2.11 g/m*3 -7.6 C 0 km/h
2248 25-12-2010 17:32:01 -7.8 C 2.08 g/m*3 -7.8 C 0 km/h
2249 25-12-2010 17:44:01 -7.3 C 2.19 g/m*3 -7.3 C 0 km/h
2250 25-12-2010 17:56:02 -7.5 C 2.13 g/m*3 -7.5 C 0 km/h
Sensor: Nr:Datum:Temp:Abs-Feuchte:Windchill:Wind:
Aussen-T/F 2251 25-12-2010 18:08:01 -7.6 C 2.14 g/m*3 -7.6 C 0 km/h
2252 25-12-2010 18:20:02 -7.5 C 2.16 g/m*3 -7.5 C 0 km/h
2253 25-12-2010 18:32:01 -7.4 C 2.2 g/m*3 -7.4 C 0 km/h
2254 25-12-2010 18:44:01 -7.4 C 2.17 g/m*3 -7.4 C 0 km/h
2255 25-12-2010 18:56:02 -7.4 C 2.17 g/m*3 -7.4 C 0 km/h
2256 25-12-2010 19:08:02 -7.4 C 2.17 g/m*3 -7.4 C 0 km/h
2257 25-12-2010 19:20:02 -7.4 C 2.17 g/m*3 -7.4 C 0 km/h
2258 25-12-2010 19:32:03 -7.4 C 2.17 g/m*3 -7.4 C 0 km/h
2259 25-12-2010 19:44:03 -7.4 C 2.17 g/m*3 -7.4 C 0 km/h
2260 25-12-2010 19:56:02 -7.4 C 2.17 g/m*3 -7.4 C 0 km/h
2261 25-12-2010 20:08:01 -7.4 C 2.17 g/m*3 -7.4 C 0 km/h
2262 25-12-2010 20:20:02 -8.8 C 2.04 g/m*3 -8.8 C 0 km/h
2263 25-12-2010 20:32:02 -9.2 C 1.98 g/m*3 -9.2 C 0 km/h
2264 25-12-2010 20:44:02 -8.6 C 2.09 g/m*3 -8.6 C 0 km/h
2265 25-12-2010 20:56:02 -7.7 C 2.26 g/m*3 -7.7 C 0 km/h
2266 25-12-2010 21:08:02 -7.6 C 2.31 g/m*3 -7.6 C 0 km/h
2267 25-12-2010 21:20:02 -7.7 C 2.26 g/m*3 -7.7 C 0 km/h
2268 25-12-2010 21:32:02 -7.6 C 2.28 g/m*3 -7.6 C 0 km/h
2269 25-12-2010 21:44:02 -7.2 C 2.35 g/m*3 -7.2 C 0 km/h
2270 25-12-2010 21:56:01 -6.9 C 2.37 g/m*3 -6.9 C 0 km/h
2271 25-12-2010 22:08:02 -6.8 C 2.36 g/m*3 -6.8 C 0 km/h
2272 25-12-2010 22:20:01 -6.9 C 2.31 g/m*3 -6.9 C 0 km/h
2273 25-12-2010 22:32:01 -6.8 C 2.33 g/m*3 -6.8 C 0 km/h
2274 25-12-2010 22:44:01 -6.8 C 2.27 g/m*3 -6.8 C 0 km/h
2275 25-12-2010 22:56:01 -6.7 C 2.26 g/m*3 -6.7 C 0 km/h
Sensor: Nr:Datum:Temp:Abs-Feuchte:Windchill:Wind:
Aussen-T/F 2276 25-12-2010 23:08:02 -6.8 C 2.18 g/m*3 -6.8 C 0 km/h
2277 25-12-2010 23:20:02 -6.8 C 2.18 g/m*3 -6.8 C 0 km/h
2278 25-12-2010 23:32:01 -6.9 C 2.16 g/m*3 -6.9 C 0 km/h
2279 25-12-2010 23:44:01 -6.8 C 2.18 g/m*3 -6.8 C 0 km/h
2280 25-12-2010 23:56:02 -6.8 C 2.18 g/m*3 -6.8 C 0 km/h
2281 26-12-2010 00:08:01 -6.8 C 2.18 g/m*3 -6.8 C 0 km/h
2282 26-12-2010 00:20:01 -6.9 C 2.16 g/m*3 -6.9 C 0 km/h
2283 26-12-2010 00:32:01 -7 C 2.12 g/m*3 -7 C 0 km/h
2284 26-12-2010 00:44:01 -7.3 C 2.07 g/m*3 -7.3 C 0 km/h
2285 26-12-2010 00:56:01 -7.4 C 2.09 g/m*3 -7.4 C 0 km/h
2286 26-12-2010 01:08:02 -7.8 C 2 g/m*3 -7.8 C 0 km/h
2287 26-12-2010 01:20:02 -7.9 C 2.01 g/m*3 -7.9 C 0 km/h
2288 26-12-2010 01:32:01 -8 C 2 g/m*3 -8 C 0 km/h
2289 26-12-2010 01:44:01 -8.2 C 1.97 g/m*3 -8.2 C 0 km/h
2290 26-12-2010 01:56:01 -8.1 C 1.98 g/m*3 -8.1 C 0 km/h
2291 26-12-2010 02:08:01 -8.6 C 1.88 g/m*3 -8.6 C 0 km/h
2292 26-12-2010 02:20:02 -8.7 C 1.9 g/m*3 -8.7 C 0 km/h
2293 26-12-2010 02:32:01 -8.8 C 1.88 g/m*3 -8.8 C 0 km/h
2294 26-12-2010 02:44:01 -8.9 C 1.87 g/m*3 -8.9 C 0 km/h
2295 26-12-2010 02:57:05 -8.9 C 1.87 g/m*3 -8.9 C 0 km/h
2296 26-12-2010 03:09:05 -9 C 1.83 g/m*3 -9 C 0 km/h
2297 26-12-2010 03:21:04 -9.1 C 1.81 g/m*3 -9.1 C 0 km/h
2298 26-12-2010 03:33:02 -9.1 C 1.81 g/m*3 -9.1 C 0 km/h
2299 26-12-2010 03:45:02 -9 C 1.83 g/m*3 -9 C 0 km/h
2300 26-12-2010 03:57:02 -9 C 1.83 g/m*3 -9 C 0 km/h
Sensor: Nr:Datum:Temp:Abs-Feuchte:Windchill:Wind:
Aussen-T/F 2301 26-12-2010 04:09:02 -9 C 1.83 g/m*3 -9 C 0 km/h
2302 26-12-2010 04:21:02 -9.2 C 1.83 g/m*3 -9.2 C 0 km/h
2303 26-12-2010 04:33:02 -9.1 C 1.86 g/m*3 -9.1 C 0 km/h
2304 26-12-2010 04:45:02 -8.9 C 1.89 g/m*3 -8.9 C 0 km/h
2305 26-12-2010 04:57:02 -9 C 1.85 g/m*3 -9 C 0 km/h
2306 26-12-2010 05:09:02 -8.8 C 1.91 g/m*3 -8.8 C 0 km/h
2307 26-12-2010 05:21:02 -8.6 C 1.91 g/m*3 -8.6 C 0 km/h
2308 26-12-2010 05:33:02 -8.6 C 1.91 g/m*3 -8.6 C 0 km/h
2309 26-12-2010 05:45:02 -8.2 C 1.97 g/m*3 -8.2 C 0 km/h
2310 26-12-2010 05:57:02 -8 C 2.02 g/m*3 -8 C 0 km/h
2311 26-12-2010 06:09:02 -7.6 C 2.06 g/m*3 -7.6 C 0 km/h
2312 26-12-2010 06:21:02 -7.4 C 2.09 g/m*3 -7.4 C 0 km/h
2313 26-12-2010 06:33:01 -7.3 C 2.1 g/m*3 -7.3 C 0 km/h
2314 26-12-2010 06:45:02 -7 C 2.15 g/m*3 -7 C 0 km/h
2315 26-12-2010 06:57:02 -6.9 C 2.16 g/m*3 -6.9 C 0 km/h
2316 26-12-2010 07:09:01 -6.7 C 2.2 g/m*3 -6.7 C 0 km/h
2317 26-12-2010 07:21:01 -6.4 C 2.25 g/m*3 -6.4 C 0 km/h
2318 26-12-2010 07:33:02 -6.2 C 2.28 g/m*3 -6.2 C 0 km/h
2319 26-12-2010 07:45:02 -6.2 C 2.25 g/m*3 -6.2 C 0 km/h
2320 26-12-2010 07:57:02 -6.2 C 2.25 g/m*3 -6.2 C 0 km/h
2321 26-12-2010 08:09:02 -6.1 C 2.3 g/m*3 -6.1 C 0 km/h
2322 26-12-2010 08:21:02 -5.9 C 2.36 g/m*3 -5.9 C 0 km/h
2323 26-12-2010 08:33:02 -5.8 C 2.35 g/m*3 -5.8 C 0 km/h
2324 26-12-2010 08:45:02 -5.8 C 2.38 g/m*3 -5.8 C 0 km/h
2325 26-12-2010 08:57:02 -5.6 C 2.45 g/m*3 -5.6 C 0 km/h
Sensor: Nr:Datum:Temp:Abs-Feuchte:Windchill:Wind:
Aussen-T/F 2326 26-12-2010 09:09:02 -5.4 C 2.51 g/m*3 -5.4 C 0 km/h
2327 26-12-2010 09:21:02 -5.2 C 2.55 g/m*3 -5.2 C 0 km/h
2328 26-12-2010 09:33:02 -4.7 C 2.64 g/m*3 -4.7 C 0 km/h
2329 26-12-2010 09:45:02 -4.6 C 2.63 g/m*3 -4.6 C 0 km/h
2330 26-12-2010 09:57:02 -4.5 C 2.65 g/m*3 -4.5 C 0 km/h
2331 26-12-2010 10:09:02 -4.5 C 2.65 g/m*3 -4.5 C 0 km/h
2332 26-12-2010 10:21:02 -4.4 C 2.67 g/m*3 -4.4 C 0 km/h
2333 26-12-2010 10:33:02 -4.4 C 2.67 g/m*3 -4.4 C 0 km/h
2334 26-12-2010 10:45:02 -4.1 C 2.69 g/m*3 -4.1 C 0 km/h
2335 26-12-2010 10:57:02 -3.8 C 2.71 g/m*3 -3.8 C 0 km/h
2336 26-12-2010 11:09:03 -3.6 C 2.71 g/m*3 -3.6 C 0 km/h
2337 26-12-2010 11:21:02 -3.5 C 2.69 g/m*3 -3.5 C 0 km/h
2338 26-12-2010 11:33:02 -3.7 C 2.65 g/m*3 -3.7 C 0 km/h
2339 26-12-2010 11:45:02 -3.5 C 2.69 g/m*3 -3.5 C 0 km/h
2340 26-12-2010 11:57:02 -3.3 C 2.69 g/m*3 -3.3 C 0 km/h
2341 26-12-2010 12:09:02 -3.4 C 2.71 g/m*3 -3.4 C 0 km/h
2342 26-12-2010 12:21:02 -3.3 C 2.73 g/m*3 -3.3 C 0 km/h
2343 26-12-2010 12:33:01 -3 C 2.83 g/m*3 -3 C 0 km/h
2344 26-12-2010 12:45:02 -3.1 C 2.81 g/m*3 -3.1 C 0 km/h
2345 26-12-2010 12:57:03 -2.9 C 2.85 g/m*3 -2.9 C 0 km/h
2346 26-12-2010 13:09:01 -2.8 C 2.87 g/m*3 -2.8 C 0 km/h
2347 26-12-2010 13:21:01 -2.6 C 2.87 g/m*3 -2.6 C 0 km/h
2348 26-12-2010 13:33:02 -2.7 C 2.81 g/m*3 -2.7 C 0 km/h
2349 26-12-2010 13:45:02 -2.8 C 2.83 g/m*3 -2.8 C 0 km/h
2350 26-12-2010 13:57:02 -2.7 C 2.89 g/m*3 -2.7 C 0 km/h
Sensor: Nr:Datum:Temp:Abs-Feuchte:Windchill:Wind:
Aussen-T/F 2351 26-12-2010 14:09:02 -2.8 C 2.91 g/m*3 -2.8 C 0 km/h
2352 26-12-2010 14:21:01 -2.7 C 2.97 g/m*3 -2.7 C 0 km/h
2353 26-12-2010 14:33:02 -2.4 C 3.07 g/m*3 -2.4 C 0 km/h
2354 26-12-2010 14:45:02 -2.7 C 3.01 g/m*3 -2.7 C 0 km/h
2355 26-12-2010 14:57:02 -2.7 C 3.05 g/m*3 -2.7 C 0 km/h
2356 26-12-2010 15:09:02 -2.6 C 3.11 g/m*3 -2.6 C 0 km/h
2357 26-12-2010 15:21:02 -2.6 C 3.15 g/m*3 -2.6 C 0 km/h
2358 26-12-2010 15:33:02 -2.8 C 3.11 g/m*3 -2.8 C 0 km/h
2359 26-12-2010 15:45:02 -2.8 C 3.15 g/m*3 -2.8 C 0 km/h
2360 26-12-2010 15:57:02 -2.8 C 3.15 g/m*3 -2.8 C 0 km/h
2361 26-12-2010 16:09:02 -2.8 C 3.15 g/m*3 -2.8 C 0 km/h
2362 26-12-2010 16:21:02 -2.8 C 3.15 g/m*3 -2.8 C 0 km/h
2363 26-12-2010 16:33:02 -2.9 C 3.16 g/m*3 -2.9 C 0 km/h
2364 26-12-2010 16:45:02 -2.9 C 3.16 g/m*3 -2.9 C 0 km/h
2365 26-12-2010 16:57:02 -2.9 C 3.16 g/m*3 -2.9 C 0 km/h
2366 26-12-2010 17:09:02 -2.8 C 3.19 g/m*3 -2.8 C 0 km/h
2367 26-12-2010 17:21:02 -2.7 C 3.17 g/m*3 -2.7 C 0 km/h
2368 26-12-2010 17:33:02 -2.8 C 3.15 g/m*3 -2.8 C 0 km/h
2369 26-12-2010 17:45:02 -2.9 C 3.16 g/m*3 -2.9 C 0 km/h
2370 26-12-2010 17:57:02 -2.9 C 3.16 g/m*3 -2.9 C 0 km/h
2371 26-12-2010 18:09:01 -3.2 C 3.1 g/m*3 -3.2 C 0 km/h
2372 26-12-2010 18:21:02 -3.1 C 3.16 g/m*3 -3.1 C 0 km/h
2373 26-12-2010 18:33:01 -2.8 C 3.23 g/m*3 -2.8 C 0 km/h
2374 26-12-2010 18:45:02 -2.7 C 3.21 g/m*3 -2.7 C 0 km/h
2375 26-12-2010 18:57:03 -2.7 C 3.17 g/m*3 -2.7 C 0 km/h
Sensor: Nr:Datum:Temp:Abs-Feuchte:Windchill:Wind:
Aussen-T/F 2376 26-12-2010 19:09:01 -2.8 C 3.15 g/m*3 -2.8 C 0 km/h
2377 26-12-2010 19:21:01 -2.7 C 3.17 g/m*3 -2.7 C 0 km/h
2378 26-12-2010 19:33:02 -2.7 C 3.17 g/m*3 -2.7 C 0 km/h
2379 26-12-2010 19:45:02 -2.7 C 3.21 g/m*3 -2.7 C 0 km/h
2380 26-12-2010 19:57:02 -2.7 C 3.21 g/m*3 -2.7 C 0 km/h
2381 26-12-2010 20:09:02 -3 C 3.14 g/m*3 -3 C 0 km/h
2382 26-12-2010 20:21:02 -3.5 C 3.03 g/m*3 -3.5 C 0 km/h
2383 26-12-2010 20:33:02 -2.9 C 3.24 g/m*3 -2.9 C 0 km/h
2384 26-12-2010 20:45:02 -2.8 C 3.23 g/m*3 -2.8 C 0 km/h
2385 26-12-2010 20:57:02 -3 C 3.14 g/m*3 -3 C 0 km/h
2386 26-12-2010 21:09:02 -3.5 C 3.03 g/m*3 -3.5 C 0 km/h
2387 26-12-2010 21:21:02 -3 C 3.18 g/m*3 -3 C 0 km/h
2388 26-12-2010 21:33:02 -3 C 3.14 g/m*3 -3 C 0 km/h
2389 26-12-2010 21:45:02 -3.5 C 3.03 g/m*3 -3.5 C 0 km/h
2390 26-12-2010 21:57:02 -3.5 C 3.03 g/m*3 -3.5 C 0 km/h
2391 26-12-2010 22:09:02 -3.2 C 3.14 g/m*3 -3.2 C 0 km/h
2392 26-12-2010 22:22:04 -3 C 3.14 g/m*3 -3 C 0 km/h
2393 26-12-2010 22:34:04 -3 C 3.1 g/m*3 -3 C 0 km/h
2394 26-12-2010 22:46:04 -2.9 C 3.13 g/m*3 -2.9 C 0 km/h
2395 26-12-2010 22:58:04 -3.1 C 3.12 g/m*3 -3.1 C 0 km/h
2396 26-12-2010 23:10:04 -3.1 C 3.12 g/m*3 -3.1 C 0 km/h
2397 26-12-2010 23:22:04 -2.8 C 3.19 g/m*3 -2.8 C 0 km/h
2398 26-12-2010 23:34:04 -2.6 C 3.19 g/m*3 -2.6 C 0 km/h
2399 26-12-2010 23:46:04 -2.5 C 3.21 g/m*3 -2.5 C 0 km/h
2400 26-12-2010 23:58:04 -2.6 C 3.19 g/m*3 -2.6 C 0 km/h
Sensor: Nr:Datum:Temp:Abs-Feuchte:Windchill:Wind:
Aussen-T/F 2401 27-12-2010 00:10:04 -2.7 C 3.17 g/m*3 -2.7 C 0 km/h
2402 27-12-2010 00:22:04 -2.8 C 3.19 g/m*3 -2.8 C 0 km/h
2403 27-12-2010 00:34:04 -2.7 C 3.21 g/m*3 -2.7 C 0 km/h
2404 27-12-2010 00:46:04 -2.6 C 3.23 g/m*3 -2.6 C 0 km/h
2405 27-12-2010 00:58:05 -2.4 C 3.28 g/m*3 -2.4 C 0 km/h
2406 27-12-2010 01:10:05 -2.3 C 3.26 g/m*3 -2.3 C 0 km/h
2407 27-12-2010 01:22:05 -1.9 C 3.35 g/m*3 -1.9 C 0 km/h
2408 27-12-2010 01:34:05 -1.9 C 3.31 g/m*3 -1.9 C 0 km/h
2409 27-12-2010 01:46:05 -1.8 C 3.33 g/m*3 -1.8 C 0 km/h
2410 27-12-2010 01:58:05 -1.7 C 3.31 g/m*3 -1.7 C 0 km/h
2411 27-12-2010 02:10:05 -1.6 C 3.34 g/m*3 -1.6 C 0 km/h
2412 27-12-2010 02:22:05 -1.5 C 3.36 g/m*3 -1.5 C 0 km/h
2413 27-12-2010 02:34:05 -1.6 C 3.34 g/m*3 -1.6 C 0 km/h
2414 27-12-2010 02:46:05 -1.5 C 3.36 g/m*3 -1.5 C 0 km/h
2415 27-12-2010 02:58:05 -1.8 C 3.33 g/m*3 -1.8 C 0 km/h
2416 27-12-2010 03:10:05 -1.5 C 3.41 g/m*3 -1.5 C 0 km/h
2417 27-12-2010 03:22:05 -1.4 C 3.43 g/m*3 -1.4 C 0 km/h
2418 27-12-2010 03:34:05 -1.4 C 3.39 g/m*3 -1.4 C 0 km/h
2419 27-12-2010 03:46:05 -1.3 C 3.41 g/m*3 -1.3 C 0 km/h
2420 27-12-2010 03:58:05 -1.3 C 3.41 g/m*3 -1.3 C 0 km/h
2421 27-12-2010 04:10:05 -1.3 C 3.36 g/m*3 -1.3 C 0 km/h
2422 27-12-2010 04:22:05 -1.3 C 3.36 g/m*3 -1.3 C 0 km/h
2423 27-12-2010 04:34:05 -1.3 C 3.36 g/m*3 -1.3 C 0 km/h
2424 27-12-2010 04:46:05 -1.3 C 3.36 g/m*3 -1.3 C 0 km/h
2425 27-12-2010 04:58:05 -1.3 C 3.36 g/m*3 -1.3 C 0 km/h
Sensor: Nr:Datum:Temp:Abs-Feuchte:Windchill:Wind:
Aussen-T/F 2426 27-12-2010 05:10:06 -1.3 C 3.36 g/m*3 -1.3 C 0 km/h
2427 27-12-2010 05:22:06 -1.3 C 3.36 g/m*3 -1.3 C 0 km/h
2428 27-12-2010 05:34:06 -1.3 C 3.36 g/m*3 -1.3 C 0 km/h
2429 27-12-2010 05:46:06 -1.3 C 3.36 g/m*3 -1.3 C 0 km/h
2430 27-12-2010 05:58:06 -1.4 C 3.39 g/m*3 -1.4 C 0 km/h
2431 27-12-2010 06:10:06 -1.4 C 3.39 g/m*3 -1.4 C 0 km/h
2432 27-12-2010 06:22:06 -1.4 C 3.39 g/m*3 -1.4 C 0 km/h
2433 27-12-2010 06:34:06 -1.5 C 3.36 g/m*3 -1.5 C 0 km/h
2434 27-12-2010 06:46:06 -1.4 C 3.39 g/m*3 -1.4 C 0 km/h
2435 27-12-2010 06:58:06 -1.5 C 3.36 g/m*3 -1.5 C 0 km/h
2436 27-12-2010 07:10:06 -1.6 C 3.34 g/m*3 -1.6 C 0 km/h
2437 27-12-2010 07:22:06 -1.5 C 3.36 g/m*3 -1.5 C 0 km/h
2438 27-12-2010 07:34:06 -1.5 C 3.36 g/m*3 -1.5 C 0 km/h
2439 27-12-2010 07:46:06 -1.7 C 3.31 g/m*3 -1.7 C 0 km/h
2440 27-12-2010 07:58:06 -1.8 C 3.29 g/m*3 -1.8 C 0 km/h
2441 27-12-2010 08:10:06 -1.8 C 3.33 g/m*3 -1.8 C 0 km/h
2442 27-12-2010 08:22:06 -1.8 C 3.29 g/m*3 -1.8 C 0 km/h
2443 27-12-2010 08:34:06 -1.9 C 3.27 g/m*3 -1.9 C 0 km/h
2444 27-12-2010 08:46:02 -1.9 C 3.27 g/m*3 -1.9 C 0 km/h
2445 27-12-2010 08:58:02 -1.9 C 3.27 g/m*3 -1.9 C 0 km/h
2446 27-12-2010 09:10:02 -1.8 C 3.25 g/m*3 -1.8 C 0 km/h
2447 27-12-2010 09:22:02 -1.8 C 3.25 g/m*3 -1.8 C 0 km/h
2448 27-12-2010 09:34:02 -1.8 C 3.25 g/m*3 -1.8 C 0 km/h
2449 27-12-2010 09:46:02 -1.8 C 3.25 g/m*3 -1.8 C 0 km/h
2450 27-12-2010 09:58:02 -1.7 C 3.23 g/m*3 -1.7 C 0 km/h
Sensor: Nr:Datum:Temp:Abs-Feuchte:Windchill:Wind:
Aussen-T/F 2451 27-12-2010 10:10:02 -1.6 C 3.25 g/m*3 -1.6 C 0 km/h
2452 27-12-2010 10:22:03 -1.4 C 3.3 g/m*3 -1.4 C 0 km/h
2453 27-12-2010 10:34:02 -1.4 C 3.3 g/m*3 -1.4 C 0 km/h
2454 27-12-2010 10:46:02 -1.4 C 3.25 g/m*3 -1.4 C 0 km/h
2455 27-12-2010 10:58:02 -1.3 C 3.28 g/m*3 -1.3 C 0 km/h
2456 27-12-2010 11:10:02 -1.2 C 3.3 g/m*3 -1.2 C 0 km/h
2457 27-12-2010 11:22:02 -1.2 C 3.25 g/m*3 -1.2 C 0 km/h
2458 27-12-2010 11:34:02 -1.2 C 3.25 g/m*3 -1.2 C 0 km/h
2459 27-12-2010 11:46:02 -1 C 3.3 g/m*3 -1 C 0 km/h
2460 27-12-2010 11:58:02 -1.2 C 3.21 g/m*3 -1.2 C 0 km/h
2461 27-12-2010 12:10:02 -0.8 C 3.25 g/m*3 -0.8 C 0 km/h
2462 27-12-2010 12:22:02 -1 C 3.21 g/m*3 -1 C 0 km/h
2463 27-12-2010 12:34:01 -1.1 C 3.19 g/m*3 -1.1 C 0 km/h
2464 27-12-2010 12:46:02 -1.1 C 3.23 g/m*3 -1.1 C 0 km/h
2465 27-12-2010 12:58:02 -1.1 C 3.23 g/m*3 -1.1 C 0 km/h
2466 27-12-2010 13:10:01 -1.2 C 3.25 g/m*3 -1.2 C 0 km/h
2467 27-12-2010 13:22:02 -0.9 C 3.32 g/m*3 -0.9 C 0 km/h
2468 27-12-2010 13:34:02 -1 C 3.25 g/m*3 -1 C 0 km/h
2469 27-12-2010 13:46:02 -0.8 C 3.3 g/m*3 -0.8 C 0 km/h
2470 27-12-2010 13:58:02 -0.5 C 3.32 g/m*3 -0.5 C 0 km/h
2471 27-12-2010 14:10:03 -0.9 C 3.23 g/m*3 -0.9 C 0 km/h
2472 27-12-2010 14:22:02 -1.1 C 3.23 g/m*3 -1.1 C 0 km/h
2473 27-12-2010 14:34:02 -1 C 3.3 g/m*3 -1 C 0 km/h
2474 27-12-2010 14:46:01 -1.1 C 3.28 g/m*3 -1.1 C 0 km/h
2475 27-12-2010 14:58:01 -1.1 C 3.32 g/m*3 -1.1 C 0 km/h
Sensor: Nr:Datum:Temp:Abs-Feuchte:Windchill:Wind:
Aussen-T/F 2476 27-12-2010 15:10:02 -1.2 C 3.3 g/m*3 -1.2 C 0 km/h
2477 27-12-2010 15:22:01 -1.3 C 3.32 g/m*3 -1.3 C 0 km/h
2478 27-12-2010 15:34:01 -1.3 C 3.36 g/m*3 -1.3 C 0 km/h
2479 27-12-2010 15:46:01 -1.2 C 3.34 g/m*3 -1.2 C 0 km/h
2480 27-12-2010 15:58:01 -1.5 C 3.32 g/m*3 -1.5 C 0 km/h
2481 27-12-2010 16:10:02 -1.9 C 3.23 g/m*3 -1.9 C 0 km/h
2482 27-12-2010 16:22:01 -2.1 C 3.26 g/m*3 -2.1 C 0 km/h
2483 27-12-2010 16:34:01 -2.3 C 3.26 g/m*3 -2.3 C 0 km/h
2484 27-12-2010 16:46:01 -2.5 C 3.26 g/m*3 -2.5 C 0 km/h
2485 27-12-2010 16:58:01 -2.7 C 3.25 g/m*3 -2.7 C 0 km/h
2486 27-12-2010 17:10:02 -3 C 3.22 g/m*3 -3 C 0 km/h
2487 27-12-2010 17:22:02 -3.3 C 3.19 g/m*3 -3.3 C 0 km/h
2488 27-12-2010 17:34:01 -3.3 C 3.23 g/m*3 -3.3 C 0 km/h
2489 27-12-2010 17:46:02 -3.1 C 3.32 g/m*3 -3.1 C 0 km/h
2490 27-12-2010 17:58:02 -3.1 C 3.32 g/m*3 -3.1 C 0 km/h
2491 27-12-2010 18:10:01 -3.1 C 3.35 g/m*3 -3.1 C 0 km/h
2492 27-12-2010 18:22:02 -3.2 C 3.33 g/m*3 -3.2 C 0 km/h
2493 27-12-2010 18:34:01 -3.2 C 3.33 g/m*3 -3.2 C 0 km/h
2494 27-12-2010 18:46:02 -3.2 C 3.33 g/m*3 -3.2 C 0 km/h
2495 27-12-2010 18:58:02 -3.2 C 3.33 g/m*3 -3.2 C 0 km/h
2496 27-12-2010 19:10:02 -3.4 C 3.28 g/m*3 -3.4 C 0 km/h
2497 27-12-2010 19:22:02 -3.6 C 3.24 g/m*3 -3.6 C 0 km/h
2498 27-12-2010 19:34:03 -3.7 C 3.21 g/m*3 -3.7 C 0 km/h
2499 27-12-2010 19:46:02 -4 C 3.15 g/m*3 -4 C 0 km/h
2500 27-12-2010 19:58:02 -4 C 3.15 g/m*3 -4 C 0 km/h
Sensor: Nr:Datum:Temp:Abs-Feuchte:Windchill:Wind:
Aussen-T/F 2501 27-12-2010 20:10:01 -4.1 C 3.16 g/m*3 -4.1 C 0 km/h
2502 27-12-2010 20:22:02 -4.1 C 3.16 g/m*3 -4.1 C 0 km/h
2503 27-12-2010 20:34:02 -4.4 C 3.09 g/m*3 -4.4 C 0 km/h
2504 27-12-2010 20:46:02 -4.3 C 3.12 g/m*3 -4.3 C 0 km/h
2505 27-12-2010 20:58:02 -4.6 C 3.05 g/m*3 -4.6 C 0 km/h
2506 27-12-2010 21:10:02 -4.6 C 3.05 g/m*3 -4.6 C 0 km/h
2507 27-12-2010 21:22:02 -4.5 C 3.07 g/m*3 -4.5 C 0 km/h
2508 27-12-2010 21:34:02 -4.5 C 3.07 g/m*3 -4.5 C 0 km/h
2509 27-12-2010 21:46:02 -4.5 C 3.07 g/m*3 -4.5 C 0 km/h
2510 27-12-2010 21:58:02 -3.9 C 3.24 g/m*3 -3.9 C 0 km/h
2511 27-12-2010 22:10:02 -3.8 C 3.27 g/m*3 -3.8 C 0 km/h
2512 27-12-2010 22:23:02 -4.5 C 3.07 g/m*3 -4.5 C 0 km/h
2513 27-12-2010 22:35:02 -4.5 C 3.07 g/m*3 -4.5 C 0 km/h
2514 27-12-2010 22:47:02 -3.9 C 3.21 g/m*3 -3.9 C 0 km/h
2515 27-12-2010 22:59:02 -4 C 3.18 g/m*3 -4 C 0 km/h
2516 27-12-2010 23:11:03 -3.9 C 3.24 g/m*3 -3.9 C 0 km/h
2517 27-12-2010 23:23:03 -3.9 C 3.21 g/m*3 -3.9 C 0 km/h
2518 27-12-2010 23:35:03 -4.3 C 3.12 g/m*3 -4.3 C 0 km/h
2519 27-12-2010 23:47:03 -4.7 C 3.03 g/m*3 -4.7 C 0 km/h
2520 27-12-2010 23:59:03 -4.9 C 2.95 g/m*3 -4.9 C 0 km/h
2521 28-12-2010 00:11:03 -4.7 C 3.03 g/m*3 -4.7 C 0 km/h
2522 28-12-2010 00:23:03 -4.5 C 3.07 g/m*3 -4.5 C 0 km/h
2523 28-12-2010 00:35:03 -4.5 C 3.07 g/m*3 -4.5 C 0 km/h
2524 28-12-2010 00:47:03 -4.3 C 3.12 g/m*3 -4.3 C 0 km/h
2525 28-12-2010 00:59:03 -4.3 C 3.12 g/m*3 -4.3 C 0 km/h
Sensor: Nr:Datum:Temp:Abs-Feuchte:Windchill:Wind:
Aussen-T/F 2526 28-12-2010 01:11:03 -4.1 C 3.16 g/m*3 -4.1 C 0 km/h
2527 28-12-2010 01:23:03 -4.4 C 3.09 g/m*3 -4.4 C 0 km/h
2528 28-12-2010 01:35:03 -4.4 C 3.09 g/m*3 -4.4 C 0 km/h
2529 28-12-2010 01:47:03 -4.3 C 3.12 g/m*3 -4.3 C 0 km/h
2530 28-12-2010 01:59:03 -4.3 C 3.12 g/m*3 -4.3 C 0 km/h
2531 28-12-2010 02:11:03 -4.1 C 3.16 g/m*3 -4.1 C 0 km/h
2532 28-12-2010 02:23:03 -4 C 3.18 g/m*3 -4 C 0 km/h
2533 28-12-2010 02:35:03 -4.1 C 3.16 g/m*3 -4.1 C 0 km/h
2534 28-12-2010 02:47:03 -4.2 C 3.14 g/m*3 -4.2 C 0 km/h
2535 28-12-2010 02:59:03 -4.4 C 3.09 g/m*3 -4.4 C 0 km/h
2536 28-12-2010 03:11:03 -4.2 C 3.14 g/m*3 -4.2 C 0 km/h
2537 28-12-2010 03:23:04 -4.2 C 3.14 g/m*3 -4.2 C 0 km/h
2538 28-12-2010 03:35:04 -4.5 C 3.04 g/m*3 -4.5 C 0 km/h
2539 28-12-2010 03:47:04 -4.5 C 3.04 g/m*3 -4.5 C 0 km/h
2540 28-12-2010 03:59:04 -4.4 C 3.06 g/m*3 -4.4 C 0 km/h
2541 28-12-2010 04:11:04 -4.2 C 3.14 g/m*3 -4.2 C 0 km/h
2542 28-12-2010 04:23:04 -4.2 C 3.14 g/m*3 -4.2 C 0 km/h
2543 28-12-2010 04:35:04 -4.2 C 3.14 g/m*3 -4.2 C 0 km/h
2544 28-12-2010 04:47:04 -4.2 C 3.14 g/m*3 -4.2 C 0 km/h
2545 28-12-2010 04:59:04 -4 C 3.18 g/m*3 -4 C 0 km/h
2546 28-12-2010 05:11:04 -3.9 C 3.21 g/m*3 -3.9 C 0 km/h
2547 28-12-2010 05:23:04 -3.8 C 3.23 g/m*3 -3.8 C 0 km/h
2548 28-12-2010 05:35:04 -3.8 C 3.23 g/m*3 -3.8 C 0 km/h
2549 28-12-2010 05:47:04 -3.6 C 3.27 g/m*3 -3.6 C 0 km/h
2550 28-12-2010 05:59:04 -3.8 C 3.23 g/m*3 -3.8 C 0 km/h
Sensor: Nr:Datum:Temp:Abs-Feuchte:Windchill:Wind:
Aussen-T/F 2551 28-12-2010 06:11:04 -3.6 C 3.27 g/m*3 -3.6 C 0 km/h
2552 28-12-2010 06:23:04 -3.7 C 3.25 g/m*3 -3.7 C 0 km/h
2553 28-12-2010 06:35:04 -3.8 C 3.23 g/m*3 -3.8 C 0 km/h
2554 28-12-2010 06:47:04 -3.8 C 3.23 g/m*3 -3.8 C 0 km/h
2555 28-12-2010 06:59:04 -3.8 C 3.23 g/m*3 -3.8 C 0 km/h
2556 28-12-2010 07:11:04 -3.7 C 3.25 g/m*3 -3.7 C 0 km/h
2557 28-12-2010 07:23:05 -3.7 C 3.21 g/m*3 -3.7 C 0 km/h
2558 28-12-2010 07:35:05 -3.7 C 3.21 g/m*3 -3.7 C 0 km/h
2559 28-12-2010 07:47:05 -3.7 C 3.21 g/m*3 -3.7 C 0 km/h
2560 28-12-2010 07:59:05 -3.8 C 3.19 g/m*3 -3.8 C 0 km/h
2561 28-12-2010 08:11:05 -3.7 C 3.21 g/m*3 -3.7 C 0 km/h
2562 28-12-2010 08:23:05 -3.7 C 3.21 g/m*3 -3.7 C 0 km/h
2563 28-12-2010 08:35:05 -3.6 C 3.24 g/m*3 -3.6 C 0 km/h
2564 28-12-2010 08:47:05 -3.5 C 3.26 g/m*3 -3.5 C 0 km/h
2565 28-12-2010 08:59:05 -3.3 C 3.31 g/m*3 -3.3 C 0 km/h
2566 28-12-2010 09:11:05 -3.1 C 3.35 g/m*3 -3.1 C 0 km/h
2567 28-12-2010 09:23:05 -3 C 3.38 g/m*3 -3 C 0 km/h
2568 28-12-2010 09:35:05 -2.7 C 3.45 g/m*3 -2.7 C 0 km/h
2569 28-12-2010 09:47:05 -2.5 C 3.46 g/m*3 -2.5 C 0 km/h
2570 28-12-2010 09:59:05 -2.1 C 3.56 g/m*3 -2.1 C 0 km/h
2571 28-12-2010 10:11:02 -1.7 C 3.62 g/m*3 -1.7 C 0 km/h
2572 28-12-2010 10:23:02 -1.4 C 3.65 g/m*3 -1.4 C 0 km/h
2573 28-12-2010 10:35:02 -1.1 C 3.68 g/m*3 -1.1 C 0 km/h
2574 28-12-2010 10:47:01 -0.7 C 3.6 g/m*3 -0.7 C 0 km/h
2575 28-12-2010 10:59:01 -0.7 C 3.51 g/m*3 -0.7 C 0 km/h
Sensor: Nr:Datum:Temp:Abs-Feuchte:Windchill:Wind:
Aussen-T/F 2576 28-12-2010 11:11:02 -0.8 C 3.44 g/m*3 -0.8 C 0 km/h
2577 28-12-2010 11:23:01 -0.7 C 3.51 g/m*3 -0.7 C 0 km/h
2578 28-12-2010 11:35:01 -0.6 C 3.49 g/m*3 -0.6 C 0 km/h
2579 28-12-2010 11:47:01 -0.3 C 3.46 g/m*3 -0.3 C 0 km/h
2580 28-12-2010 11:59:01 -0.3 C 3.42 g/m*3 -0.3 C 0 km/h
2581 28-12-2010 12:11:02 0.1 C 3.46 g/m*3 0.1 C 0 km/h
2582 28-12-2010 12:23:01 0.2 C 3.39 g/m*3 0.2 C 0 km/h
2583 28-12-2010 12:35:02 0.5 C 3.26 g/m*3 0.5 C 0 km/h
2584 28-12-2010 12:47:01 0.3 C 3.22 g/m*3 0.3 C 0 km/h
2585 28-12-2010 12:59:01 0.4 C 3.24 g/m*3 0.4 C 0 km/h
2586 28-12-2010 13:11:02 0.2 C 3.24 g/m*3 0.2 C 0 km/h
2587 28-12-2010 13:23:01 0.5 C 3.36 g/m*3 0.5 C 0 km/h
2588 28-12-2010 13:35:01 0.7 C 3.41 g/m*3 0.7 C 0 km/h
2589 28-12-2010 13:47:01 0.4 C 3.34 g/m*3 0.4 C 0 km/h
2590 28-12-2010 13:59:01 0 C 3.25 g/m*3 0 C 0 km/h
2591 28-12-2010 14:11:01 0.3 C 3.36 g/m*3 0.3 C 0 km/h
2592 28-12-2010 14:23:02 0 C 3.29 g/m*3 0 C 0 km/h
2593 28-12-2010 14:35:01 -0.1 C 3.27 g/m*3 -0.1 C 0 km/h
2594 28-12-2010 14:47:02 0 C 3.34 g/m*3 0 C 0 km/h
2595 28-12-2010 14:59:02 -0.2 C 3.39 g/m*3 -0.2 C 0 km/h
2596 28-12-2010 15:11:01 -0.4 C 3.39 g/m*3 -0.4 C 0 km/h
2597 28-12-2010 15:23:01 -0.5 C 3.42 g/m*3 -0.5 C 0 km/h
2598 28-12-2010 15:35:01 -0.6 C 3.44 g/m*3 -0.6 C 0 km/h
2599 28-12-2010 15:47:02 -0.6 C 3.44 g/m*3 -0.6 C 0 km/h
2600 28-12-2010 15:59:02 -0.6 C 3.39 g/m*3 -0.6 C 0 km/h
Sensor: Nr:Datum:Temp:Abs-Feuchte:Windchill:Wind:
Aussen-T/F 2601 28-12-2010 16:11:01 -0.6 C 3.39 g/m*3 -0.6 C 0 km/h
2602 28-12-2010 16:23:02 -0.7 C 3.37 g/m*3 -0.7 C 0 km/h
2603 28-12-2010 16:35:02 -0.7 C 3.37 g/m*3 -0.7 C 0 km/h
2604 28-12-2010 16:47:01 -0.7 C 3.42 g/m*3 -0.7 C 0 km/h
2605 28-12-2010 16:59:01 -0.7 C 3.42 g/m*3 -0.7 C 0 km/h
2606 28-12-2010 17:11:02 -0.7 C 3.42 g/m*3 -0.7 C 0 km/h
2607 28-12-2010 17:23:01 -0.7 C 3.42 g/m*3 -0.7 C 0 km/h
2608 28-12-2010 17:35:02 -0.7 C 3.42 g/m*3 -0.7 C 0 km/h
2609 28-12-2010 17:47:02 -0.7 C 3.42 g/m*3 -0.7 C 0 km/h
2610 28-12-2010 17:59:02 -0.7 C 3.42 g/m*3 -0.7 C 0 km/h
2611 28-12-2010 18:11:02 -0.8 C 3.44 g/m*3 -0.8 C 0 km/h
2612 28-12-2010 18:23:01 -0.8 C 3.44 g/m*3 -0.8 C 0 km/h
2613 28-12-2010 18:35:02 -0.8 C 3.35 g/m*3 -0.8 C 0 km/h
2614 28-12-2010 18:47:01 -0.9 C 3.32 g/m*3 -0.9 C 0 km/h
2615 28-12-2010 18:59:01 -1.1 C 3.37 g/m*3 -1.1 C 0 km/h
2616 28-12-2010 19:11:02 -1.1 C 3.41 g/m*3 -1.1 C 0 km/h
2617 28-12-2010 19:23:01 -1.1 C 3.41 g/m*3 -1.1 C 0 km/h
2618 28-12-2010 19:35:02 -1.2 C 3.43 g/m*3 -1.2 C 0 km/h
2619 28-12-2010 19:47:01 -1.2 C 3.52 g/m*3 -1.2 C 0 km/h
2620 28-12-2010 19:59:01 -1.4 C 3.47 g/m*3 -1.4 C 0 km/h
2621 28-12-2010 20:11:02 -1.2 C 3.48 g/m*3 -1.2 C 0 km/h
2622 28-12-2010 20:23:02 -1.2 C 3.48 g/m*3 -1.2 C 0 km/h
2623 28-12-2010 20:35:01 -1.4 C 3.43 g/m*3 -1.4 C 0 km/h
2624 28-12-2010 20:47:02 -1.5 C 3.41 g/m*3 -1.5 C 0 km/h
2625 28-12-2010 20:59:02 -1.7 C 3.36 g/m*3 -1.7 C 0 km/h
Sensor: Nr:Datum:Temp:Abs-Feuchte:Windchill:Wind:
Aussen-T/F 2626 28-12-2010 21:11:01 -1.9 C 3.31 g/m*3 -1.9 C 0 km/h
2627 28-12-2010 21:23:02 -2 C 3.33 g/m*3 -2 C 0 km/h
2628 28-12-2010 21:35:01 -2.1 C 3.35 g/m*3 -2.1 C 0 km/h
2629 28-12-2010 21:47:02 -1.8 C 3.46 g/m*3 -1.8 C 0 km/h
2630 28-12-2010 21:59:02 -1.5 C 3.54 g/m*3 -1.5 C 0 km/h
2631 28-12-2010 22:11:02 -1.2 C 3.61 g/m*3 -1.2 C 0 km/h
2632 28-12-2010 22:24:03 -1.3 C 3.59 g/m*3 -1.3 C 0 km/h
2633 28-12-2010 22:36:03 -1.3 C 3.59 g/m*3 -1.3 C 0 km/h
2634 28-12-2010 22:48:03 -1.3 C 3.59 g/m*3 -1.3 C 0 km/h
2635 28-12-2010 23:00:03 -1.3 C 3.54 g/m*3 -1.3 C 0 km/h
2636 28-12-2010 23:12:03 -1.3 C 3.59 g/m*3 -1.3 C 0 km/h
2637 28-12-2010 23:24:03 -1.3 C 3.59 g/m*3 -1.3 C 0 km/h
2638 28-12-2010 23:36:03 -1.3 C 3.59 g/m*3 -1.3 C 0 km/h
2639 28-12-2010 23:48:03 -1.2 C 3.61 g/m*3 -1.2 C 0 km/h
2640 29-12-2010 00:00:03 -1.3 C 3.54 g/m*3 -1.3 C 0 km/h
2641 29-12-2010 00:12:03 -1.4 C 3.52 g/m*3 -1.4 C 0 km/h
2642 29-12-2010 00:24:03 -1.3 C 3.59 g/m*3 -1.3 C 0 km/h
2643 29-12-2010 00:36:03 -1.3 C 3.59 g/m*3 -1.3 C 0 km/h
2644 29-12-2010 00:48:03 -1.3 C 3.59 g/m*3 -1.3 C 0 km/h
2645 29-12-2010 01:00:03 -1.3 C 3.59 g/m*3 -1.3 C 0 km/h
2646 29-12-2010 01:12:03 -1.3 C 3.63 g/m*3 -1.3 C 0 km/h
2647 29-12-2010 01:24:03 -1.3 C 3.63 g/m*3 -1.3 C 0 km/h
2648 29-12-2010 01:36:03 -1.3 C 3.63 g/m*3 -1.3 C 0 km/h
2649 29-12-2010 01:48:03 -1.3 C 3.63 g/m*3 -1.3 C 0 km/h
2650 29-12-2010 02:00:03 -1.3 C 3.63 g/m*3 -1.3 C 0 km/h
Sensor: Nr:Datum:Temp:Abs-Feuchte:Windchill:Wind:
Aussen-T/F 2651 29-12-2010 02:12:04 -1.3 C 3.63 g/m*3 -1.3 C 0 km/h
2652 29-12-2010 02:24:04 -1.3 C 3.63 g/m*3 -1.3 C 0 km/h
2653 29-12-2010 02:36:04 -1.3 C 3.63 g/m*3 -1.3 C 0 km/h
2654 29-12-2010 02:48:04 -1.3 C 3.67 g/m*3 -1.3 C 0 km/h
2655 29-12-2010 03:00:04 -1.2 C 3.66 g/m*3 -1.2 C 0 km/h
2656 29-12-2010 03:12:04 -1.3 C 3.63 g/m*3 -1.3 C 0 km/h
2657 29-12-2010 03:24:04 -1.2 C 3.7 g/m*3 -1.2 C 0 km/h
2658 29-12-2010 03:36:04 -1.2 C 3.7 g/m*3 -1.2 C 0 km/h
2659 29-12-2010 03:48:04 -1.2 C 3.7 g/m*3 -1.2 C 0 km/h
2660 29-12-2010 04:00:04 -1.2 C 3.7 g/m*3 -1.2 C 0 km/h
2661 29-12-2010 04:12:04 -1.2 C 3.7 g/m*3 -1.2 C 0 km/h
2662 29-12-2010 04:24:04 -1.3 C 3.63 g/m*3 -1.3 C 0 km/h
2663 29-12-2010 04:36:04 -1.3 C 3.63 g/m*3 -1.3 C 0 km/h
2664 29-12-2010 04:48:04 -1.4 C 3.65 g/m*3 -1.4 C 0 km/h
2665 29-12-2010 05:00:04 -1.4 C 3.65 g/m*3 -1.4 C 0 km/h
2666 29-12-2010 05:12:04 -1.3 C 3.67 g/m*3 -1.3 C 0 km/h
2667 29-12-2010 05:24:04 -1.3 C 3.67 g/m*3 -1.3 C 0 km/h
2668 29-12-2010 05:36:04 -1.3 C 3.67 g/m*3 -1.3 C 0 km/h
2669 29-12-2010 05:48:04 -1.2 C 3.7 g/m*3 -1.2 C 0 km/h
2670 29-12-2010 06:00:04 -1.2 C 3.7 g/m*3 -1.2 C 0 km/h
2671 29-12-2010 06:12:05 -1.3 C 3.67 g/m*3 -1.3 C 0 km/h
2672 29-12-2010 06:24:05 -1.2 C 3.74 g/m*3 -1.2 C 0 km/h
2673 29-12-2010 06:36:05 -1.2 C 3.74 g/m*3 -1.2 C 0 km/h
2674 29-12-2010 06:48:05 -1.1 C 3.77 g/m*3 -1.1 C 0 km/h
2675 29-12-2010 07:00:05 -1.1 C 3.77 g/m*3 -1.1 C 0 km/h
Sensor: Nr:Datum:Temp:Abs-Feuchte:Windchill:Wind:
Aussen-T/F 2676 29-12-2010 07:12:05 -1.1 C 3.77 g/m*3 -1.1 C 0 km/h
2677 29-12-2010 07:24:05 -1.1 C 3.77 g/m*3 -1.1 C 0 km/h
2678 29-12-2010 07:36:05 -1.1 C 3.82 g/m*3 -1.1 C 0 km/h
2679 29-12-2010 07:48:01 -1.1 C 3.82 g/m*3 -1.1 C 0 km/h
2680 29-12-2010 08:00:01 -1.1 C 3.82 g/m*3 -1.1 C 0 km/h
2681 29-12-2010 08:12:02 -1.1 C 3.82 g/m*3 -1.1 C 0 km/h
2682 29-12-2010 08:24:01 -1.2 C 3.79 g/m*3 -1.2 C 0 km/h
2683 29-12-2010 08:36:01 -1.1 C 3.86 g/m*3 -1.1 C 0 km/h
2684 29-12-2010 08:48:01 -1 C 3.89 g/m*3 -1 C 0 km/h
2685 29-12-2010 09:00:01 -0.9 C 3.91 g/m*3 -0.9 C 0 km/h
2686 29-12-2010 09:12:02 -0.9 C 3.87 g/m*3 -0.9 C 0 km/h
2687 29-12-2010 09:24:02 -0.7 C 3.92 g/m*3 -0.7 C 0 km/h
2688 29-12-2010 09:36:01 -0.7 C 3.88 g/m*3 -0.7 C 0 km/h
2689 29-12-2010 09:48:01 -0.5 C 3.84 g/m*3 -0.5 C 0 km/h
2690 29-12-2010 10:00:01 -0.2 C 3.87 g/m*3 -0.2 C 0 km/h
2691 29-12-2010 10:12:02 0 C 3.78 g/m*3 0 C 0 km/h
2692 29-12-2010 10:24:01 0.2 C 3.73 g/m*3 0.2 C 0 km/h
2693 29-12-2010 10:36:01 0.3 C 3.71 g/m*3 0.3 C 0 km/h
2694 29-12-2010 10:48:01 0.4 C 3.64 g/m*3 0.4 C 0 km/h
2695 29-12-2010 11:00:01 0.4 C 3.64 g/m*3 0.4 C 0 km/h
2696 29-12-2010 11:12:02 0.6 C 3.64 g/m*3 0.6 C 0 km/h
2697 29-12-2010 11:24:01 0.6 C 3.59 g/m*3 0.6 C 0 km/h
2698 29-12-2010 11:36:01 0.7 C 3.61 g/m*3 0.7 C 0 km/h
2699 29-12-2010 11:48:01 0.6 C 3.53 g/m*3 0.6 C 0 km/h
2700 29-12-2010 12:00:01 0.9 C 3.66 g/m*3 0.9 C 0 km/h
Sensor: Nr:Datum:Temp:Abs-Feuchte:Windchill:Wind:
Aussen-T/F 2701 29-12-2010 12:12:01 0.9 C 3.61 g/m*3 0.9 C 0 km/h
2702 29-12-2010 12:24:02 0.7 C 3.56 g/m*3 0.7 C 0 km/h
2703 29-12-2010 12:36:01 1 C 3.53 g/m*3 1 C 0 km/h
2704 29-12-2010 12:48:03 0.9 C 3.56 g/m*3 0.9 C 0 km/h
2705 29-12-2010 13:00:03 1.3 C 3.66 g/m*3 1.3 C 0 km/h
2706 29-12-2010 13:12:02 1.2 C 3.58 g/m*3 1.2 C 0 km/h
2707 29-12-2010 13:24:02 1.4 C 3.63 g/m*3 1.4 C 0 km/h
2708 29-12-2010 13:36:02 1.5 C 3.6 g/m*3 1.5 C 0 km/h
2709 29-12-2010 13:48:02 1.3 C 3.6 g/m*3 1.3 C 0 km/h
2710 29-12-2010 14:00:02 1.6 C 3.68 g/m*3 1.6 C 0 km/h
2711 29-12-2010 14:12:01 1.7 C 3.65 g/m*3 1.7 C 0 km/h
2712 29-12-2010 14:24:02 1.7 C 3.65 g/m*3 1.7 C 0 km/h
2713 29-12-2010 14:36:02 2.1 C 3.69 g/m*3 2.1 C 0 km/h
2714 29-12-2010 14:48:01 1.7 C 3.65 g/m*3 1.7 C 0 km/h
2715 29-12-2010 15:00:01 1.3 C 3.66 g/m*3 1.3 C 0 km/h
2716 29-12-2010 15:12:02 1.3 C 3.71 g/m*3 1.3 C 0 km/h
2717 29-12-2010 15:24:01 1.2 C 3.74 g/m*3 1.2 C 0 km/h
2718 29-12-2010 15:36:01 1.1 C 3.76 g/m*3 1.1 C 0 km/h
2719 29-12-2010 15:48:01 1 C 3.79 g/m*3 1 C 0 km/h
2720 29-12-2010 16:00:01 0.8 C 3.84 g/m*3 0.8 C 0 km/h
2721 29-12-2010 16:12:02 0.7 C 3.81 g/m*3 0.7 C 0 km/h
2722 29-12-2010 16:24:01 0.6 C 3.89 g/m*3 0.6 C 0 km/h
2723 29-12-2010 16:36:02 0.5 C 3.86 g/m*3 0.5 C 0 km/h
2724 29-12-2010 16:48:01 0.5 C 3.86 g/m*3 0.5 C 0 km/h
2725 29-12-2010 17:00:01 0.4 C 3.84 g/m*3 0.4 C 0 km/h
Sensor: Nr:Datum:Temp:Abs-Feuchte:Windchill:Wind:
Aussen-T/F 2726 29-12-2010 17:12:02 0.3 C 3.81 g/m*3 0.3 C 0 km/h
2727 29-12-2010 17:24:01 0.3 C 3.86 g/m*3 0.3 C 0 km/h
2728 29-12-2010 17:36:02 0.2 C 3.88 g/m*3 0.2 C 0 km/h
2729 29-12-2010 17:48:01 0.2 C 3.88 g/m*3 0.2 C 0 km/h
2730 29-12-2010 18:00:01 0.2 C 3.88 g/m*3 0.2 C 0 km/h
2731 29-12-2010 18:12:02 0.2 C 3.88 g/m*3 0.2 C 0 km/h
2732 29-12-2010 18:24:02 0.1 C 3.85 g/m*3 0.1 C 0 km/h
2733 29-12-2010 18:36:01 0.1 C 3.9 g/m*3 0.1 C 0 km/h
2734 29-12-2010 18:48:02 0.1 C 3.95 g/m*3 0.1 C 0 km/h
2735 29-12-2010 19:00:02 0.1 C 3.95 g/m*3 0.1 C 0 km/h
2736 29-12-2010 19:12:01 0.1 C 3.95 g/m*3 0.1 C 0 km/h
2737 29-12-2010 19:24:02 0.1 C 4 g/m*3 0.1 C 0 km/h
2738 29-12-2010 19:36:01 0 C 3.97 g/m*3 0 C 0 km/h
2739 29-12-2010 19:48:02 0 C 3.97 g/m*3 0 C 0 km/h
2740 29-12-2010 20:00:02 0 C 3.97 g/m*3 0 C 0 km/h
2741 29-12-2010 20:12:01 0 C 3.97 g/m*3 0 C 0 km/h
2742 29-12-2010 20:24:01 0 C 3.97 g/m*3 0 C 0 km/h
2743 29-12-2010 20:36:01 -0.1 C 3.95 g/m*3 -0.1 C 0 km/h
2744 29-12-2010 20:48:02 -0.1 C 3.95 g/m*3 -0.1 C 0 km/h
2745 29-12-2010 21:00:02 -0.1 C 3.95 g/m*3 -0.1 C 0 km/h
2746 29-12-2010 21:12:02 -0.2 C 3.92 g/m*3 -0.2 C 0 km/h
2747 29-12-2010 21:24:02 -0.2 C 3.92 g/m*3 -0.2 C 0 km/h
2748 29-12-2010 21:36:02 -0.2 C 3.92 g/m*3 -0.2 C 0 km/h
2749 29-12-2010 21:48:01 -0.2 C 3.92 g/m*3 -0.2 C 0 km/h
2750 29-12-2010 22:00:01 -0.2 C 3.92 g/m*3 -0.2 C 0 km/h
Sensor: Nr:Datum:Temp:Abs-Feuchte:Windchill:Wind:
Aussen-T/F 2751 29-12-2010 22:12:02 -0.3 C 3.89 g/m*3 -0.3 C 0 km/h
2752 29-12-2010 22:24:01 -0.3 C 3.84 g/m*3 -0.3 C 0 km/h
2753 29-12-2010 22:36:01 -0.3 C 3.8 g/m*3 -0.3 C 0 km/h
2754 29-12-2010 22:48:01 -0.5 C 3.74 g/m*3 -0.5 C 0 km/h
2755 29-12-2010 23:00:01 -0.6 C 3.76 g/m*3 -0.6 C 0 km/h
2756 29-12-2010 23:12:02 -0.6 C 3.81 g/m*3 -0.6 C 0 km/h
2757 29-12-2010 23:24:02 -0.7 C 3.78 g/m*3 -0.7 C 0 km/h
2758 29-12-2010 23:36:01 -0.7 C 3.83 g/m*3 -0.7 C 0 km/h
2759 29-12-2010 23:49:59 -0.9 C 3.78 g/m*3 -0.9 C 0 km/h
2760 30-12-2010 00:12:59 -0.9 C 3.78 g/m*3 -0.9 C 0 km/h
2761 30-12-2010 00:24:59 -0.9 C 3.82 g/m*3 -0.9 C 0 km/h
2762 30-12-2010 00:36:59 -0.9 C 3.82 g/m*3 -0.9 C 0 km/h
2763 30-12-2010 00:48:59 -1 C 3.75 g/m*3 -1 C 0 km/h
2764 30-12-2010 01:00:59 -1.1 C 3.73 g/m*3 -1.1 C 0 km/h
2765 30-12-2010 01:12:59 -1.4 C 3.65 g/m*3 -1.4 C 0 km/h
2766 30-12-2010 01:24:59 -1.3 C 3.72 g/m*3 -1.3 C 0 km/h
2767 30-12-2010 01:36:59 -1.3 C 3.72 g/m*3 -1.3 C 0 km/h
2768 30-12-2010 01:49:00 -1.5 C 3.67 g/m*3 -1.5 C 0 km/h
2769 30-12-2010 02:01:00 -1.5 C 3.71 g/m*3 -1.5 C 0 km/h
2770 30-12-2010 02:13:00 -1.6 C 3.68 g/m*3 -1.6 C 0 km/h
2771 30-12-2010 02:25:00 -1.5 C 3.75 g/m*3 -1.5 C 0 km/h
2772 30-12-2010 02:37:00 -1.4 C 3.78 g/m*3 -1.4 C 0 km/h
2773 30-12-2010 02:49:00 -1.3 C 3.81 g/m*3 -1.3 C 0 km/h
2774 30-12-2010 03:01:00 -1.2 C 3.83 g/m*3 -1.2 C 0 km/h
2775 30-12-2010 03:13:00 -1.2 C 3.83 g/m*3 -1.2 C 0 km/h
Sensor: Nr:Datum:Temp:Abs-Feuchte:Windchill:Wind:
Aussen-T/F 2776 30-12-2010 03:25:00 -1.1 C 3.86 g/m*3 -1.1 C 0 km/h
2777 30-12-2010 03:37:00 -1.1 C 3.86 g/m*3 -1.1 C 0 km/h
2778 30-12-2010 03:49:00 -1.1 C 3.86 g/m*3 -1.1 C 0 km/h
2779 30-12-2010 04:01:00 -1.1 C 3.82 g/m*3 -1.1 C 0 km/h
2780 30-12-2010 04:13:00 -1.1 C 3.82 g/m*3 -1.1 C 0 km/h
2781 30-12-2010 04:25:00 -1.1 C 3.77 g/m*3 -1.1 C 0 km/h
2782 30-12-2010 04:37:00 -1.2 C 3.7 g/m*3 -1.2 C 0 km/h
2783 30-12-2010 04:49:00 -1.2 C 3.7 g/m*3 -1.2 C 0 km/h
2784 30-12-2010 05:01:00 -1.2 C 3.7 g/m*3 -1.2 C 0 km/h
2785 30-12-2010 05:13:00 -1.2 C 3.66 g/m*3 -1.2 C 0 km/h
2786 30-12-2010 05:25:00 -1.2 C 3.61 g/m*3 -1.2 C 0 km/h
2787 30-12-2010 05:37:00 -1.2 C 3.61 g/m*3 -1.2 C 0 km/h
2788 30-12-2010 05:49:01 -9.3 C 2.01 g/m*3 -9.3 C 0 km/h
2789 30-12-2010 06:01:01 -1.2 C 3.57 g/m*3 -1.2 C 0 km/h
2790 30-12-2010 06:13:01 -1.2 C 3.57 g/m*3 -1.2 C 0 km/h
2791 30-12-2010 06:25:01 -1.2 C 3.52 g/m*3 -1.2 C 0 km/h
2792 30-12-2010 06:37:01 -1.3 C 3.5 g/m*3 -1.3 C 0 km/h
2793 30-12-2010 06:49:01 -1.3 C 3.5 g/m*3 -1.3 C 0 km/h
2794 30-12-2010 07:01:01 -1.3 C 3.45 g/m*3 -1.3 C 0 km/h
2795 30-12-2010 07:13:01 -1.3 C 3.45 g/m*3 -1.3 C 0 km/h
2796 30-12-2010 07:25:01 -1.3 C 3.45 g/m*3 -1.3 C 0 km/h
2797 30-12-2010 07:37:01 -1.4 C 3.43 g/m*3 -1.4 C 0 km/h
2798 30-12-2010 07:49:01 -1.4 C 3.43 g/m*3 -1.4 C 0 km/h
2799 30-12-2010 08:01:01 -1.4 C 3.43 g/m*3 -1.4 C 0 km/h
2800 30-12-2010 08:13:01 -1.4 C 3.43 g/m*3 -1.4 C 0 km/h
Sensor: Nr:Datum:Temp:Abs-Feuchte:Windchill:Wind:
Aussen-T/F 2801 30-12-2010 08:25:01 -1.4 C 3.43 g/m*3 -1.4 C 0 km/h
2802 30-12-2010 08:37:01 -1.4 C 3.47 g/m*3 -1.4 C 0 km/h
2803 30-12-2010 08:49:01 -1.4 C 3.47 g/m*3 -1.4 C 0 km/h
2804 30-12-2010 09:01:01 -1.3 C 3.45 g/m*3 -1.3 C 0 km/h
2805 30-12-2010 09:13:01 -1.2 C 3.48 g/m*3 -1.2 C 0 km/h
2806 30-12-2010 09:25:01 -1.1 C 3.5 g/m*3 -1.1 C 0 km/h
2807 30-12-2010 09:37:01 -1 C 3.44 g/m*3 -1 C 0 km/h
2808 30-12-2010 09:49:02 -0.9 C 3.46 g/m*3 -0.9 C 0 km/h
2809 30-12-2010 10:01:02 -0.7 C 3.46 g/m*3 -0.7 C 0 km/h
2810 30-12-2010 10:01:03 -0.8 C 3.39 g/m*3 -0.8 C 0 km/h
2811 30-12-2010 10:13:03 -0.6 C 3.44 g/m*3 -0.6 C 0 km/h
2812 30-12-2010 10:25:02 -0.3 C 3.51 g/m*3 -0.3 C 0 km/h
2813 30-12-2010 10:37:03 -0.3 C 3.46 g/m*3 -0.3 C 0 km/h
2814 30-12-2010 10:49:01 0 C 3.49 g/m*3 0 C 0 km/h
2815 30-12-2010 11:01:02 0.1 C 3.51 g/m*3 0.1 C 0 km/h
2816 30-12-2010 11:13:02 -0.1 C 3.51 g/m*3 -0.1 C 0 km/h
2817 30-12-2010 11:25:02 0 C 3.54 g/m*3 0 C 0 km/h
2818 30-12-2010 11:37:02 0.1 C 3.51 g/m*3 0.1 C 0 km/h
2819 30-12-2010 11:49:02 0.3 C 3.56 g/m*3 0.3 C 0 km/h
2820 30-12-2010 12:01:02 0.4 C 3.59 g/m*3 0.4 C 0 km/h
2821 30-12-2010 12:13:02 0.3 C 3.56 g/m*3 0.3 C 0 km/h
2822 30-12-2010 12:25:02 0.5 C 3.61 g/m*3 0.5 C 0 km/h
2823 30-12-2010 12:37:01 0.7 C 3.56 g/m*3 0.7 C 0 km/h
2824 30-12-2010 12:49:02 1.1 C 3.61 g/m*3 1.1 C 0 km/h
2825 30-12-2010 13:01:01 0.9 C 3.51 g/m*3 0.9 C 0 km/h
Sensor: Nr:Datum:Temp:Abs-Feuchte:Windchill:Wind:
Aussen-T/F 2826 30-12-2010 13:13:01 1 C 3.58 g/m*3 1 C 0 km/h
2827 30-12-2010 13:25:02 1.1 C 3.61 g/m*3 1.1 C 0 km/h
2828 30-12-2010 13:37:02 1.5 C 3.65 g/m*3 1.5 C 0 km/h
2829 30-12-2010 13:49:02 1.5 C 3.6 g/m*3 1.5 C 0 km/h
2830 30-12-2010 14:01:02 1.5 C 3.6 g/m*3 1.5 C 0 km/h
2831 30-12-2010 14:13:02 1.4 C 3.57 g/m*3 1.4 C 0 km/h
2832 30-12-2010 14:25:02 1 C 3.53 g/m*3 1 C 0 km/h
2833 30-12-2010 14:37:02 1.3 C 3.66 g/m*3 1.3 C 0 km/h
2834 30-12-2010 14:49:01 1.4 C 3.68 g/m*3 1.4 C 0 km/h
2835 30-12-2010 15:01:02 1.4 C 3.68 g/m*3 1.4 C 0 km/h
2836 30-12-2010 15:13:02 1.1 C 3.61 g/m*3 1.1 C 0 km/h
2837 30-12-2010 15:25:01 0.9 C 3.66 g/m*3 0.9 C 0 km/h
2838 30-12-2010 15:37:02 0.8 C 3.69 g/m*3 0.8 C 0 km/h
2839 30-12-2010 15:49:01 0.7 C 3.71 g/m*3 0.7 C 0 km/h
2840 30-12-2010 16:01:02 0.6 C 3.74 g/m*3 0.6 C 0 km/h
2841 30-12-2010 16:13:03 0.3 C 3.71 g/m*3 0.3 C 0 km/h
2842 30-12-2010 16:25:01 0.3 C 3.76 g/m*3 0.3 C 0 km/h
2843 30-12-2010 16:37:02 0.2 C 3.68 g/m*3 0.2 C 0 km/h
2844 30-12-2010 16:49:01 0.1 C 3.76 g/m*3 0.1 C 0 km/h
2845 30-12-2010 17:01:02 0.1 C 3.76 g/m*3 0.1 C 0 km/h
2846 30-12-2010 17:13:02 0.1 C 3.76 g/m*3 0.1 C 0 km/h
2847 30-12-2010 17:25:02 0.1 C 3.76 g/m*3 0.1 C 0 km/h
2848 30-12-2010 17:37:01 0.1 C 3.76 g/m*3 0.1 C 0 km/h
2849 30-12-2010 17:49:02 -0.2 C 3.68 g/m*3 -0.2 C 0 km/h
2850 30-12-2010 18:01:01 -0.1 C 3.71 g/m*3 -0.1 C 0 km/h
Sensor: Nr:Datum:Temp:Abs-Feuchte:Windchill:Wind:
Aussen-T/F 2851 30-12-2010 18:13:01 -0.2 C 3.68 g/m*3 -0.2 C 0 km/h
2852 30-12-2010 18:25:02 -0.4 C 3.63 g/m*3 -0.4 C 0 km/h
2853 30-12-2010 18:37:01 -0.4 C 3.68 g/m*3 -0.4 C 0 km/h
2854 30-12-2010 18:49:03 -0.4 C 3.72 g/m*3 -0.4 C 0 km/h
2855 30-12-2010 19:01:02 -0.4 C 3.72 g/m*3 -0.4 C 0 km/h
2856 30-12-2010 19:13:02 -0.4 C 3.77 g/m*3 -0.4 C 0 km/h
2857 30-12-2010 19:25:02 -0.5 C 3.74 g/m*3 -0.5 C 0 km/h
2858 30-12-2010 19:37:03 -0.5 C 3.74 g/m*3 -0.5 C 0 km/h
2859 30-12-2010 19:49:02 -0.4 C 3.77 g/m*3 -0.4 C 0 km/h
2860 30-12-2010 20:01:01 -0.4 C 3.72 g/m*3 -0.4 C 0 km/h
2861 30-12-2010 20:13:01 -0.5 C 3.7 g/m*3 -0.5 C 0 km/h
2862 30-12-2010 20:25:02 -0.5 C 3.7 g/m*3 -0.5 C 0 km/h
2863 30-12-2010 20:37:02 -0.5 C 3.74 g/m*3 -0.5 C 0 km/h
2864 30-12-2010 20:49:01 -0.5 C 3.7 g/m*3 -0.5 C 0 km/h
2865 30-12-2010 21:01:02 -0.5 C 3.65 g/m*3 -0.5 C 0 km/h
2866 30-12-2010 21:13:02 -0.6 C 3.63 g/m*3 -0.6 C 0 km/h
2867 30-12-2010 21:25:01 -0.6 C 3.63 g/m*3 -0.6 C 0 km/h
2868 30-12-2010 21:37:02 -0.7 C 3.6 g/m*3 -0.7 C 0 km/h
2869 30-12-2010 21:49:02 -0.6 C 3.63 g/m*3 -0.6 C 0 km/h
2870 30-12-2010 22:01:02 -0.7 C 3.65 g/m*3 -0.7 C 0 km/h
2871 30-12-2010 22:13:03 -0.7 C 3.6 g/m*3 -0.7 C 0 km/h
2872 30-12-2010 22:25:01 -0.8 C 3.58 g/m*3 -0.8 C 0 km/h
2873 30-12-2010 22:37:02 -0.8 C 3.58 g/m*3 -0.8 C 0 km/h
2874 30-12-2010 22:49:01 -0.9 C 3.55 g/m*3 -0.9 C 0 km/h
2875 30-12-2010 23:01:02 -0.9 C 3.55 g/m*3 -0.9 C 0 km/h
Sensor: Nr:Datum:Temp:Abs-Feuchte:Windchill:Wind:
Aussen-T/F 2876 30-12-2010 23:13:02 -0.9 C 3.55 g/m*3 -0.9 C 0 km/h
2877 30-12-2010 23:25:02 -0.9 C 3.51 g/m*3 -0.9 C 0 km/h
2878 30-12-2010 23:37:01 -1 C 3.48 g/m*3 -1 C 0 km/h
2879 30-12-2010 23:49:02 -1.1 C 3.46 g/m*3 -1.1 C 0 km/h
2880 31-12-2010 00:01:01 -1.1 C 3.46 g/m*3 -1.1 C 0 km/h
2881 31-12-2010 00:13:01 -1.1 C 3.5 g/m*3 -1.1 C 0 km/h
2882 31-12-2010 00:25:02 -1.1 C 3.5 g/m*3 -1.1 C 0 km/h
2883 31-12-2010 00:37:01 -1.1 C 3.5 g/m*3 -1.1 C 0 km/h
2884 31-12-2010 00:49:03 -1.1 C 3.5 g/m*3 -1.1 C 0 km/h
2885 31-12-2010 01:01:02 -1.1 C 3.55 g/m*3 -1.1 C 0 km/h
2886 31-12-2010 01:13:02 -1.1 C 3.55 g/m*3 -1.1 C 0 km/h
2887 31-12-2010 01:25:02 -1.1 C 3.55 g/m*3 -1.1 C 0 km/h
2888 31-12-2010 01:37:03 -1.2 C 3.52 g/m*3 -1.2 C 0 km/h
2889 31-12-2010 01:49:02 -1.2 C 3.52 g/m*3 -1.2 C 0 km/h
2890 31-12-2010 02:01:02 -1.3 C 3.5 g/m*3 -1.3 C 0 km/h
2891 31-12-2010 02:13:02 -1.3 C 3.5 g/m*3 -1.3 C 0 km/h
2892 31-12-2010 02:25:02 -1.2 C 3.52 g/m*3 -1.2 C 0 km/h
2893 31-12-2010 02:37:02 -1.4 C 3.47 g/m*3 -1.4 C 0 km/h
2894 31-12-2010 02:50:04 -1.5 C 3.45 g/m*3 -1.5 C 0 km/h
2895 31-12-2010 03:02:04 -1.6 C 3.42 g/m*3 -1.6 C 0 km/h
2896 31-12-2010 03:14:05 -1.6 C 3.42 g/m*3 -1.6 C 0 km/h
2897 31-12-2010 03:26:05 -1.8 C 3.38 g/m*3 -1.8 C 0 km/h
2898 31-12-2010 03:38:02 -1.9 C 3.4 g/m*3 -1.9 C 0 km/h
2899 31-12-2010 03:50:03 -1.9 C 3.4 g/m*3 -1.9 C 0 km/h
2900 31-12-2010 04:02:01 -1.9 C 3.4 g/m*3 -1.9 C 0 km/h
Sensor: Nr:Datum:Temp:Abs-Feuchte:Windchill:Wind:
Aussen-T/F 2901 31-12-2010 04:14:01 -2 C 3.37 g/m*3 -2 C 0 km/h
2902 31-12-2010 04:26:02 -2 C 3.37 g/m*3 -2 C 0 km/h
2903 31-12-2010 04:38:02 -2 C 3.37 g/m*3 -2 C 0 km/h
2904 31-12-2010 04:50:01 -2 C 3.37 g/m*3 -2 C 0 km/h
2905 31-12-2010 05:02:02 -2.1 C 3.35 g/m*3 -2.1 C 0 km/h
2906 31-12-2010 05:14:02 -2.1 C 3.35 g/m*3 -2.1 C 0 km/h
2907 31-12-2010 05:26:01 -2.1 C 3.35 g/m*3 -2.1 C 0 km/h
2908 31-12-2010 05:38:02 -2.1 C 3.35 g/m*3 -2.1 C 0 km/h
2909 31-12-2010 05:50:02 -2.2 C 3.28 g/m*3 -2.2 C 0 km/h
2910 31-12-2010 06:02:02 -2.3 C 3.26 g/m*3 -2.3 C 0 km/h
2911 31-12-2010 06:14:02 -2.3 C 3.26 g/m*3 -2.3 C 0 km/h
2912 31-12-2010 06:26:01 -2.3 C 3.3 g/m*3 -2.3 C 0 km/h
2913 31-12-2010 06:38:02 -2.2 C 3.33 g/m*3 -2.2 C 0 km/h
2914 31-12-2010 06:50:02 -2.2 C 3.33 g/m*3 -2.2 C 0 km/h
2915 31-12-2010 07:02:02 -2.2 C 3.33 g/m*3 -2.2 C 0 km/h
2916 31-12-2010 07:14:02 -2.1 C 3.35 g/m*3 -2.1 C 0 km/h
2917 31-12-2010 07:26:01 -2 C 3.41 g/m*3 -2 C 0 km/h
2918 31-12-2010 07:38:02 -2.1 C 3.39 g/m*3 -2.1 C 0 km/h
2919 31-12-2010 07:50:01 -2.2 C 3.33 g/m*3 -2.2 C 0 km/h
2920 31-12-2010 08:02:02 -2.2 C 3.37 g/m*3 -2.2 C 0 km/h
2921 31-12-2010 08:14:02 -2.1 C 3.39 g/m*3 -2.1 C 0 km/h
2922 31-12-2010 08:26:02 -2.1 C 3.39 g/m*3 -2.1 C 0 km/h
2923 31-12-2010 08:38:01 -2.1 C 3.39 g/m*3 -2.1 C 0 km/h
2924 31-12-2010 08:50:02 -2.1 C 3.39 g/m*3 -2.1 C 0 km/h
2925 31-12-2010 09:02:01 -2 C 3.41 g/m*3 -2 C 0 km/h
Sensor: Nr:Datum:Temp:Abs-Feuchte:Windchill:Wind:
Aussen-T/F 2926 31-12-2010 09:14:01 -2.1 C 3.39 g/m*3 -2.1 C 0 km/h
2927 31-12-2010 09:26:01 -2.2 C 3.37 g/m*3 -2.2 C 0 km/h
2928 31-12-2010 09:38:01 -2.3 C 3.3 g/m*3 -2.3 C 0 km/h
2929 31-12-2010 09:50:02 -2.3 C 3.3 g/m*3 -2.3 C 0 km/h
2930 31-12-2010 10:02:01 -2.1 C 3.35 g/m*3 -2.1 C 0 km/h
2931 31-12-2010 10:14:01 -2.1 C 3.35 g/m*3 -2.1 C 0 km/h
2932 31-12-2010 10:26:02 -1.9 C 3.35 g/m*3 -1.9 C 0 km/h
2933 31-12-2010 10:38:02 -1.7 C 3.36 g/m*3 -1.7 C 0 km/h
2934 31-12-2010 10:50:02 -1.7 C 3.36 g/m*3 -1.7 C 0 km/h
2935 31-12-2010 11:02:02 -1.5 C 3.36 g/m*3 -1.5 C 0 km/h
2936 31-12-2010 11:14:02 -1.5 C 3.32 g/m*3 -1.5 C 0 km/h
2937 31-12-2010 11:26:02 -1.2 C 3.39 g/m*3 -1.2 C 0 km/h
2938 31-12-2010 11:38:02 -1 C 3.44 g/m*3 -1 C 0 km/h
2939 31-12-2010 11:50:02 -0.9 C 3.41 g/m*3 -0.9 C 0 km/h
2940 31-12-2010 12:02:02 -1.2 C 3.34 g/m*3 -1.2 C 0 km/h
2941 31-12-2010 12:14:02 -1.1 C 3.41 g/m*3 -1.1 C 0 km/h
2942 31-12-2010 12:26:02 -1.1 C 3.37 g/m*3 -1.1 C 0 km/h
2943 31-12-2010 12:38:02 -0.7 C 3.42 g/m*3 -0.7 C 0 km/h
2944 31-12-2010 12:50:01 -0.5 C 3.51 g/m*3 -0.5 C 0 km/h
2945 31-12-2010 13:02:01 -0.6 C 3.44 g/m*3 -0.6 C 0 km/h
2946 31-12-2010 13:14:01 -0.6 C 3.39 g/m*3 -0.6 C 0 km/h
2947 31-12-2010 13:26:01 -0.2 C 3.49 g/m*3 -0.2 C 0 km/h
2948 31-12-2010 13:38:01 0.1 C 3.51 g/m*3 0.1 C 0 km/h
2949 31-12-2010 13:50:01 0.4 C 3.49 g/m*3 0.4 C 0 km/h
2950 31-12-2010 14:02:01 0.2 C 3.29 g/m*3 0.2 C 0 km/h
Sensor: Nr:Datum:Temp:Abs-Feuchte:Windchill:Wind:
Aussen-T/F 2951 31-12-2010 14:14:01 0.7 C 3.46 g/m*3 0.7 C 0 km/h
2952 31-12-2010 14:26:02 0.4 C 3.39 g/m*3 0.4 C 0 km/h
2953 31-12-2010 14:38:01 0.1 C 3.37 g/m*3 0.1 C 0 km/h
2954 31-12-2010 14:50:02 -0.2 C 3.35 g/m*3 -0.2 C 0 km/h
2955 31-12-2010 15:02:02 -0.3 C 3.37 g/m*3 -0.3 C 0 km/h
2956 31-12-2010 15:14:02 -0.4 C 3.39 g/m*3 -0.4 C 0 km/h
2957 31-12-2010 15:26:02 -0.4 C 3.44 g/m*3 -0.4 C 0 km/h
2958 31-12-2010 15:38:01 -0.3 C 3.46 g/m*3 -0.3 C 0 km/h
2959 31-12-2010 15:50:02 -0.3 C 3.46 g/m*3 -0.3 C 0 km/h
2960 31-12-2010 16:02:01 -0.5 C 3.46 g/m*3 -0.5 C 0 km/h
2961 31-12-2010 16:14:01 -0.5 C 3.51 g/m*3 -0.5 C 0 km/h
2962 31-12-2010 16:26:02 -0.6 C 3.53 g/m*3 -0.6 C 0 km/h
2963 31-12-2010 16:38:02 -0.6 C 3.53 g/m*3 -0.6 C 0 km/h
2964 31-12-2010 16:50:02 -0.6 C 3.58 g/m*3 -0.6 C 0 km/h
2965 31-12-2010 17:02:02 -0.6 C 3.58 g/m*3 -0.6 C 0 km/h
2966 31-12-2010 17:14:02 -0.6 C 3.58 g/m*3 -0.6 C 0 km/h
2967 31-12-2010 17:26:02 -0.6 C 3.63 g/m*3 -0.6 C 0 km/h
2968 31-12-2010 17:38:03 -0.6 C 3.67 g/m*3 -0.6 C 0 km/h
2969 31-12-2010 17:50:02 -0.6 C 3.67 g/m*3 -0.6 C 0 km/h
2970 31-12-2010 18:02:02 -0.6 C 3.67 g/m*3 -0.6 C 0 km/h
2971 31-12-2010 18:14:02 -0.6 C 3.72 g/m*3 -0.6 C 0 km/h
2972 31-12-2010 18:26:02 -0.5 C 3.79 g/m*3 -0.5 C 0 km/h
2973 31-12-2010 18:38:02 -0.5 C 3.79 g/m*3 -0.5 C 0 km/h
2974 31-12-2010 18:50:02 -0.5 C 3.84 g/m*3 -0.5 C 0 km/h
2975 31-12-2010 19:02:02 -0.5 C 3.84 g/m*3 -0.5 C 0 km/h
Sensor: Nr:Datum:Temp:Abs-Feuchte:Windchill:Wind:
Aussen-T/F 2976 31-12-2010 19:14:02 -0.6 C 3.81 g/m*3 -0.6 C 0 km/h
2977 31-12-2010 19:26:02 -0.6 C 3.81 g/m*3 -0.6 C 0 km/h
2978 31-12-2010 19:38:02 -0.6 C 3.81 g/m*3 -0.6 C 0 km/h
2979 31-12-2010 19:50:02 -0.7 C 3.83 g/m*3 -0.7 C 0 km/h
2980 31-12-2010 20:02:02 -0.7 C 3.88 g/m*3 -0.7 C 0 km/h
2981 31-12-2010 20:14:03 -0.7 C 3.92 g/m*3 -0.7 C 0 km/h
2982 31-12-2010 20:26:02 -0.7 C 3.92 g/m*3 -0.7 C 0 km/h
2983 31-12-2010 20:38:02 -0.6 C 3.95 g/m*3 -0.6 C 0 km/h
2984 31-12-2010 20:50:01 -0.5 C 4.03 g/m*3 -0.5 C 0 km/h
2985 31-12-2010 21:02:01 -0.6 C 4 g/m*3 -0.6 C 0 km/h
2986 31-12-2010 21:14:01 -0.6 C 4 g/m*3 -0.6 C 0 km/h
2987 31-12-2010 21:26:02 -0.6 C 4 g/m*3 -0.6 C 0 km/h
2988 31-12-2010 21:38:01 -0.6 C 4.04 g/m*3 -0.6 C 0 km/h
2989 31-12-2010 21:50:02 -0.5 C 4.07 g/m*3 -0.5 C 0 km/h
2990 31-12-2010 22:02:02 -0.4 C 4.1 g/m*3 -0.4 C 0 km/h
2991 31-12-2010 22:14:02 -0.4 C 4.1 g/m*3 -0.4 C 0 km/h
2992 31-12-2010 22:26:01 -0.4 C 4.1 g/m*3 -0.4 C 0 km/h
2993 31-12-2010 22:38:01 -0.4 C 4.1 g/m*3 -0.4 C 0 km/h
2994 31-12-2010 22:50:01 -0.3 C 4.13 g/m*3 -0.3 C 0 km/h
2995 31-12-2010 23:02:02 -0.3 C 4.13 g/m*3 -0.3 C 0 km/h
2996 31-12-2010 23:14:02 -0.3 C 4.13 g/m*3 -0.3 C 0 km/h
2997 31-12-2010 23:26:01 -0.3 C 4.13 g/m*3 -0.3 C 0 km/h
2998 31-12-2010 23:38:02 -0.4 C 4.1 g/m*3 -0.4 C 0 km/h
2999 31-12-2010 23:38:02 -0.3 C 4.13 g/m*3 -0.3 C 0 km/h
3000 31-12-2010 23:38:02 -0.4 C 4.1 g/m*3 -0.4 C 0 km/h
Sensor: Nr:Datum:Temp:Abs-Feuchte:Windchill:Wind:
Aussen-T/F 3001 31-12-2010 23:38:02 -0.3 C 4.13 g/m*3 -0.3 C 0 km/h
3002 31-12-2010 23:50:02 -0.3 C 4.13 g/m*3 -0.3 C 0 km/h
3003 01-01-2011 00:02:02 -0.3 C 4.13 g/m*3 -0.3 C 0 km/h
3004 01-01-2011 00:14:02 -0.3 C 4.13 g/m*3 -0.3 C 0 km/h
3005 01-01-2011 00:26:02 -0.3 C 4.13 g/m*3 -0.3 C 0 km/h
3006 01-01-2011 00:38:02 -0.3 C 4.13 g/m*3 -0.3 C 0 km/h
3007 01-01-2011 00:50:02 -0.4 C 4.1 g/m*3 -0.4 C 0 km/h
3008 01-01-2011 01:02:02 -0.4 C 4.15 g/m*3 -0.4 C 0 km/h
3009 01-01-2011 01:14:02 -0.3 C 4.18 g/m*3 -0.3 C 0 km/h
3010 01-01-2011 01:26:02 -0.3 C 4.18 g/m*3 -0.3 C 0 km/h
3011 01-01-2011 01:38:02 -0.2 C 4.21 g/m*3 -0.2 C 0 km/h
3012 01-01-2011 01:50:02 -0.2 C 4.21 g/m*3 -0.2 C 0 km/h
3013 01-01-2011 02:02:02 -0.2 C 4.21 g/m*3 -0.2 C 0 km/h
3014 01-01-2011 02:14:02 -0.2 C 4.21 g/m*3 -0.2 C 0 km/h
3015 01-01-2011 02:26:02 -0.1 C 4.23 g/m*3 -0.1 C 0 km/h
3016 01-01-2011 02:38:02 -0.1 C 4.23 g/m*3 -0.1 C 0 km/h
3017 01-01-2011 02:50:03 -0.1 C 4.23 g/m*3 -0.1 C 0 km/h
3018 01-01-2011 03:02:03 -0.2 C 4.21 g/m*3 -0.2 C 0 km/h
3019 01-01-2011 03:12:01 -0.1 C 4.23 g/m*3 -0.1 C 0 km/h
3020 01-01-2011 03:24:01 -0.1 C 4.23 g/m*3 -0.1 C 0 km/h
3021 01-01-2011 03:34:02 -0.1 C 4.23 g/m*3 -0.1 C 0 km/h
3022 01-01-2011 03:46:02 -0.2 C 4.21 g/m*3 -0.2 C 0 km/h
3023 01-01-2011 03:58:02 -0.1 C 4.23 g/m*3 -0.1 C 0 km/h
3024 01-01-2011 04:08:01 -0.2 C 4.21 g/m*3 -0.2 C 0 km/h
3025 01-01-2011 04:19:01 -0.2 C 4.21 g/m*3 -0.2 C 0 km/h
Sensor: Nr:Datum:Temp:Abs-Feuchte:Windchill:Wind:
Aussen-T/F 3026 01-01-2011 04:51:59 -0.2 C 4.21 g/m*3 -0.2 C 0 km/h
3027 01-01-2011 05:03:59 -0.2 C 4.25 g/m*3 -0.2 C 0 km/h
3028 01-01-2011 05:15:25 -0.2 C 4.25 g/m*3 -0.2 C 0 km/h
3029 01-01-2011 05:27:41 0 C 4.31 g/m*3 0 C 0 km/h
3030 01-01-2011 05:39:09 0.1 C 4.34 g/m*3 0.1 C 0 km/h
3031 01-01-2011 05:51:09 0.2 C 4.32 g/m*3 0.2 C 0 km/h
3032 01-01-2011 06:03:26 0.3 C 4.35 g/m*3 0.3 C 0 km/h
3033 01-01-2011 06:15:52 0.3 C 4.3 g/m*3 0.3 C 0 km/h
3034 01-01-2011 06:27:48 0.4 C 4.28 g/m*3 0.4 C 0 km/h
3035 01-01-2011 06:39:48 0.4 C 4.28 g/m*3 0.4 C 0 km/h
3036 01-01-2011 06:51:33 0.4 C 4.23 g/m*3 0.4 C 0 km/h
3037 01-01-2011 07:03:29 0.4 C 4.23 g/m*3 0.4 C 0 km/h
3038 01-01-2011 07:15:15 0.5 C 4.26 g/m*3 0.5 C 0 km/h
3039 01-01-2011 07:27:11 0.5 C 4.26 g/m*3 0.5 C 0 km/h
3040 01-01-2011 07:39:56 0.5 C 4.26 g/m*3 0.5 C 0 km/h
3041 01-01-2011 07:51:52 0.6 C 4.24 g/m*3 0.6 C 0 km/h
3042 01-01-2011 08:03:38 0.6 C 4.24 g/m*3 0.6 C 0 km/h
3043 01-01-2011 08:15:38 0.7 C 4.27 g/m*3 0.7 C 0 km/h
3044 01-01-2011 08:27:34 0.8 C 4.3 g/m*3 0.8 C 0 km/h
3045 01-01-2011 08:39:19 1 C 4.36 g/m*3 1 C 0 km/h
3046 01-01-2011 08:51:15 1 C 4.31 g/m*3 1 C 0 km/h
3047 01-01-2011 09:03:01 0.8 C 4.3 g/m*3 0.8 C 0 km/h
3048 01-01-2011 09:15:57 0.9 C 4.38 g/m*3 0.9 C 0 km/h
3049 01-01-2011 09:27:43 1.2 C 4.42 g/m*3 1.2 C 0 km/h
3050 01-01-2011 09:39:43 1.3 C 4.4 g/m*3 1.3 C 0 km/h
Sensor: Nr:Datum:Temp:Abs-Feuchte:Windchill:Wind:
Aussen-T/F 3051 01-01-2011 09:51:38 1.2 C 4.42 g/m*3 1.2 C 0 km/h
3052 01-01-2011 10:03:25 1.2 C 4.47 g/m*3 1.2 C 0 km/h
3053 01-01-2011 10:15:19 1.3 C 4.56 g/m*3 1.3 C 0 km/h
3054 01-01-2011 10:27:06 1.2 C 4.58 g/m*3 1.2 C 0 km/h
3055 01-01-2011 10:39:01 1.5 C 4.67 g/m*3 1.5 C 0 km/h
3056 01-01-2011 10:51:48 1.6 C 4.65 g/m*3 1.6 C 0 km/h
3057 01-01-2011 11:03:48 1.8 C 4.71 g/m*3 1.8 C 0 km/h
3058 01-01-2011 11:15:42 1.8 C 4.66 g/m*3 1.8 C 0 km/h
3059 01-01-2011 11:27:29 1.8 C 4.66 g/m*3 1.8 C 0 km/h
3060 01-01-2011 11:39:24 2 C 4.67 g/m*3 2 C 0 km/h
3061 01-01-2011 11:51:01 2.3 C 4.71 g/m*3 2.3 C 0 km/h
3062 01-01-2011 12:03:02 2.4 C 4.68 g/m*3 2.4 C 0 km/h
3063 01-01-2011 12:15:01 2.5 C 4.66 g/m*3 2.5 C 0 km/h
3064 01-01-2011 12:27:01 2.6 C 4.63 g/m*3 2.6 C 0 km/h
3065 01-01-2011 12:39:02 2.4 C 4.57 g/m*3 2.4 C 0 km/h
3066 01-01-2011 12:51:01 2.3 C 4.59 g/m*3 2.3 C 0 km/h
3067 01-01-2011 13:03:02 2.6 C 4.69 g/m*3 2.6 C 0 km/h
3068 01-01-2011 13:15:01 3 C 4.7 g/m*3 3 C 0 km/h
3069 01-01-2011 13:27:01 3 C 4.58 g/m*3 3 C 0 km/h
3070 01-01-2011 13:39:02 2.9 C 4.61 g/m*3 2.9 C 0 km/h
3071 01-01-2011 13:51:01 3.1 C 4.55 g/m*3 3.1 C 0 km/h
3072 01-01-2011 14:03:02 2.8 C 4.58 g/m*3 2.8 C 0 km/h
3073 01-01-2011 14:15:02 2.7 C 4.6 g/m*3 2.7 C 0 km/h
3074 01-01-2011 14:27:02 2.3 C 4.59 g/m*3 2.3 C 0 km/h
3075 01-01-2011 14:39:02 2.5 C 4.71 g/m*3 2.5 C 0 km/h
Sensor: Nr:Datum:Temp:Abs-Feuchte:Windchill:Wind:
Aussen-T/F 3076 01-01-2011 14:51:01 2.4 C 4.68 g/m*3 2.4 C 0 km/h
3077 01-01-2011 15:03:01 2.4 C 4.68 g/m*3 2.4 C 0 km/h
3078 01-01-2011 15:15:02 2.1 C 4.59 g/m*3 2.1 C 0 km/h
3079 01-01-2011 15:27:02 2 C 4.61 g/m*3 2 C 0 km/h
3080 01-01-2011 15:39:01 1.8 C 4.6 g/m*3 1.8 C 0 km/h
3081 01-01-2011 15:51:01 1.8 C 4.71 g/m*3 1.8 C 0 km/h
3082 01-01-2011 16:03:01 1.7 C 4.68 g/m*3 1.7 C 0 km/h
3083 01-01-2011 16:15:02 1.6 C 4.7 g/m*3 1.6 C 0 km/h
3084 01-01-2011 16:27:02 1.7 C 4.79 g/m*3 1.7 C 0 km/h
3085 01-01-2011 16:39:01 1.4 C 4.69 g/m*3 1.4 C 0 km/h
3086 01-01-2011 16:51:01 1.5 C 4.78 g/m*3 1.5 C 0 km/h
3087 01-01-2011 17:03:01 1.5 C 4.78 g/m*3 1.5 C 0 km/h
3088 01-01-2011 17:15:02 1.4 C 4.75 g/m*3 1.4 C 0 km/h
3089 01-01-2011 17:27:02 1.3 C 4.72 g/m*3 1.3 C 0 km/h
3090 01-01-2011 17:39:01 1.3 C 4.77 g/m*3 1.3 C 0 km/h
3091 01-01-2011 17:51:03 1.2 C 4.74 g/m*3 1.2 C 0 km/h
3092 01-01-2011 18:03:02 1.4 C 4.8 g/m*3 1.4 C 0 km/h
3093 01-01-2011 18:15:02 1.4 C 4.85 g/m*3 1.4 C 0 km/h
3094 01-01-2011 18:27:02 1.3 C 4.82 g/m*3 1.3 C 0 km/h
3095 01-01-2011 18:39:02 1.4 C 4.85 g/m*3 1.4 C 0 km/h
3096 01-01-2011 18:51:02 1.8 C 5.04 g/m*3 1.8 C 0 km/h
3097 01-01-2011 19:03:02 2 C 5.06 g/m*3 2 C 0 km/h
3098 01-01-2011 19:15:02 2 C 5.06 g/m*3 2 C 0 km/h
3099 01-01-2011 19:27:02 2 C 5.06 g/m*3 2 C 0 km/h
3100 01-01-2011 19:39:02 1.9 C 5.08 g/m*3 1.9 C 0 km/h
Sensor: Nr:Datum:Temp:Abs-Feuchte:Windchill:Wind:
Aussen-T/F 3101 01-01-2011 19:51:02 1.9 C 5.02 g/m*3 1.9 C 0 km/h
3102 01-01-2011 20:03:01 1.9 C 5.02 g/m*3 1.9 C 0 km/h
3103 01-01-2011 20:15:01 1.7 C 4.95 g/m*3 1.7 C 0 km/h
3104 01-01-2011 20:27:01 1.7 C 4.9 g/m*3 1.7 C 0 km/h
3105 01-01-2011 20:39:02 1.8 C 4.93 g/m*3 1.8 C 0 km/h
3106 01-01-2011 20:51:02 1.5 C 4.83 g/m*3 1.5 C 0 km/h
3107 01-01-2011 21:03:02 1.4 C 4.8 g/m*3 1.4 C 0 km/h
3108 01-01-2011 21:15:02 1.2 C 4.74 g/m*3 1.2 C 0 km/h
3109 01-01-2011 21:27:02 1.2 C 4.74 g/m*3 1.2 C 0 km/h
3110 01-01-2011 21:39:02 1.1 C 4.7 g/m*3 1.1 C 0 km/h
3111 01-01-2011 21:52:23 1 C 4.67 g/m*3 1 C 0 km/h
3112 01-01-2011 22:04:23 1 C 4.67 g/m*3 1 C 0 km/h
3113 01-01-2011 22:16:23 1 C 4.72 g/m*3 1 C 0 km/h
3114 01-01-2011 22:28:23 1.3 C 4.82 g/m*3 1.3 C 0 km/h
3115 01-01-2011 22:40:24 1.4 C 4.85 g/m*3 1.4 C 0 km/h
3116 01-01-2011 22:52:24 0.6 C 4.6 g/m*3 0.6 C 0 km/h
3117 01-01-2011 23:04:24 0.3 C 4.5 g/m*3 0.3 C 0 km/h
3118 01-01-2011 23:16:01 0.6 C 4.6 g/m*3 0.6 C 0 km/h
3119 01-01-2011 23:28:01 0.2 C 4.47 g/m*3 0.2 C 0 km/h
3120 01-01-2011 23:40:01 0.2 C 4.47 g/m*3 0.2 C 0 km/h
3121 01-01-2011 23:52:01 0.2 C 4.47 g/m*3 0.2 C 0 km/h
3122 02-01-2011 00:04:01 -0.1 C 4.38 g/m*3 -0.1 C 0 km/h
3123 02-01-2011 00:16:01 0.1 C 4.49 g/m*3 0.1 C 0 km/h
3124 02-01-2011 00:28:01 0.3 C 4.55 g/m*3 0.3 C 0 km/h
3125 02-01-2011 00:40:01 0.3 C 4.55 g/m*3 0.3 C 0 km/h
Sensor: Nr:Datum:Temp:Abs-Feuchte:Windchill:Wind:
Aussen-T/F 3126 02-01-2011 00:52:01 0.3 C 4.55 g/m*3 0.3 C 0 km/h
3127 02-01-2011 01:04:01 0.3 C 4.55 g/m*3 0.3 C 0 km/h
3128 02-01-2011 01:16:01 0.4 C 4.58 g/m*3 0.4 C 0 km/h
3129 02-01-2011 01:28:02 0.2 C 4.52 g/m*3 0.2 C 0 km/h
3130 02-01-2011 01:40:02 0.3 C 4.55 g/m*3 0.3 C 0 km/h
3131 02-01-2011 01:52:02 0.4 C 4.63 g/m*3 0.4 C 0 km/h
3132 02-01-2011 02:04:02 0.5 C 4.66 g/m*3 0.5 C 0 km/h
3133 02-01-2011 02:16:02 0.4 C 4.63 g/m*3 0.4 C 0 km/h
3134 02-01-2011 02:28:02 0 C 4.46 g/m*3 0 C 0 km/h
3135 02-01-2011 02:40:02 0.3 C 4.6 g/m*3 0.3 C 0 km/h
3136 02-01-2011 02:52:02 0.6 C 4.7 g/m*3 0.6 C 0 km/h
3137 02-01-2011 03:04:02 0.6 C 4.7 g/m*3 0.6 C 0 km/h
3138 02-01-2011 03:16:02 0.3 C 4.6 g/m*3 0.3 C 0 km/h
3139 02-01-2011 03:28:02 0.3 C 4.6 g/m*3 0.3 C 0 km/h
3140 02-01-2011 03:40:02 0.4 C 4.63 g/m*3 0.4 C 0 km/h
3141 02-01-2011 03:52:02 0.6 C 4.7 g/m*3 0.6 C 0 km/h
3142 02-01-2011 04:04:02 0.5 C 4.66 g/m*3 0.5 C 0 km/h
3143 02-01-2011 04:16:02 0.5 C 4.66 g/m*3 0.5 C 0 km/h
3144 02-01-2011 04:28:02 0.6 C 4.7 g/m*3 0.6 C 0 km/h
3145 02-01-2011 04:40:02 0.6 C 4.7 g/m*3 0.6 C 0 km/h
3146 02-01-2011 04:52:02 0.3 C 4.55 g/m*3 0.3 C 0 km/h
3147 02-01-2011 05:04:02 0.2 C 4.52 g/m*3 0.2 C 0 km/h
3148 02-01-2011 05:16:02 0.3 C 4.55 g/m*3 0.3 C 0 km/h
3149 02-01-2011 05:28:03 0.2 C 4.52 g/m*3 0.2 C 0 km/h
3150 02-01-2011 05:40:03 0.3 C 4.55 g/m*3 0.3 C 0 km/h
Sensor: Nr:Datum:Temp:Abs-Feuchte:Windchill:Wind:
Aussen-T/F 3151 02-01-2011 05:52:03 0.4 C 4.58 g/m*3 0.4 C 0 km/h
3152 02-01-2011 06:04:03 0.3 C 4.55 g/m*3 0.3 C 0 km/h
3153 02-01-2011 06:16:03 0.3 C 4.55 g/m*3 0.3 C 0 km/h
3154 02-01-2011 06:28:03 0.5 C 4.61 g/m*3 0.5 C 0 km/h
3155 02-01-2011 06:40:03 0.4 C 4.58 g/m*3 0.4 C 0 km/h
3156 02-01-2011 06:52:03 0 C 4.41 g/m*3 0 C 0 km/h
3157 02-01-2011 07:04:03 0.2 C 4.47 g/m*3 0.2 C 0 km/h
3158 02-01-2011 07:16:03 0.4 C 4.53 g/m*3 0.4 C 0 km/h
3159 02-01-2011 07:28:03 0.4 C 4.48 g/m*3 0.4 C 0 km/h
3160 02-01-2011 07:40:03 0.2 C 4.42 g/m*3 0.2 C 0 km/h
3161 02-01-2011 07:52:03 0.3 C 4.45 g/m*3 0.3 C 0 km/h
3162 02-01-2011 08:04:03 0.4 C 4.43 g/m*3 0.4 C 0 km/h
3163 02-01-2011 08:16:03 0 C 4.31 g/m*3 0 C 0 km/h
3164 02-01-2011 08:28:03 -0.4 C 4.15 g/m*3 -0.4 C 0 km/h
3165 02-01-2011 08:40:03 0.2 C 4.37 g/m*3 0.2 C 0 km/h
3166 02-01-2011 08:52:03 0.4 C 4.43 g/m*3 0.4 C 0 km/h
3167 02-01-2011 09:04:03 0.3 C 4.4 g/m*3 0.3 C 0 km/h
3168 02-01-2011 09:16:03 0.3 C 4.4 g/m*3 0.3 C 0 km/h
3169 02-01-2011 09:28:04 0.5 C 4.46 g/m*3 0.5 C 0 km/h
3170 02-01-2011 09:40:04 0.7 C 4.53 g/m*3 0.7 C 0 km/h
3171 02-01-2011 09:52:02 0.9 C 4.59 g/m*3 0.9 C 0 km/h
3172 02-01-2011 10:04:02 1.1 C 4.6 g/m*3 1.1 C 0 km/h
3173 02-01-2011 10:16:02 1.5 C 4.67 g/m*3 1.5 C 0 km/h
3174 02-01-2011 10:28:02 1.3 C 4.45 g/m*3 1.3 C 0 km/h
3175 02-01-2011 10:40:02 1.6 C 4.38 g/m*3 1.6 C 0 km/h
Sensor: Nr:Datum:Temp:Abs-Feuchte:Windchill:Wind:
Aussen-T/F 3176 02-01-2011 10:52:01 1.6 C 4.22 g/m*3 1.6 C 0 km/h
3177 02-01-2011 11:04:02 1.9 C 4.19 g/m*3 1.9 C 0 km/h
3178 02-01-2011 11:16:01 1.5 C 4.08 g/m*3 1.5 C 0 km/h
3179 02-01-2011 11:28:01 1.5 C 4.14 g/m*3 1.5 C 0 km/h
3180 02-01-2011 11:40:01 2.1 C 4.25 g/m*3 2.1 C 0 km/h
3181 02-01-2011 11:52:02 2 C 4.11 g/m*3 2 C 0 km/h
3182 02-01-2011 12:04:01 1.9 C 4.19 g/m*3 1.9 C 0 km/h
3183 02-01-2011 12:16:02 1.9 C 4.19 g/m*3 1.9 C 0 km/h
3184 02-01-2011 12:28:02 2.2 C 4.11 g/m*3 2.2 C 0 km/h
3185 02-01-2011 12:40:01 2.1 C 4.14 g/m*3 2.1 C 0 km/h
3186 02-01-2011 12:52:03 2.2 C 4.17 g/m*3 2.2 C 0 km/h
3187 02-01-2011 13:04:02 2 C 4.06 g/m*3 2 C 0 km/h
3188 02-01-2011 13:16:02 2.6 C 4.28 g/m*3 2.6 C 0 km/h
3189 02-01-2011 13:28:02 2.7 C 4.2 g/m*3 2.7 C 0 km/h
3190 02-01-2011 13:40:02 2.6 C 4.11 g/m*3 2.6 C 0 km/h
3191 02-01-2011 13:52:02 2.6 C 4.05 g/m*3 2.6 C 0 km/h
3192 02-01-2011 14:04:02 2.5 C 4.08 g/m*3 2.5 C 0 km/h
3193 02-01-2011 14:16:02 2.1 C 3.97 g/m*3 2.1 C 0 km/h
3194 02-01-2011 14:28:02 1.6 C 4 g/m*3 1.6 C 0 km/h
3195 02-01-2011 14:40:03 2.2 C 4.17 g/m*3 2.2 C 0 km/h
3196 02-01-2011 14:52:02 2.7 C 4.14 g/m*3 2.7 C 0 km/h
3197 02-01-2011 15:04:02 2.2 C 4 g/m*3 2.2 C 0 km/h
3198 02-01-2011 15:16:03 2.2 C 4.06 g/m*3 2.2 C 0 km/h
3199 02-01-2011 15:28:03 1.9 C 4.03 g/m*3 1.9 C 0 km/h
3200 02-01-2011 15:40:02 0.6 C 3.79 g/m*3 0.6 C 0 km/h
Sensor: Nr:Datum:Temp:Abs-Feuchte:Windchill:Wind:
Aussen-T/F 3201 02-01-2011 15:52:02 1.6 C 4.27 g/m*3 1.6 C 0 km/h
3202 02-01-2011 16:04:02 1.8 C 4.28 g/m*3 1.8 C 0 km/h
3203 02-01-2011 16:16:02 1.8 C 4.22 g/m*3 1.8 C 0 km/h
3204 02-01-2011 16:28:02 1.5 C 4.14 g/m*3 1.5 C 0 km/h
3205 02-01-2011 16:40:03 1.3 C 4.13 g/m*3 1.3 C 0 km/h
3206 02-01-2011 16:52:03 0.8 C 4.2 g/m*3 0.8 C 0 km/h
3207 02-01-2011 17:04:02 0.6 C 4.24 g/m*3 0.6 C 0 km/h
3208 02-01-2011 17:16:01 0.8 C 4.4 g/m*3 0.8 C 0 km/h
3209 02-01-2011 17:28:01 0.7 C 4.37 g/m*3 0.7 C 0 km/h
3210 02-01-2011 17:40:02 0.7 C 4.42 g/m*3 0.7 C 0 km/h
3211 02-01-2011 17:52:02 0.5 C 4.36 g/m*3 0.5 C 0 km/h
3212 02-01-2011 18:04:02 0.5 C 4.41 g/m*3 0.5 C 0 km/h
3213 02-01-2011 18:16:01 0.6 C 4.44 g/m*3 0.6 C 0 km/h
3214 02-01-2011 18:28:01 0.6 C 4.44 g/m*3 0.6 C 0 km/h
3215 02-01-2011 18:40:02 0.7 C 4.47 g/m*3 0.7 C 0 km/h
3216 02-01-2011 18:52:02 0.7 C 4.47 g/m*3 0.7 C 0 km/h
3217 02-01-2011 19:04:02 0.5 C 4.41 g/m*3 0.5 C 0 km/h
3218 02-01-2011 19:16:03 0.6 C 4.44 g/m*3 0.6 C 0 km/h
3219 02-01-2011 19:28:03 0.6 C 4.44 g/m*3 0.6 C 0 km/h
3220 02-01-2011 19:40:02 0.7 C 4.47 g/m*3 0.7 C 0 km/h
3221 02-01-2011 19:52:02 0.5 C 4.41 g/m*3 0.5 C 0 km/h
3222 02-01-2011 20:04:02 0.6 C 4.44 g/m*3 0.6 C 0 km/h
3223 02-01-2011 20:16:02 0.6 C 4.44 g/m*3 0.6 C 0 km/h
3224 02-01-2011 20:28:02 0.5 C 4.36 g/m*3 0.5 C 0 km/h
3225 02-01-2011 20:40:02 0.3 C 4.3 g/m*3 0.3 C 0 km/h
Sensor: Nr:Datum:Temp:Abs-Feuchte:Windchill:Wind:
Aussen-T/F 3226 02-01-2011 20:52:02 0.1 C 4.24 g/m*3 0.1 C 0 km/h
3227 02-01-2011 21:04:02 0.2 C 4.32 g/m*3 0.2 C 0 km/h
3228 02-01-2011 21:16:02 0.3 C 4.35 g/m*3 0.3 C 0 km/h
3229 02-01-2011 21:28:03 0.3 C 4.35 g/m*3 0.3 C 0 km/h
3230 02-01-2011 21:40:02 0.1 C 4.29 g/m*3 0.1 C 0 km/h
3231 02-01-2011 21:52:02 0 C 4.26 g/m*3 0 C 0 km/h
3232 02-01-2011 22:04:02 0.3 C 4.35 g/m*3 0.3 C 0 km/h
3233 02-01-2011 22:17:03 0.3 C 4.35 g/m*3 0.3 C 0 km/h
3234 02-01-2011 22:29:03 0.1 C 4.24 g/m*3 0.1 C 0 km/h
3235 02-01-2011 22:41:03 0.2 C 4.27 g/m*3 0.2 C 0 km/h
3236 02-01-2011 22:53:03 0.1 C 4.24 g/m*3 0.1 C 0 km/h
3237 02-01-2011 23:05:03 0.2 C 4.32 g/m*3 0.2 C 0 km/h
3238 02-01-2011 23:17:03 0.1 C 4.29 g/m*3 0.1 C 0 km/h
3239 02-01-2011 23:29:03 0.1 C 4.29 g/m*3 0.1 C 0 km/h